<?xml version="1.0" encoding="UTF-8" standalone="no" ?>
<gpx xmlns="http://www.topografix.com/GPX/1/1" xmlns:xsi="http://www.w3.org/2001/XMLSchema-instance" xsi:schemaLocation="http://www.topografix.com/GPX/1/1 http://www.topografix.com/GPX/1/1/gpx.xsd" version="1.1" creator="VisuGPX - https://www.visugpx.com">
  <metadata>
    <name>Traversée des Pyrénées 2/8</name>
    <desc><![CDATA[Partie 2/8 de la traversée des Pyrénées à ski.]]></desc>
  </metadata>
  <trk>
    <name><![CDATA[L’Hospitalet-près-l’Andorre Course à pied]]></name>
    <trkseg>
      <trkpt lat="42.58714" lon="1.79749">
        <ele>1444.8000488281</ele>
        <time>2017-02-14T07:12:53.000Z</time>
      </trkpt>
      <trkpt lat="42.5866" lon="1.79695">
        <ele>1449</ele>
        <time>2017-02-14T07:13:53.000Z</time>
      </trkpt>
      <trkpt lat="42.58605" lon="1.79676">
        <ele>1454.1999511719</ele>
        <time>2017-02-14T07:14:53.000Z</time>
      </trkpt>
      <trkpt lat="42.58555" lon="1.79708">
        <ele>1457.1999511719</ele>
        <time>2017-02-14T07:15:54.000Z</time>
      </trkpt>
      <trkpt lat="42.58531" lon="1.79685">
        <ele>1463.4000244141</ele>
        <time>2017-02-14T07:16:56.000Z</time>
      </trkpt>
      <trkpt lat="42.58508" lon="1.7961">
        <ele>1461.5999755859</ele>
        <time>2017-02-14T07:17:57.000Z</time>
      </trkpt>
      <trkpt lat="42.5856" lon="1.79564">
        <ele>1462.5999755859</ele>
        <time>2017-02-14T07:18:58.000Z</time>
      </trkpt>
      <trkpt lat="42.58549" lon="1.79566">
        <ele>1464.8000488281</ele>
        <time>2017-02-14T07:20:00.000Z</time>
      </trkpt>
      <trkpt lat="42.58567" lon="1.79542">
        <ele>1464.4000244141</ele>
        <time>2017-02-14T07:21:01.000Z</time>
      </trkpt>
      <trkpt lat="42.58539" lon="1.79556">
        <ele>1464.4000244141</ele>
        <time>2017-02-14T07:22:05.000Z</time>
      </trkpt>
      <trkpt lat="42.58557" lon="1.79533">
        <ele>1471.5999755859</ele>
        <time>2017-02-14T07:23:06.000Z</time>
      </trkpt>
      <trkpt lat="42.58576" lon="1.79522">
        <ele>1480.4000244141</ele>
        <time>2017-02-14T07:24:07.000Z</time>
      </trkpt>
      <trkpt lat="42.5859" lon="1.795">
        <ele>1488.8000488281</ele>
        <time>2017-02-14T07:25:08.000Z</time>
      </trkpt>
      <trkpt lat="42.58617" lon="1.7949">
        <ele>1496</ele>
        <time>2017-02-14T07:26:11.000Z</time>
      </trkpt>
      <trkpt lat="42.58655" lon="1.7947">
        <ele>1504</ele>
        <time>2017-02-14T07:27:12.000Z</time>
      </trkpt>
      <trkpt lat="42.58678" lon="1.79445">
        <ele>1510.4000244141</ele>
        <time>2017-02-14T07:28:14.000Z</time>
      </trkpt>
      <trkpt lat="42.58698" lon="1.79428">
        <ele>1514.4000244141</ele>
        <time>2017-02-14T07:29:16.000Z</time>
      </trkpt>
      <trkpt lat="42.58734" lon="1.794">
        <ele>1518.8000488281</ele>
        <time>2017-02-14T07:30:17.000Z</time>
      </trkpt>
      <trkpt lat="42.58787" lon="1.79388">
        <ele>1522</ele>
        <time>2017-02-14T07:31:19.000Z</time>
      </trkpt>
      <trkpt lat="42.58835" lon="1.79367">
        <ele>1527</ele>
        <time>2017-02-14T07:32:23.000Z</time>
      </trkpt>
      <trkpt lat="42.58866" lon="1.79347">
        <ele>1530.1999511719</ele>
        <time>2017-02-14T07:33:26.000Z</time>
      </trkpt>
      <trkpt lat="42.58885" lon="1.7933">
        <ele>1536.1999511719</ele>
        <time>2017-02-14T07:34:28.000Z</time>
      </trkpt>
      <trkpt lat="42.58908" lon="1.79276">
        <ele>1543.1999511719</ele>
        <time>2017-02-14T07:35:30.000Z</time>
      </trkpt>
      <trkpt lat="42.58922" lon="1.79256">
        <ele>1550.4000244141</ele>
        <time>2017-02-14T07:36:33.000Z</time>
      </trkpt>
      <trkpt lat="42.58934" lon="1.79232">
        <ele>1559</ele>
        <time>2017-02-14T07:37:37.000Z</time>
      </trkpt>
      <trkpt lat="42.58952" lon="1.79199">
        <ele>1563.4000244141</ele>
        <time>2017-02-14T07:38:39.000Z</time>
      </trkpt>
      <trkpt lat="42.58947" lon="1.79198">
        <ele>1563.5999755859</ele>
        <time>2017-02-14T07:39:43.000Z</time>
      </trkpt>
      <trkpt lat="42.58949" lon="1.79205">
        <ele>1563.8000488281</ele>
        <time>2017-02-14T07:40:44.000Z</time>
      </trkpt>
      <trkpt lat="42.58975" lon="1.79193">
        <ele>1567</ele>
        <time>2017-02-14T07:41:45.000Z</time>
      </trkpt>
      <trkpt lat="42.58986" lon="1.79136">
        <ele>1576</ele>
        <time>2017-02-14T07:42:47.000Z</time>
      </trkpt>
      <trkpt lat="42.59045" lon="1.79142">
        <ele>1585.1999511719</ele>
        <time>2017-02-14T07:43:50.000Z</time>
      </trkpt>
      <trkpt lat="42.59058" lon="1.7916">
        <ele>1595.4000244141</ele>
        <time>2017-02-14T07:44:51.000Z</time>
      </trkpt>
      <trkpt lat="42.5908" lon="1.79118">
        <ele>1604.8000488281</ele>
        <time>2017-02-14T07:45:54.000Z</time>
      </trkpt>
      <trkpt lat="42.59084" lon="1.79064">
        <ele>1612.4000244141</ele>
        <time>2017-02-14T07:46:56.000Z</time>
      </trkpt>
      <trkpt lat="42.59102" lon="1.79018">
        <ele>1620.1999511719</ele>
        <time>2017-02-14T07:47:59.000Z</time>
      </trkpt>
      <trkpt lat="42.59086" lon="1.79008">
        <ele>1629.4000244141</ele>
        <time>2017-02-14T07:49:00.000Z</time>
      </trkpt>
      <trkpt lat="42.59086" lon="1.7897">
        <ele>1637.4000244141</ele>
        <time>2017-02-14T07:50:02.000Z</time>
      </trkpt>
      <trkpt lat="42.59085" lon="1.7894">
        <ele>1645.1999511719</ele>
        <time>2017-02-14T07:51:03.000Z</time>
      </trkpt>
      <trkpt lat="42.59085" lon="1.789">
        <ele>1652.4000244141</ele>
        <time>2017-02-14T07:52:06.000Z</time>
      </trkpt>
      <trkpt lat="42.59039" lon="1.78885">
        <ele>1659.4000244141</ele>
        <time>2017-02-14T07:53:08.000Z</time>
      </trkpt>
      <trkpt lat="42.59087" lon="1.78866">
        <ele>1667</ele>
        <time>2017-02-14T07:54:09.000Z</time>
      </trkpt>
      <trkpt lat="42.59104" lon="1.78839">
        <ele>1675.4000244141</ele>
        <time>2017-02-14T07:55:11.000Z</time>
      </trkpt>
      <trkpt lat="42.59055" lon="1.78837">
        <ele>1683.4000244141</ele>
        <time>2017-02-14T07:56:14.000Z</time>
      </trkpt>
      <trkpt lat="42.59082" lon="1.78802">
        <ele>1691</ele>
        <time>2017-02-14T07:57:16.000Z</time>
      </trkpt>
      <trkpt lat="42.59063" lon="1.78777">
        <ele>1698.8000488281</ele>
        <time>2017-02-14T07:58:18.000Z</time>
      </trkpt>
      <trkpt lat="42.59071" lon="1.78735">
        <ele>1706.4000244141</ele>
        <time>2017-02-14T07:59:20.000Z</time>
      </trkpt>
      <trkpt lat="42.58999" lon="1.78717">
        <ele>1710.1999511719</ele>
        <time>2017-02-14T08:00:23.000Z</time>
      </trkpt>
      <trkpt lat="42.59075" lon="1.78634">
        <ele>1716.4000244141</ele>
        <time>2017-02-14T08:01:24.000Z</time>
      </trkpt>
      <trkpt lat="42.59024" lon="1.78621">
        <ele>1717.4000244141</ele>
        <time>2017-02-14T08:02:26.000Z</time>
      </trkpt>
      <trkpt lat="42.59117" lon="1.78642">
        <ele>1720.4000244141</ele>
        <time>2017-02-14T08:03:27.000Z</time>
      </trkpt>
      <trkpt lat="42.5914" lon="1.78612">
        <ele>1727.1999511719</ele>
        <time>2017-02-14T08:04:29.000Z</time>
      </trkpt>
      <trkpt lat="42.59171" lon="1.78624">
        <ele>1732.8000488281</ele>
        <time>2017-02-14T08:05:30.000Z</time>
      </trkpt>
      <trkpt lat="42.59195" lon="1.78609">
        <ele>1738.4000244141</ele>
        <time>2017-02-14T08:06:32.000Z</time>
      </trkpt>
      <trkpt lat="42.59212" lon="1.7867">
        <ele>1744.1999511719</ele>
        <time>2017-02-14T08:07:33.000Z</time>
      </trkpt>
      <trkpt lat="42.59233" lon="1.78628">
        <ele>1749.4000244141</ele>
        <time>2017-02-14T08:08:35.000Z</time>
      </trkpt>
      <trkpt lat="42.59241" lon="1.78665">
        <ele>1752</ele>
        <time>2017-02-14T08:09:37.000Z</time>
      </trkpt>
      <trkpt lat="42.59241" lon="1.78665">
        <ele>1752</ele>
        <time>2017-02-14T08:09:36.000Z</time>
      </trkpt>
      <trkpt lat="42.59237" lon="1.7861">
        <ele>1756.4000244141</ele>
        <time>2017-02-14T08:10:37.000Z</time>
      </trkpt>
      <trkpt lat="42.59241" lon="1.78606">
        <ele>1759.5999755859</ele>
        <time>2017-02-14T08:11:38.000Z</time>
      </trkpt>
      <trkpt lat="42.5925" lon="1.78665">
        <ele>1764.4000244141</ele>
        <time>2017-02-14T08:12:40.000Z</time>
      </trkpt>
      <trkpt lat="42.59291" lon="1.7863">
        <ele>1768.8000488281</ele>
        <time>2017-02-14T08:13:42.000Z</time>
      </trkpt>
      <trkpt lat="42.59314" lon="1.78641">
        <ele>1775.1999511719</ele>
        <time>2017-02-14T08:14:43.000Z</time>
      </trkpt>
      <trkpt lat="42.59351" lon="1.78664">
        <ele>1781.4000244141</ele>
        <time>2017-02-14T08:15:46.000Z</time>
      </trkpt>
      <trkpt lat="42.59382" lon="1.78652">
        <ele>1787.8000488281</ele>
        <time>2017-02-14T08:16:47.000Z</time>
      </trkpt>
      <trkpt lat="42.59367" lon="1.78663">
        <ele>1794.1999511719</ele>
        <time>2017-02-14T08:17:48.000Z</time>
      </trkpt>
      <trkpt lat="42.59405" lon="1.78701">
        <ele>1802.5999755859</ele>
        <time>2017-02-14T08:18:50.000Z</time>
      </trkpt>
      <trkpt lat="42.59438" lon="1.78684">
        <ele>1810.8000488281</ele>
        <time>2017-02-14T08:19:51.000Z</time>
      </trkpt>
      <trkpt lat="42.5944" lon="1.78647">
        <ele>1818.4000244141</ele>
        <time>2017-02-14T08:20:53.000Z</time>
      </trkpt>
      <trkpt lat="42.5948" lon="1.78679">
        <ele>1825.5999755859</ele>
        <time>2017-02-14T08:21:55.000Z</time>
      </trkpt>
      <trkpt lat="42.59478" lon="1.78695">
        <ele>1829.5999755859</ele>
        <time>2017-02-14T08:22:57.000Z</time>
      </trkpt>
      <trkpt lat="42.59464" lon="1.78721">
        <ele>1831</ele>
        <time>2017-02-14T08:24:00.000Z</time>
      </trkpt>
      <trkpt lat="42.59468" lon="1.78714">
        <ele>1830.5999755859</ele>
        <time>2017-02-14T08:25:01.000Z</time>
      </trkpt>
      <trkpt lat="42.5947" lon="1.78722">
        <ele>1830.8000488281</ele>
        <time>2017-02-14T08:26:04.000Z</time>
      </trkpt>
      <trkpt lat="42.59445" lon="1.78719">
        <ele>1830.4000244141</ele>
        <time>2017-02-14T08:27:07.000Z</time>
      </trkpt>
      <trkpt lat="42.59449" lon="1.78726">
        <ele>1830.4000244141</ele>
        <time>2017-02-14T08:28:09.000Z</time>
      </trkpt>
      <trkpt lat="42.5947" lon="1.78751">
        <ele>1837.1999511719</ele>
        <time>2017-02-14T08:29:11.000Z</time>
      </trkpt>
      <trkpt lat="42.5947" lon="1.78769">
        <ele>1838</ele>
        <time>2017-02-14T08:30:12.000Z</time>
      </trkpt>
      <trkpt lat="42.59489" lon="1.78767">
        <ele>1841.4000244141</ele>
        <time>2017-02-14T08:31:14.000Z</time>
      </trkpt>
      <trkpt lat="42.59489" lon="1.78767">
        <ele>1841.4000244141</ele>
        <time>2017-02-14T08:31:13.000Z</time>
      </trkpt>
      <trkpt lat="42.59488" lon="1.78797">
        <ele>1848.4000244141</ele>
        <time>2017-02-14T08:32:14.000Z</time>
      </trkpt>
      <trkpt lat="42.59525" lon="1.78802">
        <ele>1857</ele>
        <time>2017-02-14T08:33:15.000Z</time>
      </trkpt>
      <trkpt lat="42.59566" lon="1.78843">
        <ele>1864.5999755859</ele>
        <time>2017-02-14T08:34:16.000Z</time>
      </trkpt>
      <trkpt lat="42.5956" lon="1.78808">
        <ele>1872</ele>
        <time>2017-02-14T08:35:17.000Z</time>
      </trkpt>
      <trkpt lat="42.59586" lon="1.78778">
        <ele>1880</ele>
        <time>2017-02-14T08:36:19.000Z</time>
      </trkpt>
      <trkpt lat="42.59615" lon="1.7879">
        <ele>1887.1999511719</ele>
        <time>2017-02-14T08:37:20.000Z</time>
      </trkpt>
      <trkpt lat="42.59651" lon="1.78789">
        <ele>1891.1999511719</ele>
        <time>2017-02-14T08:38:22.000Z</time>
      </trkpt>
      <trkpt lat="42.59691" lon="1.78752">
        <ele>1897.8000488281</ele>
        <time>2017-02-14T08:39:23.000Z</time>
      </trkpt>
      <trkpt lat="42.59696" lon="1.78722">
        <ele>1903.8000488281</ele>
        <time>2017-02-14T08:40:26.000Z</time>
      </trkpt>
      <trkpt lat="42.59736" lon="1.78756">
        <ele>1908</ele>
        <time>2017-02-14T08:41:27.000Z</time>
      </trkpt>
      <trkpt lat="42.5978" lon="1.78732">
        <ele>1913.4000244141</ele>
        <time>2017-02-14T08:42:28.000Z</time>
      </trkpt>
      <trkpt lat="42.59759" lon="1.78626">
        <ele>1921.4000244141</ele>
        <time>2017-02-14T08:43:30.000Z</time>
      </trkpt>
      <trkpt lat="42.59795" lon="1.78678">
        <ele>1928.1999511719</ele>
        <time>2017-02-14T08:44:31.000Z</time>
      </trkpt>
      <trkpt lat="42.59807" lon="1.78584">
        <ele>1935.4000244141</ele>
        <time>2017-02-14T08:45:33.000Z</time>
      </trkpt>
      <trkpt lat="42.59801" lon="1.7856">
        <ele>1944.1999511719</ele>
        <time>2017-02-14T08:46:35.000Z</time>
      </trkpt>
      <trkpt lat="42.5981" lon="1.78541">
        <ele>1952.1999511719</ele>
        <time>2017-02-14T08:47:36.000Z</time>
      </trkpt>
      <trkpt lat="42.59835" lon="1.78543">
        <ele>1958.1999511719</ele>
        <time>2017-02-14T08:48:38.000Z</time>
      </trkpt>
      <trkpt lat="42.59855" lon="1.78535">
        <ele>1966.5999755859</ele>
        <time>2017-02-14T08:49:40.000Z</time>
      </trkpt>
      <trkpt lat="42.59858" lon="1.78478">
        <ele>1968.4000244141</ele>
        <time>2017-02-14T08:50:41.000Z</time>
      </trkpt>
      <trkpt lat="42.59915" lon="1.78461">
        <ele>1969.1999511719</ele>
        <time>2017-02-14T08:51:42.000Z</time>
      </trkpt>
      <trkpt lat="42.59969" lon="1.78408">
        <ele>1973.8000488281</ele>
        <time>2017-02-14T08:52:43.000Z</time>
      </trkpt>
      <trkpt lat="42.60027" lon="1.78404">
        <ele>1978.4000244141</ele>
        <time>2017-02-14T08:53:44.000Z</time>
      </trkpt>
      <trkpt lat="42.60049" lon="1.78327">
        <ele>1980.1999511719</ele>
        <time>2017-02-14T08:54:45.000Z</time>
      </trkpt>
      <trkpt lat="42.60031" lon="1.78266">
        <ele>1987</ele>
        <time>2017-02-14T08:55:47.000Z</time>
      </trkpt>
      <trkpt lat="42.60107" lon="1.78276">
        <ele>1987.1999511719</ele>
        <time>2017-02-14T08:56:48.000Z</time>
      </trkpt>
      <trkpt lat="42.60082" lon="1.78188">
        <ele>1983.5999755859</ele>
        <time>2017-02-14T08:57:50.000Z</time>
      </trkpt>
      <trkpt lat="42.60082" lon="1.78188">
        <ele>1983.5999755859</ele>
        <time>2017-02-14T08:57:49.000Z</time>
      </trkpt>
      <trkpt lat="42.60149" lon="1.78205">
        <ele>1984.4000244141</ele>
        <time>2017-02-14T08:58:50.000Z</time>
      </trkpt>
      <trkpt lat="42.60193" lon="1.78131">
        <ele>1989.1999511719</ele>
        <time>2017-02-14T08:59:51.000Z</time>
      </trkpt>
      <trkpt lat="42.60238" lon="1.78108">
        <ele>1993.8000488281</ele>
        <time>2017-02-14T09:00:52.000Z</time>
      </trkpt>
      <trkpt lat="42.60258" lon="1.7812">
        <ele>1998.1999511719</ele>
        <time>2017-02-14T09:01:54.000Z</time>
      </trkpt>
      <trkpt lat="42.60268" lon="1.78067">
        <ele>2003.8000488281</ele>
        <time>2017-02-14T09:02:55.000Z</time>
      </trkpt>
      <trkpt lat="42.60268" lon="1.78067">
        <ele>2003.8000488281</ele>
        <time>2017-02-14T09:02:54.000Z</time>
      </trkpt>
      <trkpt lat="42.60302" lon="1.78013">
        <ele>2010.4000244141</ele>
        <time>2017-02-14T09:03:55.000Z</time>
      </trkpt>
      <trkpt lat="42.60364" lon="1.78046">
        <ele>2015.1999511719</ele>
        <time>2017-02-14T09:04:56.000Z</time>
      </trkpt>
      <trkpt lat="42.60401" lon="1.78013">
        <ele>2021.1999511719</ele>
        <time>2017-02-14T09:05:59.000Z</time>
      </trkpt>
      <trkpt lat="42.60431" lon="1.78035">
        <ele>2024.1999511719</ele>
        <time>2017-02-14T09:07:00.000Z</time>
      </trkpt>
      <trkpt lat="42.60464" lon="1.78047">
        <ele>2026.5999755859</ele>
        <time>2017-02-14T09:08:01.000Z</time>
      </trkpt>
      <trkpt lat="42.60512" lon="1.78043">
        <ele>2032.4000244141</ele>
        <time>2017-02-14T09:09:02.000Z</time>
      </trkpt>
      <trkpt lat="42.60551" lon="1.77991">
        <ele>2036.1999511719</ele>
        <time>2017-02-14T09:10:04.000Z</time>
      </trkpt>
      <trkpt lat="42.60563" lon="1.77984">
        <ele>2040.5999755859</ele>
        <time>2017-02-14T09:11:05.000Z</time>
      </trkpt>
      <trkpt lat="42.60626" lon="1.77963">
        <ele>2043.4000244141</ele>
        <time>2017-02-14T09:12:07.000Z</time>
      </trkpt>
      <trkpt lat="42.60666" lon="1.7793">
        <ele>2048.1999511719</ele>
        <time>2017-02-14T09:13:09.000Z</time>
      </trkpt>
      <trkpt lat="42.6071" lon="1.77922">
        <ele>2053</ele>
        <time>2017-02-14T09:14:10.000Z</time>
      </trkpt>
      <trkpt lat="42.60728" lon="1.77861">
        <ele>2057.8000488281</ele>
        <time>2017-02-14T09:15:12.000Z</time>
      </trkpt>
      <trkpt lat="42.60762" lon="1.77859">
        <ele>2061.1999511719</ele>
        <time>2017-02-14T09:16:14.000Z</time>
      </trkpt>
      <trkpt lat="42.60804" lon="1.77847">
        <ele>2065.6000976562</ele>
        <time>2017-02-14T09:17:15.000Z</time>
      </trkpt>
      <trkpt lat="42.60833" lon="1.77821">
        <ele>2070.1999511719</ele>
        <time>2017-02-14T09:18:17.000Z</time>
      </trkpt>
      <trkpt lat="42.60903" lon="1.7782">
        <ele>2071</ele>
        <time>2017-02-14T09:19:18.000Z</time>
      </trkpt>
      <trkpt lat="42.60936" lon="1.77804">
        <ele>2077.3999023438</ele>
        <time>2017-02-14T09:20:19.000Z</time>
      </trkpt>
      <trkpt lat="42.60949" lon="1.77776">
        <ele>2083.8000488281</ele>
        <time>2017-02-14T09:21:20.000Z</time>
      </trkpt>
      <trkpt lat="42.60969" lon="1.77733">
        <ele>2089.8000488281</ele>
        <time>2017-02-14T09:22:21.000Z</time>
      </trkpt>
      <trkpt lat="42.61008" lon="1.77655">
        <ele>2094.6000976562</ele>
        <time>2017-02-14T09:23:22.000Z</time>
      </trkpt>
      <trkpt lat="42.6102" lon="1.77642">
        <ele>2099.6000976562</ele>
        <time>2017-02-14T09:24:23.000Z</time>
      </trkpt>
      <trkpt lat="42.61041" lon="1.7759">
        <ele>2104.3999023438</ele>
        <time>2017-02-14T09:25:27.000Z</time>
      </trkpt>
      <trkpt lat="42.61047" lon="1.77548">
        <ele>2109</ele>
        <time>2017-02-14T09:26:29.000Z</time>
      </trkpt>
      <trkpt lat="42.61046" lon="1.77504">
        <ele>2115.6000976562</ele>
        <time>2017-02-14T09:27:29.000Z</time>
      </trkpt>
      <trkpt lat="42.61086" lon="1.77498">
        <ele>2121.3999023438</ele>
        <time>2017-02-14T09:28:31.000Z</time>
      </trkpt>
      <trkpt lat="42.61065" lon="1.7743">
        <ele>2127.8000488281</ele>
        <time>2017-02-14T09:29:32.000Z</time>
      </trkpt>
      <trkpt lat="42.61106" lon="1.77389">
        <ele>2134.3999023438</ele>
        <time>2017-02-14T09:30:33.000Z</time>
      </trkpt>
      <trkpt lat="42.61097" lon="1.77369">
        <ele>2140.6000976562</ele>
        <time>2017-02-14T09:31:35.000Z</time>
      </trkpt>
      <trkpt lat="42.61119" lon="1.77312">
        <ele>2147.8000488281</ele>
        <time>2017-02-14T09:32:36.000Z</time>
      </trkpt>
      <trkpt lat="42.61123" lon="1.77305">
        <ele>2155.3999023438</ele>
        <time>2017-02-14T09:33:37.000Z</time>
      </trkpt>
      <trkpt lat="42.61158" lon="1.773">
        <ele>2160.3999023438</ele>
        <time>2017-02-14T09:34:40.000Z</time>
      </trkpt>
      <trkpt lat="42.61203" lon="1.77249">
        <ele>2159</ele>
        <time>2017-02-14T09:35:41.000Z</time>
      </trkpt>
      <trkpt lat="42.61232" lon="1.77208">
        <ele>2162.8000488281</ele>
        <time>2017-02-14T09:36:42.000Z</time>
      </trkpt>
      <trkpt lat="42.61284" lon="1.77258">
        <ele>2168.1999511719</ele>
        <time>2017-02-14T09:37:43.000Z</time>
      </trkpt>
      <trkpt lat="42.61294" lon="1.77254">
        <ele>2174</ele>
        <time>2017-02-14T09:38:44.000Z</time>
      </trkpt>
      <trkpt lat="42.61306" lon="1.77243">
        <ele>2174</ele>
        <time>2017-02-14T09:39:46.000Z</time>
      </trkpt>
      <trkpt lat="42.61315" lon="1.77249">
        <ele>2173.8000488281</ele>
        <time>2017-02-14T09:40:49.000Z</time>
      </trkpt>
      <trkpt lat="42.61299" lon="1.77279">
        <ele>2173.3999023438</ele>
        <time>2017-02-14T09:41:52.000Z</time>
      </trkpt>
      <trkpt lat="42.61318" lon="1.77254">
        <ele>2173.1999511719</ele>
        <time>2017-02-14T09:42:55.000Z</time>
      </trkpt>
      <trkpt lat="42.61311" lon="1.77238">
        <ele>2173.6000976562</ele>
        <time>2017-02-14T09:43:57.000Z</time>
      </trkpt>
      <trkpt lat="42.61316" lon="1.77247">
        <ele>2174.3999023438</ele>
        <time>2017-02-14T09:45:00.000Z</time>
      </trkpt>
      <trkpt lat="42.61307" lon="1.77258">
        <ele>2173.8000488281</ele>
        <time>2017-02-14T09:46:05.000Z</time>
      </trkpt>
      <trkpt lat="42.61311" lon="1.7724">
        <ele>2174</ele>
        <time>2017-02-14T09:47:06.000Z</time>
      </trkpt>
      <trkpt lat="42.613" lon="1.77232">
        <ele>2173.6000976562</ele>
        <time>2017-02-14T09:48:08.000Z</time>
      </trkpt>
      <trkpt lat="42.61312" lon="1.77249">
        <ele>2172.1999511719</ele>
        <time>2017-02-14T09:49:09.000Z</time>
      </trkpt>
      <trkpt lat="42.61311" lon="1.77249">
        <ele>2172</ele>
        <time>2017-02-14T09:50:12.000Z</time>
      </trkpt>
      <trkpt lat="42.61322" lon="1.77252">
        <ele>2173.1999511719</ele>
        <time>2017-02-14T09:51:13.000Z</time>
      </trkpt>
      <trkpt lat="42.6131" lon="1.7724">
        <ele>2173.1999511719</ele>
        <time>2017-02-14T09:52:16.000Z</time>
      </trkpt>
      <trkpt lat="42.6132" lon="1.77241">
        <ele>2172.3999023438</ele>
        <time>2017-02-14T09:53:18.000Z</time>
      </trkpt>
      <trkpt lat="42.61319" lon="1.7725">
        <ele>2172.6000976562</ele>
        <time>2017-02-14T09:54:19.000Z</time>
      </trkpt>
      <trkpt lat="42.61324" lon="1.77259">
        <ele>2172.6000976562</ele>
        <time>2017-02-14T09:55:20.000Z</time>
      </trkpt>
      <trkpt lat="42.61342" lon="1.77255">
        <ele>2178.6000976562</ele>
        <time>2017-02-14T09:56:21.000Z</time>
      </trkpt>
      <trkpt lat="42.61376" lon="1.77263">
        <ele>2186.6000976562</ele>
        <time>2017-02-14T09:57:23.000Z</time>
      </trkpt>
      <trkpt lat="42.61403" lon="1.77226">
        <ele>2194</ele>
        <time>2017-02-14T09:58:24.000Z</time>
      </trkpt>
      <trkpt lat="42.61437" lon="1.77258">
        <ele>2202.1999511719</ele>
        <time>2017-02-14T09:59:26.000Z</time>
      </trkpt>
      <trkpt lat="42.61447" lon="1.7721">
        <ele>2208</ele>
        <time>2017-02-14T10:00:28.000Z</time>
      </trkpt>
      <trkpt lat="42.61481" lon="1.77217">
        <ele>2213.8000488281</ele>
        <time>2017-02-14T10:01:30.000Z</time>
      </trkpt>
      <trkpt lat="42.6151" lon="1.77197">
        <ele>2220.6000976562</ele>
        <time>2017-02-14T10:02:31.000Z</time>
      </trkpt>
      <trkpt lat="42.6151" lon="1.7712">
        <ele>2228</ele>
        <time>2017-02-14T10:03:33.000Z</time>
      </trkpt>
      <trkpt lat="42.61543" lon="1.77154">
        <ele>2235.3999023438</ele>
        <time>2017-02-14T10:04:34.000Z</time>
      </trkpt>
      <trkpt lat="42.61561" lon="1.77128">
        <ele>2241.6000976562</ele>
        <time>2017-02-14T10:05:36.000Z</time>
      </trkpt>
      <trkpt lat="42.61582" lon="1.771">
        <ele>2247.8000488281</ele>
        <time>2017-02-14T10:06:38.000Z</time>
      </trkpt>
      <trkpt lat="42.61615" lon="1.77074">
        <ele>2251</ele>
        <time>2017-02-14T10:07:41.000Z</time>
      </trkpt>
      <trkpt lat="42.61634" lon="1.77008">
        <ele>2253.6000976562</ele>
        <time>2017-02-14T10:08:43.000Z</time>
      </trkpt>
      <trkpt lat="42.61667" lon="1.76994">
        <ele>2259.6000976562</ele>
        <time>2017-02-14T10:09:45.000Z</time>
      </trkpt>
      <trkpt lat="42.61684" lon="1.76913">
        <ele>2258.6000976562</ele>
        <time>2017-02-14T10:10:46.000Z</time>
      </trkpt>
      <trkpt lat="42.61669" lon="1.76827">
        <ele>2256</ele>
        <time>2017-02-14T10:11:47.000Z</time>
      </trkpt>
      <trkpt lat="42.61661" lon="1.76769">
        <ele>2257.6000976562</ele>
        <time>2017-02-14T10:12:50.000Z</time>
      </trkpt>
      <trkpt lat="42.61666" lon="1.76716">
        <ele>2258.3999023438</ele>
        <time>2017-02-14T10:13:51.000Z</time>
      </trkpt>
      <trkpt lat="42.61674" lon="1.76652">
        <ele>2256.3999023438</ele>
        <time>2017-02-14T10:14:53.000Z</time>
      </trkpt>
      <trkpt lat="42.61681" lon="1.76584">
        <ele>2257.3999023438</ele>
        <time>2017-02-14T10:15:54.000Z</time>
      </trkpt>
      <trkpt lat="42.61681" lon="1.7655">
        <ele>2261.8000488281</ele>
        <time>2017-02-14T10:16:56.000Z</time>
      </trkpt>
      <trkpt lat="42.61693" lon="1.76474">
        <ele>2247.1999511719</ele>
        <time>2017-02-14T10:17:57.000Z</time>
      </trkpt>
      <trkpt lat="42.61732" lon="1.7639">
        <ele>2238</ele>
        <time>2017-02-14T10:18:59.000Z</time>
      </trkpt>
      <trkpt lat="42.61771" lon="1.7634">
        <ele>2228</ele>
        <time>2017-02-14T10:20:01.000Z</time>
      </trkpt>
      <trkpt lat="42.61771" lon="1.7634">
        <ele>2228</ele>
        <time>2017-02-14T10:20:00.000Z</time>
      </trkpt>
      <trkpt lat="42.61786" lon="1.76306">
        <ele>2232.3999023438</ele>
        <time>2017-02-14T10:21:01.000Z</time>
      </trkpt>
      <trkpt lat="42.61826" lon="1.76283">
        <ele>2233.1999511719</ele>
        <time>2017-02-14T10:22:02.000Z</time>
      </trkpt>
      <trkpt lat="42.61825" lon="1.76223">
        <ele>2233.6000976562</ele>
        <time>2017-02-14T10:23:04.000Z</time>
      </trkpt>
      <trkpt lat="42.6187" lon="1.76235">
        <ele>2236.1999511719</ele>
        <time>2017-02-14T10:24:06.000Z</time>
      </trkpt>
      <trkpt lat="42.61883" lon="1.76179">
        <ele>2242.3999023438</ele>
        <time>2017-02-14T10:25:09.000Z</time>
      </trkpt>
      <trkpt lat="42.61926" lon="1.76158">
        <ele>2247.6000976562</ele>
        <time>2017-02-14T10:26:10.000Z</time>
      </trkpt>
      <trkpt lat="42.61926" lon="1.76158">
        <ele>2247.6000976562</ele>
        <time>2017-02-14T10:26:09.000Z</time>
      </trkpt>
      <trkpt lat="42.61966" lon="1.76158">
        <ele>2250</ele>
        <time>2017-02-14T10:27:11.000Z</time>
      </trkpt>
      <trkpt lat="42.61979" lon="1.76138">
        <ele>2250.6000976562</ele>
        <time>2017-02-14T10:28:12.000Z</time>
      </trkpt>
      <trkpt lat="42.62002" lon="1.76147">
        <ele>2254</ele>
        <time>2017-02-14T10:29:14.000Z</time>
      </trkpt>
      <trkpt lat="42.62018" lon="1.76156">
        <ele>2259.1999511719</ele>
        <time>2017-02-14T10:30:15.000Z</time>
      </trkpt>
      <trkpt lat="42.62046" lon="1.76165">
        <ele>2261.1999511719</ele>
        <time>2017-02-14T10:31:17.000Z</time>
      </trkpt>
      <trkpt lat="42.62062" lon="1.76154">
        <ele>2259.3999023438</ele>
        <time>2017-02-14T10:32:18.000Z</time>
      </trkpt>
      <trkpt lat="42.62087" lon="1.76163">
        <ele>2252.3999023438</ele>
        <time>2017-02-14T10:33:20.000Z</time>
      </trkpt>
      <trkpt lat="42.62114" lon="1.76141">
        <ele>2237</ele>
        <time>2017-02-14T10:34:21.000Z</time>
      </trkpt>
      <trkpt lat="42.62169" lon="1.7611">
        <ele>2229.3999023438</ele>
        <time>2017-02-14T10:35:24.000Z</time>
      </trkpt>
      <trkpt lat="42.62146" lon="1.76113">
        <ele>2228.8000488281</ele>
        <time>2017-02-14T10:36:27.000Z</time>
      </trkpt>
      <trkpt lat="42.6216" lon="1.76104">
        <ele>2229.8000488281</ele>
        <time>2017-02-14T10:37:28.000Z</time>
      </trkpt>
      <trkpt lat="42.62166" lon="1.76102">
        <ele>2229</ele>
        <time>2017-02-14T10:38:29.000Z</time>
      </trkpt>
      <trkpt lat="42.62161" lon="1.76058">
        <ele>2229.6000976562</ele>
        <time>2017-02-14T10:39:30.000Z</time>
      </trkpt>
      <trkpt lat="42.62203" lon="1.75994">
        <ele>2228</ele>
        <time>2017-02-14T10:40:31.000Z</time>
      </trkpt>
      <trkpt lat="42.62233" lon="1.75915">
        <ele>2228.3999023438</ele>
        <time>2017-02-14T10:41:34.000Z</time>
      </trkpt>
      <trkpt lat="42.62252" lon="1.75819">
        <ele>2228.3999023438</ele>
        <time>2017-02-14T10:42:35.000Z</time>
      </trkpt>
      <trkpt lat="42.62308" lon="1.75713">
        <ele>2219.1999511719</ele>
        <time>2017-02-14T10:43:37.000Z</time>
      </trkpt>
      <trkpt lat="42.62316" lon="1.75595">
        <ele>2219.1999511719</ele>
        <time>2017-02-14T10:44:38.000Z</time>
      </trkpt>
      <trkpt lat="42.6233" lon="1.75585">
        <ele>2219.6000976562</ele>
        <time>2017-02-14T10:45:40.000Z</time>
      </trkpt>
      <trkpt lat="42.62343" lon="1.75527">
        <ele>2220.8000488281</ele>
        <time>2017-02-14T10:46:41.000Z</time>
      </trkpt>
      <trkpt lat="42.6237" lon="1.75443">
        <ele>2219.6000976562</ele>
        <time>2017-02-14T10:47:44.000Z</time>
      </trkpt>
      <trkpt lat="42.62381" lon="1.75378">
        <ele>2223.6000976562</ele>
        <time>2017-02-14T10:48:45.000Z</time>
      </trkpt>
      <trkpt lat="42.62374" lon="1.75333">
        <ele>2226.1999511719</ele>
        <time>2017-02-14T10:49:47.000Z</time>
      </trkpt>
      <trkpt lat="42.62364" lon="1.75281">
        <ele>2229.8000488281</ele>
        <time>2017-02-14T10:50:49.000Z</time>
      </trkpt>
      <trkpt lat="42.62365" lon="1.75216">
        <ele>2229.3999023438</ele>
        <time>2017-02-14T10:51:50.000Z</time>
      </trkpt>
      <trkpt lat="42.62367" lon="1.75183">
        <ele>2231.1999511719</ele>
        <time>2017-02-14T10:52:52.000Z</time>
      </trkpt>
      <trkpt lat="42.62367" lon="1.75183">
        <ele>2231.1999511719</ele>
        <time>2017-02-14T10:52:51.000Z</time>
      </trkpt>
      <trkpt lat="42.62382" lon="1.75173">
        <ele>2234.1999511719</ele>
        <time>2017-02-14T10:53:52.000Z</time>
      </trkpt>
      <trkpt lat="42.62385" lon="1.75126">
        <ele>2242</ele>
        <time>2017-02-14T10:54:55.000Z</time>
      </trkpt>
      <trkpt lat="42.62414" lon="1.75067">
        <ele>2247.1999511719</ele>
        <time>2017-02-14T10:55:56.000Z</time>
      </trkpt>
      <trkpt lat="42.62354" lon="1.7512">
        <ele>2254.1999511719</ele>
        <time>2017-02-14T10:56:59.000Z</time>
      </trkpt>
      <trkpt lat="42.62387" lon="1.75088">
        <ele>2260.1999511719</ele>
        <time>2017-02-14T10:57:59.000Z</time>
      </trkpt>
      <trkpt lat="42.62384" lon="1.75052">
        <ele>2267</ele>
        <time>2017-02-14T10:59:01.000Z</time>
      </trkpt>
      <trkpt lat="42.62385" lon="1.75018">
        <ele>2276.6000976562</ele>
        <time>2017-02-14T11:00:03.000Z</time>
      </trkpt>
      <trkpt lat="42.62361" lon="1.75007">
        <ele>2284.8000488281</ele>
        <time>2017-02-14T11:01:05.000Z</time>
      </trkpt>
      <trkpt lat="42.62373" lon="1.74986">
        <ele>2290.6000976562</ele>
        <time>2017-02-14T11:02:07.000Z</time>
      </trkpt>
      <trkpt lat="42.62373" lon="1.74986">
        <ele>2290.3999023438</ele>
        <time>2017-02-14T11:02:06.000Z</time>
      </trkpt>
      <trkpt lat="42.62365" lon="1.74992">
        <ele>2293.1999511719</ele>
        <time>2017-02-14T11:03:08.000Z</time>
      </trkpt>
      <trkpt lat="42.62389" lon="1.75009">
        <ele>2291</ele>
        <time>2017-02-14T11:04:09.000Z</time>
      </trkpt>
      <trkpt lat="42.62362" lon="1.75007">
        <ele>2293.6000976562</ele>
        <time>2017-02-14T11:05:12.000Z</time>
      </trkpt>
      <trkpt lat="42.6238" lon="1.74999">
        <ele>2295.1999511719</ele>
        <time>2017-02-14T11:06:12.000Z</time>
      </trkpt>
      <trkpt lat="42.6238" lon="1.75001">
        <ele>2292.6000976562</ele>
        <time>2017-02-14T11:07:12.000Z</time>
      </trkpt>
      <trkpt lat="42.6237" lon="1.75">
        <ele>2292.3999023438</ele>
        <time>2017-02-14T11:08:15.000Z</time>
      </trkpt>
      <trkpt lat="42.62368" lon="1.74997">
        <ele>2293.1999511719</ele>
        <time>2017-02-14T11:09:19.000Z</time>
      </trkpt>
      <trkpt lat="42.62384" lon="1.75015">
        <ele>2291.1999511719</ele>
        <time>2017-02-14T11:10:20.000Z</time>
      </trkpt>
      <trkpt lat="42.62375" lon="1.74999">
        <ele>2291.1999511719</ele>
        <time>2017-02-14T11:11:20.000Z</time>
      </trkpt>
      <trkpt lat="42.62369" lon="1.74994">
        <ele>2291.1999511719</ele>
        <time>2017-02-14T11:12:20.000Z</time>
      </trkpt>
      <trkpt lat="42.6237" lon="1.74975">
        <ele>2293</ele>
        <time>2017-02-14T11:13:20.000Z</time>
      </trkpt>
      <trkpt lat="42.62344" lon="1.74901">
        <ele>2286.1999511719</ele>
        <time>2017-02-14T11:14:23.000Z</time>
      </trkpt>
      <trkpt lat="42.62307" lon="1.74833">
        <ele>2287</ele>
        <time>2017-02-14T11:15:25.000Z</time>
      </trkpt>
      <trkpt lat="42.62291" lon="1.74781">
        <ele>2287.1999511719</ele>
        <time>2017-02-14T11:16:28.000Z</time>
      </trkpt>
      <trkpt lat="42.62271" lon="1.74701">
        <ele>2286.8000488281</ele>
        <time>2017-02-14T11:17:30.000Z</time>
      </trkpt>
      <trkpt lat="42.62241" lon="1.74677">
        <ele>2293.3999023438</ele>
        <time>2017-02-14T11:18:31.000Z</time>
      </trkpt>
      <trkpt lat="42.62248" lon="1.7465">
        <ele>2294.1999511719</ele>
        <time>2017-02-14T11:19:33.000Z</time>
      </trkpt>
      <trkpt lat="42.62184" lon="1.74633">
        <ele>2292.6000976562</ele>
        <time>2017-02-14T11:20:35.000Z</time>
      </trkpt>
      <trkpt lat="42.62164" lon="1.74616">
        <ele>2294.3999023438</ele>
        <time>2017-02-14T11:21:36.000Z</time>
      </trkpt>
      <trkpt lat="42.62112" lon="1.74595">
        <ele>2298</ele>
        <time>2017-02-14T11:22:38.000Z</time>
      </trkpt>
      <trkpt lat="42.6207" lon="1.74572">
        <ele>2303.1999511719</ele>
        <time>2017-02-14T11:23:41.000Z</time>
      </trkpt>
      <trkpt lat="42.62048" lon="1.7453">
        <ele>2308.6000976562</ele>
        <time>2017-02-14T11:24:43.000Z</time>
      </trkpt>
      <trkpt lat="42.62031" lon="1.74495">
        <ele>2312.8000488281</ele>
        <time>2017-02-14T11:25:45.000Z</time>
      </trkpt>
      <trkpt lat="42.62006" lon="1.74462">
        <ele>2314.3999023438</ele>
        <time>2017-02-14T11:26:46.000Z</time>
      </trkpt>
      <trkpt lat="42.61956" lon="1.74504">
        <ele>2319.6000976562</ele>
        <time>2017-02-14T11:27:50.000Z</time>
      </trkpt>
      <trkpt lat="42.61893" lon="1.74508">
        <ele>2325</ele>
        <time>2017-02-14T11:28:51.000Z</time>
      </trkpt>
      <trkpt lat="42.61942" lon="1.74456">
        <ele>2331.8000488281</ele>
        <time>2017-02-14T11:29:53.000Z</time>
      </trkpt>
      <trkpt lat="42.61923" lon="1.74459">
        <ele>2337</ele>
        <time>2017-02-14T11:30:55.000Z</time>
      </trkpt>
      <trkpt lat="42.61893" lon="1.74408">
        <ele>2342.6000976562</ele>
        <time>2017-02-14T11:31:57.000Z</time>
      </trkpt>
      <trkpt lat="42.61895" lon="1.74381">
        <ele>2349</ele>
        <time>2017-02-14T11:32:59.000Z</time>
      </trkpt>
      <trkpt lat="42.61913" lon="1.74411">
        <ele>2355.3999023438</ele>
        <time>2017-02-14T11:34:01.000Z</time>
      </trkpt>
      <trkpt lat="42.61851" lon="1.74422">
        <ele>2358.1999511719</ele>
        <time>2017-02-14T11:35:02.000Z</time>
      </trkpt>
      <trkpt lat="42.61848" lon="1.74382">
        <ele>2361.8000488281</ele>
        <time>2017-02-14T11:36:04.000Z</time>
      </trkpt>
      <trkpt lat="42.61838" lon="1.74371">
        <ele>2363.8000488281</ele>
        <time>2017-02-14T11:37:06.000Z</time>
      </trkpt>
      <trkpt lat="42.61822" lon="1.74348">
        <ele>2367.8000488281</ele>
        <time>2017-02-14T11:38:09.000Z</time>
      </trkpt>
      <trkpt lat="42.61832" lon="1.74363">
        <ele>2367.8000488281</ele>
        <time>2017-02-14T11:39:10.000Z</time>
      </trkpt>
      <trkpt lat="42.61852" lon="1.74491">
        <ele>2350.3999023438</ele>
        <time>2017-02-14T11:40:14.000Z</time>
      </trkpt>
      <trkpt lat="42.61837" lon="1.74485">
        <ele>2351.1999511719</ele>
        <time>2017-02-14T11:41:15.000Z</time>
      </trkpt>
      <trkpt lat="42.61804" lon="1.74434">
        <ele>2350.6000976562</ele>
        <time>2017-02-14T11:42:15.000Z</time>
      </trkpt>
      <trkpt lat="42.61778" lon="1.74387">
        <ele>2349.1999511719</ele>
        <time>2017-02-14T11:43:15.000Z</time>
      </trkpt>
      <trkpt lat="42.61747" lon="1.74324">
        <ele>2349.3999023438</ele>
        <time>2017-02-14T11:44:16.000Z</time>
      </trkpt>
      <trkpt lat="42.61722" lon="1.74282">
        <ele>2349</ele>
        <time>2017-02-14T11:45:18.000Z</time>
      </trkpt>
      <trkpt lat="42.61666" lon="1.7423">
        <ele>2350</ele>
        <time>2017-02-14T11:46:19.000Z</time>
      </trkpt>
      <trkpt lat="42.61664" lon="1.74145">
        <ele>2349.1999511719</ele>
        <time>2017-02-14T11:47:23.000Z</time>
      </trkpt>
      <trkpt lat="42.61633" lon="1.74134">
        <ele>2355.3999023438</ele>
        <time>2017-02-14T11:48:24.000Z</time>
      </trkpt>
      <trkpt lat="42.61659" lon="1.74096">
        <ele>2361.1999511719</ele>
        <time>2017-02-14T11:49:26.000Z</time>
      </trkpt>
      <trkpt lat="42.6169" lon="1.7411">
        <ele>2367.6000976562</ele>
        <time>2017-02-14T11:50:28.000Z</time>
      </trkpt>
      <trkpt lat="42.61651" lon="1.74054">
        <ele>2372.6000976562</ele>
        <time>2017-02-14T11:51:31.000Z</time>
      </trkpt>
      <trkpt lat="42.61659" lon="1.7402">
        <ele>2378.1999511719</ele>
        <time>2017-02-14T11:52:32.000Z</time>
      </trkpt>
      <trkpt lat="42.61658" lon="1.74003">
        <ele>2385</ele>
        <time>2017-02-14T11:53:34.000Z</time>
      </trkpt>
      <trkpt lat="42.61664" lon="1.73986">
        <ele>2390.1999511719</ele>
        <time>2017-02-14T11:54:34.000Z</time>
      </trkpt>
      <trkpt lat="42.61654" lon="1.73958">
        <ele>2396.3999023438</ele>
        <time>2017-02-14T11:55:37.000Z</time>
      </trkpt>
      <trkpt lat="42.61646" lon="1.73885">
        <ele>2404</ele>
        <time>2017-02-14T11:56:38.000Z</time>
      </trkpt>
      <trkpt lat="42.6166" lon="1.73919">
        <ele>2408.6000976562</ele>
        <time>2017-02-14T11:57:41.000Z</time>
      </trkpt>
      <trkpt lat="42.61644" lon="1.73896">
        <ele>2413.1999511719</ele>
        <time>2017-02-14T11:58:42.000Z</time>
      </trkpt>
      <trkpt lat="42.61639" lon="1.73879">
        <ele>2413.8000488281</ele>
        <time>2017-02-14T11:59:44.000Z</time>
      </trkpt>
      <trkpt lat="42.61653" lon="1.73891">
        <ele>2414</ele>
        <time>2017-02-14T12:00:48.000Z</time>
      </trkpt>
      <trkpt lat="42.61637" lon="1.73884">
        <ele>2413.1999511719</ele>
        <time>2017-02-14T12:01:50.000Z</time>
      </trkpt>
      <trkpt lat="42.6166" lon="1.73897">
        <ele>2415.6000976562</ele>
        <time>2017-02-14T12:02:53.000Z</time>
      </trkpt>
      <trkpt lat="42.61595" lon="1.73924">
        <ele>2414.8000488281</ele>
        <time>2017-02-14T12:03:57.000Z</time>
      </trkpt>
      <trkpt lat="42.61609" lon="1.73861">
        <ele>2414</ele>
        <time>2017-02-14T12:04:58.000Z</time>
      </trkpt>
      <trkpt lat="42.61628" lon="1.73882">
        <ele>2420.6000976562</ele>
        <time>2017-02-14T12:05:59.000Z</time>
      </trkpt>
      <trkpt lat="42.61601" lon="1.73847">
        <ele>2428.6000976562</ele>
        <time>2017-02-14T12:07:00.000Z</time>
      </trkpt>
      <trkpt lat="42.61632" lon="1.73807">
        <ele>2436.3999023438</ele>
        <time>2017-02-14T12:08:02.000Z</time>
      </trkpt>
      <trkpt lat="42.61627" lon="1.73812">
        <ele>2441</ele>
        <time>2017-02-14T12:09:03.000Z</time>
      </trkpt>
      <trkpt lat="42.61622" lon="1.73786">
        <ele>2449.1999511719</ele>
        <time>2017-02-14T12:10:05.000Z</time>
      </trkpt>
      <trkpt lat="42.61639" lon="1.7378">
        <ele>2455.8000488281</ele>
        <time>2017-02-14T12:11:07.000Z</time>
      </trkpt>
      <trkpt lat="42.61609" lon="1.73742">
        <ele>2462.8000488281</ele>
        <time>2017-02-14T12:12:08.000Z</time>
      </trkpt>
      <trkpt lat="42.61613" lon="1.73721">
        <ele>2470.3999023438</ele>
        <time>2017-02-14T12:13:11.000Z</time>
      </trkpt>
      <trkpt lat="42.61615" lon="1.73715">
        <ele>2475.8000488281</ele>
        <time>2017-02-14T12:14:13.000Z</time>
      </trkpt>
      <trkpt lat="42.61573" lon="1.73725">
        <ele>2479.8000488281</ele>
        <time>2017-02-14T12:15:14.000Z</time>
      </trkpt>
      <trkpt lat="42.61597" lon="1.73699">
        <ele>2486.1999511719</ele>
        <time>2017-02-14T12:16:16.000Z</time>
      </trkpt>
      <trkpt lat="42.61578" lon="1.73691">
        <ele>2492</ele>
        <time>2017-02-14T12:17:18.000Z</time>
      </trkpt>
      <trkpt lat="42.6157" lon="1.73673">
        <ele>2496.3999023438</ele>
        <time>2017-02-14T12:18:21.000Z</time>
      </trkpt>
      <trkpt lat="42.61584" lon="1.7363">
        <ele>2503.3999023438</ele>
        <time>2017-02-14T12:19:22.000Z</time>
      </trkpt>
      <trkpt lat="42.61552" lon="1.73648">
        <ele>2507.8000488281</ele>
        <time>2017-02-14T12:20:24.000Z</time>
      </trkpt>
      <trkpt lat="42.61545" lon="1.73647">
        <ele>2512.8000488281</ele>
        <time>2017-02-14T12:21:27.000Z</time>
      </trkpt>
      <trkpt lat="42.6153" lon="1.73649">
        <ele>2517</ele>
        <time>2017-02-14T12:22:28.000Z</time>
      </trkpt>
      <trkpt lat="42.61555" lon="1.73622">
        <ele>2519.8000488281</ele>
        <time>2017-02-14T12:23:31.000Z</time>
      </trkpt>
      <trkpt lat="42.61524" lon="1.73619">
        <ele>2526.8000488281</ele>
        <time>2017-02-14T12:24:32.000Z</time>
      </trkpt>
      <trkpt lat="42.61533" lon="1.73615">
        <ele>2530.1999511719</ele>
        <time>2017-02-14T12:25:35.000Z</time>
      </trkpt>
      <trkpt lat="42.61533" lon="1.73598">
        <ele>2534.1999511719</ele>
        <time>2017-02-14T12:26:36.000Z</time>
      </trkpt>
      <trkpt lat="42.61528" lon="1.7362">
        <ele>2537.3999023438</ele>
        <time>2017-02-14T12:27:38.000Z</time>
      </trkpt>
      <trkpt lat="42.61531" lon="1.73611">
        <ele>2539.3999023438</ele>
        <time>2017-02-14T12:28:39.000Z</time>
      </trkpt>
      <trkpt lat="42.61542" lon="1.73604">
        <ele>2543.3999023438</ele>
        <time>2017-02-14T12:29:41.000Z</time>
      </trkpt>
      <trkpt lat="42.61541" lon="1.73576">
        <ele>2540.6000976562</ele>
        <time>2017-02-14T12:30:43.000Z</time>
      </trkpt>
      <trkpt lat="42.61507" lon="1.73511">
        <ele>2533</ele>
        <time>2017-02-14T12:31:45.000Z</time>
      </trkpt>
      <trkpt lat="42.61536" lon="1.73509">
        <ele>2534.6000976562</ele>
        <time>2017-02-14T12:32:47.000Z</time>
      </trkpt>
      <trkpt lat="42.61531" lon="1.73504">
        <ele>2531</ele>
        <time>2017-02-14T12:33:49.000Z</time>
      </trkpt>
      <trkpt lat="42.61522" lon="1.73425">
        <ele>2526.8000488281</ele>
        <time>2017-02-14T12:34:51.000Z</time>
      </trkpt>
      <trkpt lat="42.61529" lon="1.73377">
        <ele>2522.6000976562</ele>
        <time>2017-02-14T12:35:53.000Z</time>
      </trkpt>
      <trkpt lat="42.61512" lon="1.73312">
        <ele>2515.1999511719</ele>
        <time>2017-02-14T12:36:55.000Z</time>
      </trkpt>
      <trkpt lat="42.61517" lon="1.73295">
        <ele>2514.1999511719</ele>
        <time>2017-02-14T12:37:57.000Z</time>
      </trkpt>
      <trkpt lat="42.61529" lon="1.73271">
        <ele>2514.6000976562</ele>
        <time>2017-02-14T12:39:00.000Z</time>
      </trkpt>
      <trkpt lat="42.61502" lon="1.73288">
        <ele>2513.8000488281</ele>
        <time>2017-02-14T12:40:02.000Z</time>
      </trkpt>
      <trkpt lat="42.6151" lon="1.73276">
        <ele>2509.8000488281</ele>
        <time>2017-02-14T12:41:04.000Z</time>
      </trkpt>
      <trkpt lat="42.61466" lon="1.73258">
        <ele>2499</ele>
        <time>2017-02-14T12:42:07.000Z</time>
      </trkpt>
      <trkpt lat="42.61446" lon="1.73201">
        <ele>2487.8000488281</ele>
        <time>2017-02-14T12:43:09.000Z</time>
      </trkpt>
      <trkpt lat="42.61452" lon="1.73181">
        <ele>2491.6000976562</ele>
        <time>2017-02-14T12:44:11.000Z</time>
      </trkpt>
      <trkpt lat="42.61446" lon="1.73201">
        <ele>2489</ele>
        <time>2017-02-14T12:45:13.000Z</time>
      </trkpt>
      <trkpt lat="42.61437" lon="1.73179">
        <ele>2489.3999023438</ele>
        <time>2017-02-14T12:46:17.000Z</time>
      </trkpt>
      <trkpt lat="42.61439" lon="1.73188">
        <ele>2489.8000488281</ele>
        <time>2017-02-14T12:47:17.000Z</time>
      </trkpt>
      <trkpt lat="42.61426" lon="1.73192">
        <ele>2486.8000488281</ele>
        <time>2017-02-14T12:48:17.000Z</time>
      </trkpt>
      <trkpt lat="42.61418" lon="1.73187">
        <ele>2483.6000976562</ele>
        <time>2017-02-14T12:49:19.000Z</time>
      </trkpt>
      <trkpt lat="42.61385" lon="1.73186">
        <ele>2474.1999511719</ele>
        <time>2017-02-14T12:50:21.000Z</time>
      </trkpt>
      <trkpt lat="42.61396" lon="1.73115">
        <ele>2467.1999511719</ele>
        <time>2017-02-14T12:51:24.000Z</time>
      </trkpt>
      <trkpt lat="42.61441" lon="1.73098">
        <ele>2462.1999511719</ele>
        <time>2017-02-14T12:52:26.000Z</time>
      </trkpt>
      <trkpt lat="42.61426" lon="1.73066">
        <ele>2448.3999023438</ele>
        <time>2017-02-14T12:53:28.000Z</time>
      </trkpt>
      <trkpt lat="42.61443" lon="1.73034">
        <ele>2439.3999023438</ele>
        <time>2017-02-14T12:54:30.000Z</time>
      </trkpt>
      <trkpt lat="42.61462" lon="1.73018">
        <ele>2441.3999023438</ele>
        <time>2017-02-14T12:55:33.000Z</time>
      </trkpt>
      <trkpt lat="42.61469" lon="1.73025">
        <ele>2440</ele>
        <time>2017-02-14T12:56:36.000Z</time>
      </trkpt>
      <trkpt lat="42.61496" lon="1.73023">
        <ele>2434.8000488281</ele>
        <time>2017-02-14T12:57:38.000Z</time>
      </trkpt>
      <trkpt lat="42.61497" lon="1.73022">
        <ele>2432.8000488281</ele>
        <time>2017-02-14T12:58:41.000Z</time>
      </trkpt>
      <trkpt lat="42.61497" lon="1.73039">
        <ele>2432.6000976562</ele>
        <time>2017-02-14T12:59:41.000Z</time>
      </trkpt>
      <trkpt lat="42.61488" lon="1.73026">
        <ele>2432</ele>
        <time>2017-02-14T13:00:45.000Z</time>
      </trkpt>
      <trkpt lat="42.61486" lon="1.73035">
        <ele>2432.6000976562</ele>
        <time>2017-02-14T13:01:46.000Z</time>
      </trkpt>
      <trkpt lat="42.61488" lon="1.73032">
        <ele>2431.1999511719</ele>
        <time>2017-02-14T13:02:49.000Z</time>
      </trkpt>
      <trkpt lat="42.61496" lon="1.73036">
        <ele>2431.3999023438</ele>
        <time>2017-02-14T13:03:50.000Z</time>
      </trkpt>
      <trkpt lat="42.61548" lon="1.73048">
        <ele>2404.3999023438</ele>
        <time>2017-02-14T13:04:53.000Z</time>
      </trkpt>
      <trkpt lat="42.61621" lon="1.7305">
        <ele>2374</ele>
        <time>2017-02-14T13:05:54.000Z</time>
      </trkpt>
      <trkpt lat="42.61621" lon="1.7305">
        <ele>2374</ele>
        <time>2017-02-14T13:05:53.000Z</time>
      </trkpt>
      <trkpt lat="42.61663" lon="1.73105">
        <ele>2370.8000488281</ele>
        <time>2017-02-14T13:06:55.000Z</time>
      </trkpt>
      <trkpt lat="42.61654" lon="1.73093">
        <ele>2370.8000488281</ele>
        <time>2017-02-14T13:07:57.000Z</time>
      </trkpt>
      <trkpt lat="42.6165" lon="1.73119">
        <ele>2370.6000976562</ele>
        <time>2017-02-14T13:08:59.000Z</time>
      </trkpt>
      <trkpt lat="42.61661" lon="1.73101">
        <ele>2370.3999023438</ele>
        <time>2017-02-14T13:10:02.000Z</time>
      </trkpt>
      <trkpt lat="42.61665" lon="1.73111">
        <ele>2370</ele>
        <time>2017-02-14T13:11:03.000Z</time>
      </trkpt>
      <trkpt lat="42.61704" lon="1.73114">
        <ele>2363.6000976562</ele>
        <time>2017-02-14T13:12:05.000Z</time>
      </trkpt>
      <trkpt lat="42.61862" lon="1.72989">
        <ele>2321</ele>
        <time>2017-02-14T13:13:08.000Z</time>
      </trkpt>
      <trkpt lat="42.61873" lon="1.72977">
        <ele>2325.1999511719</ele>
        <time>2017-02-14T13:14:09.000Z</time>
      </trkpt>
      <trkpt lat="42.61935" lon="1.72886">
        <ele>2310.8000488281</ele>
        <time>2017-02-14T13:15:12.000Z</time>
      </trkpt>
      <trkpt lat="42.61961" lon="1.72825">
        <ele>2311.1999511719</ele>
        <time>2017-02-14T13:16:14.000Z</time>
      </trkpt>
      <trkpt lat="42.62011" lon="1.72771">
        <ele>2309.8000488281</ele>
        <time>2017-02-14T13:17:20.000Z</time>
      </trkpt>
      <trkpt lat="42.62005" lon="1.72746">
        <ele>2309.6000976562</ele>
        <time>2017-02-14T13:18:22.000Z</time>
      </trkpt>
      <trkpt lat="42.62056" lon="1.72709">
        <ele>2309.6000976562</ele>
        <time>2017-02-14T13:19:25.000Z</time>
      </trkpt>
      <trkpt lat="42.62074" lon="1.72671">
        <ele>2311</ele>
        <time>2017-02-14T13:20:26.000Z</time>
      </trkpt>
      <trkpt lat="42.62098" lon="1.72656">
        <ele>2317.3999023438</ele>
        <time>2017-02-14T13:21:27.000Z</time>
      </trkpt>
      <trkpt lat="42.62097" lon="1.72635">
        <ele>2320.8000488281</ele>
        <time>2017-02-14T13:22:31.000Z</time>
      </trkpt>
      <trkpt lat="42.62125" lon="1.72617">
        <ele>2321.1999511719</ele>
        <time>2017-02-14T13:23:33.000Z</time>
      </trkpt>
      <trkpt lat="42.62129" lon="1.72638">
        <ele>2319</ele>
        <time>2017-02-14T13:24:35.000Z</time>
      </trkpt>
      <trkpt lat="42.62123" lon="1.72635">
        <ele>2316.6000976562</ele>
        <time>2017-02-14T13:25:36.000Z</time>
      </trkpt>
      <trkpt lat="42.62158" lon="1.72583">
        <ele>2297.8000488281</ele>
        <time>2017-02-14T13:26:38.000Z</time>
      </trkpt>
      <trkpt lat="42.6221" lon="1.72616">
        <ele>2285.1999511719</ele>
        <time>2017-02-14T13:27:39.000Z</time>
      </trkpt>
      <trkpt lat="42.62211" lon="1.72586">
        <ele>2284.8000488281</ele>
        <time>2017-02-14T13:28:40.000Z</time>
      </trkpt>
      <trkpt lat="42.62211" lon="1.72573">
        <ele>2284.6000976562</ele>
        <time>2017-02-14T13:29:43.000Z</time>
      </trkpt>
      <trkpt lat="42.62212" lon="1.72584">
        <ele>2287.1999511719</ele>
        <time>2017-02-14T13:30:46.000Z</time>
      </trkpt>
      <trkpt lat="42.62221" lon="1.72586">
        <ele>2286.1999511719</ele>
        <time>2017-02-14T13:31:50.000Z</time>
      </trkpt>
      <trkpt lat="42.62203" lon="1.72587">
        <ele>2286.8000488281</ele>
        <time>2017-02-14T13:32:52.000Z</time>
      </trkpt>
      <trkpt lat="42.62198" lon="1.72598">
        <ele>2285.3999023438</ele>
        <time>2017-02-14T13:33:54.000Z</time>
      </trkpt>
      <trkpt lat="42.62208" lon="1.72585">
        <ele>2285.3999023438</ele>
        <time>2017-02-14T13:34:56.000Z</time>
      </trkpt>
      <trkpt lat="42.62211" lon="1.72592">
        <ele>2285.3999023438</ele>
        <time>2017-02-14T13:35:59.000Z</time>
      </trkpt>
      <trkpt lat="42.62212" lon="1.72607">
        <ele>2285.3999023438</ele>
        <time>2017-02-14T13:37:00.000Z</time>
      </trkpt>
      <trkpt lat="42.62211" lon="1.72587">
        <ele>2283.6000976562</ele>
        <time>2017-02-14T13:38:02.000Z</time>
      </trkpt>
      <trkpt lat="42.62237" lon="1.72581">
        <ele>2282.1999511719</ele>
        <time>2017-02-14T13:39:03.000Z</time>
      </trkpt>
      <trkpt lat="42.62238" lon="1.72566">
        <ele>2279</ele>
        <time>2017-02-14T13:40:05.000Z</time>
      </trkpt>
      <trkpt lat="42.62223" lon="1.72574">
        <ele>2278</ele>
        <time>2017-02-14T13:41:06.000Z</time>
      </trkpt>
      <trkpt lat="42.62222" lon="1.72576">
        <ele>2278.1999511719</ele>
        <time>2017-02-14T13:42:08.000Z</time>
      </trkpt>
      <trkpt lat="42.62224" lon="1.72575">
        <ele>2271.8000488281</ele>
        <time>2017-02-14T13:43:09.000Z</time>
      </trkpt>
      <trkpt lat="42.62224" lon="1.72575">
        <ele>2272</ele>
        <time>2017-02-14T13:43:08.000Z</time>
      </trkpt>
      <trkpt lat="42.62256" lon="1.72584">
        <ele>2264.1999511719</ele>
        <time>2017-02-14T13:44:10.000Z</time>
      </trkpt>
      <trkpt lat="42.62263" lon="1.72588">
        <ele>2258</ele>
        <time>2017-02-14T13:45:13.000Z</time>
      </trkpt>
      <trkpt lat="42.62268" lon="1.72575">
        <ele>2256.6000976562</ele>
        <time>2017-02-14T13:46:15.000Z</time>
      </trkpt>
      <trkpt lat="42.6227" lon="1.72565">
        <ele>2249.1999511719</ele>
        <time>2017-02-14T13:47:17.000Z</time>
      </trkpt>
      <trkpt lat="42.62265" lon="1.72531">
        <ele>2241</ele>
        <time>2017-02-14T13:48:19.000Z</time>
      </trkpt>
      <trkpt lat="42.62314" lon="1.72542">
        <ele>2238.1999511719</ele>
        <time>2017-02-14T13:49:22.000Z</time>
      </trkpt>
      <trkpt lat="42.62301" lon="1.72565">
        <ele>2237</ele>
        <time>2017-02-14T13:50:28.000Z</time>
      </trkpt>
      <trkpt lat="42.62307" lon="1.72555">
        <ele>2236</ele>
        <time>2017-02-14T13:51:31.000Z</time>
      </trkpt>
      <trkpt lat="42.62326" lon="1.72557">
        <ele>2236.6000976562</ele>
        <time>2017-02-14T13:52:34.000Z</time>
      </trkpt>
      <trkpt lat="42.62292" lon="1.72553">
        <ele>2236.1999511719</ele>
        <time>2017-02-14T13:53:38.000Z</time>
      </trkpt>
      <trkpt lat="42.62258" lon="1.72549">
        <ele>2235.6000976562</ele>
        <time>2017-02-14T13:54:41.000Z</time>
      </trkpt>
      <trkpt lat="42.62274" lon="1.72562">
        <ele>2234.3999023438</ele>
        <time>2017-02-14T13:55:43.000Z</time>
      </trkpt>
      <trkpt lat="42.62321" lon="1.72435">
        <ele>2215.3999023438</ele>
        <time>2017-02-14T13:56:46.000Z</time>
      </trkpt>
      <trkpt lat="42.62324" lon="1.72416">
        <ele>2188.1999511719</ele>
        <time>2017-02-14T13:57:48.000Z</time>
      </trkpt>
      <trkpt lat="42.6245" lon="1.72412">
        <ele>2168.1999511719</ele>
        <time>2017-02-14T13:58:52.000Z</time>
      </trkpt>
      <trkpt lat="42.624" lon="1.72458">
        <ele>2168.3999023438</ele>
        <time>2017-02-14T13:59:55.000Z</time>
      </trkpt>
      <trkpt lat="42.62412" lon="1.72419">
        <ele>2167.8000488281</ele>
        <time>2017-02-14T14:00:57.000Z</time>
      </trkpt>
      <trkpt lat="42.62423" lon="1.72423">
        <ele>2168.3999023438</ele>
        <time>2017-02-14T14:02:00.000Z</time>
      </trkpt>
      <trkpt lat="42.62402" lon="1.72456">
        <ele>2166.3999023438</ele>
        <time>2017-02-14T14:03:04.000Z</time>
      </trkpt>
      <trkpt lat="42.62536" lon="1.72509">
        <ele>2113.8000488281</ele>
        <time>2017-02-14T14:04:05.000Z</time>
      </trkpt>
      <trkpt lat="42.6256" lon="1.72522">
        <ele>2107.8000488281</ele>
        <time>2017-02-14T14:05:07.000Z</time>
      </trkpt>
      <trkpt lat="42.62552" lon="1.72532">
        <ele>2108.3999023438</ele>
        <time>2017-02-14T14:06:10.000Z</time>
      </trkpt>
      <trkpt lat="42.62535" lon="1.72518">
        <ele>2108.3999023438</ele>
        <time>2017-02-14T14:07:14.000Z</time>
      </trkpt>
      <trkpt lat="42.62566" lon="1.72574">
        <ele>2108.1999511719</ele>
        <time>2017-02-14T14:08:15.000Z</time>
      </trkpt>
      <trkpt lat="42.62544" lon="1.72558">
        <ele>2108</ele>
        <time>2017-02-14T14:09:17.000Z</time>
      </trkpt>
      <trkpt lat="42.62623" lon="1.7258">
        <ele>2107.1999511719</ele>
        <time>2017-02-14T14:10:18.000Z</time>
      </trkpt>
      <trkpt lat="42.62681" lon="1.72628">
        <ele>2104.8000488281</ele>
        <time>2017-02-14T14:11:20.000Z</time>
      </trkpt>
      <trkpt lat="42.6272" lon="1.72677">
        <ele>2105.6000976562</ele>
        <time>2017-02-14T14:12:21.000Z</time>
      </trkpt>
      <trkpt lat="42.62794" lon="1.72676">
        <ele>2097</ele>
        <time>2017-02-14T14:13:22.000Z</time>
      </trkpt>
      <trkpt lat="42.62889" lon="1.72636">
        <ele>2087</ele>
        <time>2017-02-14T14:14:24.000Z</time>
      </trkpt>
      <trkpt lat="42.62957" lon="1.7258">
        <ele>2083</ele>
        <time>2017-02-14T14:15:25.000Z</time>
      </trkpt>
      <trkpt lat="42.63065" lon="1.7257">
        <ele>2078.1999511719</ele>
        <time>2017-02-14T14:16:26.000Z</time>
      </trkpt>
      <trkpt lat="42.63072" lon="1.7256">
        <ele>2075.8000488281</ele>
        <time>2017-02-14T14:17:29.000Z</time>
      </trkpt>
      <trkpt lat="42.63074" lon="1.72551">
        <ele>2075.8000488281</ele>
        <time>2017-02-14T14:18:32.000Z</time>
      </trkpt>
      <trkpt lat="42.63064" lon="1.72549">
        <ele>2075.1999511719</ele>
        <time>2017-02-14T14:19:33.000Z</time>
      </trkpt>
      <trkpt lat="42.63118" lon="1.72573">
        <ele>2069.3999023438</ele>
        <time>2017-02-14T14:41:36.000Z</time>
      </trkpt>
      <trkpt lat="42.63107" lon="1.72587">
        <ele>2069.3999023438</ele>
        <time>2017-02-14T14:42:36.000Z</time>
      </trkpt>
      <trkpt lat="42.63128" lon="1.72544">
        <ele>2061</ele>
        <time>2017-02-14T14:43:36.000Z</time>
      </trkpt>
      <trkpt lat="42.63124" lon="1.72471">
        <ele>2044</ele>
        <time>2017-02-14T14:44:38.000Z</time>
      </trkpt>
      <trkpt lat="42.6324" lon="1.72431">
        <ele>2018.5999755859</ele>
        <time>2017-02-14T14:45:39.000Z</time>
      </trkpt>
      <trkpt lat="42.6328" lon="1.72404">
        <ele>2012.5999755859</ele>
        <time>2017-02-14T14:46:41.000Z</time>
      </trkpt>
      <trkpt lat="42.63364" lon="1.72403">
        <ele>1999.5999755859</ele>
        <time>2017-02-14T14:47:42.000Z</time>
      </trkpt>
      <trkpt lat="42.63377" lon="1.7239">
        <ele>2003.5999755859</ele>
        <time>2017-02-14T14:48:44.000Z</time>
      </trkpt>
      <trkpt lat="42.63429" lon="1.72416">
        <ele>2010</ele>
        <time>2017-02-14T14:49:46.000Z</time>
      </trkpt>
      <trkpt lat="42.63418" lon="1.72412">
        <ele>2014</ele>
        <time>2017-02-14T14:50:48.000Z</time>
      </trkpt>
      <trkpt lat="42.63416" lon="1.72418">
        <ele>2014.5999755859</ele>
        <time>2017-02-14T14:51:51.000Z</time>
      </trkpt>
      <trkpt lat="42.63409" lon="1.72467">
        <ele>2022.4000244141</ele>
        <time>2017-02-14T14:52:53.000Z</time>
      </trkpt>
      <trkpt lat="42.63434" lon="1.72479">
        <ele>2031</ele>
        <time>2017-02-14T14:53:56.000Z</time>
      </trkpt>
      <trkpt lat="42.63452" lon="1.725">
        <ele>2039</ele>
        <time>2017-02-14T14:54:58.000Z</time>
      </trkpt>
      <trkpt lat="42.6345" lon="1.72523">
        <ele>2046.4000244141</ele>
        <time>2017-02-14T14:56:00.000Z</time>
      </trkpt>
      <trkpt lat="42.63463" lon="1.72524">
        <ele>2052</ele>
        <time>2017-02-14T14:57:03.000Z</time>
      </trkpt>
      <trkpt lat="42.63459" lon="1.72534">
        <ele>2055</ele>
        <time>2017-02-14T14:58:05.000Z</time>
      </trkpt>
      <trkpt lat="42.63484" lon="1.72579">
        <ele>2061.3999023438</ele>
        <time>2017-02-14T14:59:07.000Z</time>
      </trkpt>
      <trkpt lat="42.63486" lon="1.72549">
        <ele>2066.3999023438</ele>
        <time>2017-02-14T15:00:08.000Z</time>
      </trkpt>
      <trkpt lat="42.63465" lon="1.72549">
        <ele>2071.3999023438</ele>
        <time>2017-02-14T15:01:09.000Z</time>
      </trkpt>
      <trkpt lat="42.63491" lon="1.72561">
        <ele>2078.1999511719</ele>
        <time>2017-02-14T15:02:11.000Z</time>
      </trkpt>
      <trkpt lat="42.6349" lon="1.72566">
        <ele>2082.6000976562</ele>
        <time>2017-02-14T15:03:13.000Z</time>
      </trkpt>
      <trkpt lat="42.63466" lon="1.72601">
        <ele>2084</ele>
        <time>2017-02-14T15:04:15.000Z</time>
      </trkpt>
      <trkpt lat="42.63466" lon="1.72582">
        <ele>2089.8000488281</ele>
        <time>2017-02-14T15:05:16.000Z</time>
      </trkpt>
      <trkpt lat="42.6349" lon="1.72623">
        <ele>2094.1999511719</ele>
        <time>2017-02-14T15:06:18.000Z</time>
      </trkpt>
      <trkpt lat="42.63494" lon="1.72609">
        <ele>2097.6000976562</ele>
        <time>2017-02-14T15:07:19.000Z</time>
      </trkpt>
      <trkpt lat="42.63496" lon="1.72634">
        <ele>2104.8000488281</ele>
        <time>2017-02-14T15:08:23.000Z</time>
      </trkpt>
      <trkpt lat="42.63509" lon="1.72611">
        <ele>2112.1999511719</ele>
        <time>2017-02-14T15:09:26.000Z</time>
      </trkpt>
      <trkpt lat="42.63523" lon="1.7262">
        <ele>2117.1999511719</ele>
        <time>2017-02-14T15:10:30.000Z</time>
      </trkpt>
      <trkpt lat="42.63534" lon="1.72637">
        <ele>2123.3999023438</ele>
        <time>2017-02-14T15:11:31.000Z</time>
      </trkpt>
      <trkpt lat="42.63518" lon="1.72651">
        <ele>2129</ele>
        <time>2017-02-14T15:12:36.000Z</time>
      </trkpt>
      <trkpt lat="42.63515" lon="1.72664">
        <ele>2135.3999023438</ele>
        <time>2017-02-14T15:13:39.000Z</time>
      </trkpt>
      <trkpt lat="42.63532" lon="1.72686">
        <ele>2140.6000976562</ele>
        <time>2017-02-14T15:14:39.000Z</time>
      </trkpt>
      <trkpt lat="42.6355" lon="1.72703">
        <ele>2146</ele>
        <time>2017-02-14T15:15:39.000Z</time>
      </trkpt>
      <trkpt lat="42.63577" lon="1.72697">
        <ele>2151.1999511719</ele>
        <time>2017-02-14T15:16:41.000Z</time>
      </trkpt>
      <trkpt lat="42.63607" lon="1.72691">
        <ele>2155</ele>
        <time>2017-02-14T15:17:44.000Z</time>
      </trkpt>
      <trkpt lat="42.63599" lon="1.72686">
        <ele>2155.1999511719</ele>
        <time>2017-02-14T15:18:48.000Z</time>
      </trkpt>
      <trkpt lat="42.63604" lon="1.72685">
        <ele>2154.6000976562</ele>
        <time>2017-02-14T15:19:52.000Z</time>
      </trkpt>
      <trkpt lat="42.63605" lon="1.72697">
        <ele>2154</ele>
        <time>2017-02-14T15:20:52.000Z</time>
      </trkpt>
      <trkpt lat="42.63616" lon="1.72685">
        <ele>2154.6000976562</ele>
        <time>2017-02-14T15:21:52.000Z</time>
      </trkpt>
      <trkpt lat="42.63656" lon="1.72687">
        <ele>2162.3999023438</ele>
        <time>2017-02-14T15:22:52.000Z</time>
      </trkpt>
      <trkpt lat="42.63693" lon="1.72662">
        <ele>2166.6000976562</ele>
        <time>2017-02-14T15:23:55.000Z</time>
      </trkpt>
      <trkpt lat="42.63732" lon="1.72639">
        <ele>2171.6000976562</ele>
        <time>2017-02-14T15:24:58.000Z</time>
      </trkpt>
      <trkpt lat="42.63785" lon="1.72579">
        <ele>2165</ele>
        <time>2017-02-14T15:26:02.000Z</time>
      </trkpt>
    </trkseg>
  </trk>
  <trk>
    <name><![CDATA[Canillo Course à pied]]></name>
    <trkseg>
      <trkpt lat="42.64246" lon="1.70101">
        <ele>1725.8000488281</ele>
        <time>2017-02-15T08:52:32.000Z</time>
      </trkpt>
      <trkpt lat="42.6425" lon="1.70064">
        <ele>1725.8000488281</ele>
        <time>2017-02-15T08:53:32.000Z</time>
      </trkpt>
      <trkpt lat="42.64247" lon="1.70062">
        <ele>1725.8000488281</ele>
        <time>2017-02-15T08:54:32.000Z</time>
      </trkpt>
      <trkpt lat="42.64253" lon="1.70063">
        <ele>1725.8000488281</ele>
        <time>2017-02-15T08:55:34.000Z</time>
      </trkpt>
      <trkpt lat="42.64264" lon="1.70071">
        <ele>1725.4000244141</ele>
        <time>2017-02-15T08:56:39.000Z</time>
      </trkpt>
      <trkpt lat="42.64264" lon="1.70071">
        <ele>1725.5999755859</ele>
        <time>2017-02-15T09:00:45.000Z</time>
      </trkpt>
      <trkpt lat="42.64264" lon="1.70071">
        <ele>1725.4000244141</ele>
        <time>2017-02-15T09:02:27.000Z</time>
      </trkpt>
      <trkpt lat="42.64251" lon="1.70065">
        <ele>1725.4000244141</ele>
        <time>2017-02-15T08:57:45.000Z</time>
      </trkpt>
      <trkpt lat="42.64246" lon="1.70064">
        <ele>1720.1999511719</ele>
        <time>2017-02-15T08:58:47.000Z</time>
      </trkpt>
      <trkpt lat="42.64253" lon="1.70062">
        <ele>1720.8000488281</ele>
        <time>2017-02-15T08:59:50.000Z</time>
      </trkpt>
      <trkpt lat="42.64228" lon="1.7005">
        <ele>1719.8000488281</ele>
        <time>2017-02-15T09:00:53.000Z</time>
      </trkpt>
      <trkpt lat="42.6425" lon="1.70077">
        <ele>1719.5999755859</ele>
        <time>2017-02-15T09:02:28.000Z</time>
      </trkpt>
      <trkpt lat="42.64247" lon="1.70064">
        <ele>1719.8000488281</ele>
        <time>2017-02-15T09:03:30.000Z</time>
      </trkpt>
      <trkpt lat="42.64233" lon="1.70067">
        <ele>1719.4000244141</ele>
        <time>2017-02-15T09:04:32.000Z</time>
      </trkpt>
      <trkpt lat="42.64241" lon="1.70065">
        <ele>1719.4000244141</ele>
        <time>2017-02-15T09:05:35.000Z</time>
      </trkpt>
      <trkpt lat="42.64249" lon="1.7006">
        <ele>1720.4000244141</ele>
        <time>2017-02-15T09:06:37.000Z</time>
      </trkpt>
      <trkpt lat="42.64223" lon="1.69984">
        <ele>1724.4000244141</ele>
        <time>2017-02-15T09:07:38.000Z</time>
      </trkpt>
      <trkpt lat="42.64178" lon="1.69957">
        <ele>1728.1999511719</ele>
        <time>2017-02-15T09:08:40.000Z</time>
      </trkpt>
      <trkpt lat="42.64142" lon="1.69909">
        <ele>1732.1999511719</ele>
        <time>2017-02-15T09:09:41.000Z</time>
      </trkpt>
      <trkpt lat="42.64102" lon="1.69867">
        <ele>1738.5999755859</ele>
        <time>2017-02-15T09:10:43.000Z</time>
      </trkpt>
      <trkpt lat="42.64076" lon="1.69831">
        <ele>1744.5999755859</ele>
        <time>2017-02-15T09:11:44.000Z</time>
      </trkpt>
      <trkpt lat="42.64042" lon="1.69809">
        <ele>1752.4000244141</ele>
        <time>2017-02-15T09:12:45.000Z</time>
      </trkpt>
      <trkpt lat="42.64058" lon="1.69788">
        <ele>1760.1999511719</ele>
        <time>2017-02-15T09:13:46.000Z</time>
      </trkpt>
      <trkpt lat="42.64077" lon="1.69737">
        <ele>1769.5999755859</ele>
        <time>2017-02-15T09:14:47.000Z</time>
      </trkpt>
      <trkpt lat="42.64087" lon="1.69713">
        <ele>1776.8000488281</ele>
        <time>2017-02-15T09:15:48.000Z</time>
      </trkpt>
      <trkpt lat="42.64079" lon="1.6969">
        <ele>1784.4000244141</ele>
        <time>2017-02-15T09:16:51.000Z</time>
      </trkpt>
      <trkpt lat="42.64073" lon="1.69663">
        <ele>1792.1999511719</ele>
        <time>2017-02-15T09:17:52.000Z</time>
      </trkpt>
      <trkpt lat="42.6407" lon="1.69583">
        <ele>1798.8000488281</ele>
        <time>2017-02-15T09:18:53.000Z</time>
      </trkpt>
      <trkpt lat="42.64059" lon="1.69531">
        <ele>1804.1999511719</ele>
        <time>2017-02-15T09:19:55.000Z</time>
      </trkpt>
      <trkpt lat="42.64034" lon="1.69497">
        <ele>1810.1999511719</ele>
        <time>2017-02-15T09:20:56.000Z</time>
      </trkpt>
      <trkpt lat="42.64001" lon="1.69485">
        <ele>1816.4000244141</ele>
        <time>2017-02-15T09:21:58.000Z</time>
      </trkpt>
      <trkpt lat="42.63939" lon="1.69429">
        <ele>1821.8000488281</ele>
        <time>2017-02-15T09:22:59.000Z</time>
      </trkpt>
      <trkpt lat="42.63956" lon="1.69383">
        <ele>1826.4000244141</ele>
        <time>2017-02-15T09:24:01.000Z</time>
      </trkpt>
      <trkpt lat="42.63935" lon="1.69355">
        <ele>1831.8000488281</ele>
        <time>2017-02-15T09:25:03.000Z</time>
      </trkpt>
      <trkpt lat="42.63934" lon="1.69272">
        <ele>1834.5999755859</ele>
        <time>2017-02-15T09:26:05.000Z</time>
      </trkpt>
      <trkpt lat="42.63897" lon="1.69239">
        <ele>1836.8000488281</ele>
        <time>2017-02-15T09:27:06.000Z</time>
      </trkpt>
      <trkpt lat="42.63873" lon="1.6922">
        <ele>1842.4000244141</ele>
        <time>2017-02-15T09:28:09.000Z</time>
      </trkpt>
      <trkpt lat="42.63836" lon="1.69143">
        <ele>1847.4000244141</ele>
        <time>2017-02-15T09:29:11.000Z</time>
      </trkpt>
      <trkpt lat="42.63818" lon="1.69131">
        <ele>1852.5999755859</ele>
        <time>2017-02-15T09:30:12.000Z</time>
      </trkpt>
      <trkpt lat="42.63803" lon="1.6906">
        <ele>1858.5999755859</ele>
        <time>2017-02-15T09:31:17.000Z</time>
      </trkpt>
      <trkpt lat="42.63801" lon="1.69028">
        <ele>1864.1999511719</ele>
        <time>2017-02-15T09:32:20.000Z</time>
      </trkpt>
      <trkpt lat="42.63769" lon="1.6896">
        <ele>1867</ele>
        <time>2017-02-15T09:33:23.000Z</time>
      </trkpt>
      <trkpt lat="42.63779" lon="1.68909">
        <ele>1870.4000244141</ele>
        <time>2017-02-15T09:34:26.000Z</time>
      </trkpt>
      <trkpt lat="42.63815" lon="1.68918">
        <ele>1870.5999755859</ele>
        <time>2017-02-15T09:35:27.000Z</time>
      </trkpt>
      <trkpt lat="42.63775" lon="1.68892">
        <ele>1870.8000488281</ele>
        <time>2017-02-15T09:36:30.000Z</time>
      </trkpt>
      <trkpt lat="42.63778" lon="1.68904">
        <ele>1870.8000488281</ele>
        <time>2017-02-15T09:37:31.000Z</time>
      </trkpt>
      <trkpt lat="42.63781" lon="1.68925">
        <ele>1871.5999755859</ele>
        <time>2017-02-15T09:38:33.000Z</time>
      </trkpt>
      <trkpt lat="42.63759" lon="1.68879">
        <ele>1873</ele>
        <time>2017-02-15T09:39:35.000Z</time>
      </trkpt>
      <trkpt lat="42.63748" lon="1.68812">
        <ele>1878.5999755859</ele>
        <time>2017-02-15T09:40:37.000Z</time>
      </trkpt>
      <trkpt lat="42.63778" lon="1.68743">
        <ele>1884.8000488281</ele>
        <time>2017-02-15T09:41:38.000Z</time>
      </trkpt>
      <trkpt lat="42.63742" lon="1.68718">
        <ele>1886.8000488281</ele>
        <time>2017-02-15T09:42:39.000Z</time>
      </trkpt>
      <trkpt lat="42.6374" lon="1.6861">
        <ele>1888.4000244141</ele>
        <time>2017-02-15T09:43:41.000Z</time>
      </trkpt>
      <trkpt lat="42.63738" lon="1.68545">
        <ele>1892.1999511719</ele>
        <time>2017-02-15T09:44:44.000Z</time>
      </trkpt>
      <trkpt lat="42.63737" lon="1.68508">
        <ele>1893</ele>
        <time>2017-02-15T09:45:45.000Z</time>
      </trkpt>
      <trkpt lat="42.63714" lon="1.68485">
        <ele>1895.1999511719</ele>
        <time>2017-02-15T09:46:46.000Z</time>
      </trkpt>
      <trkpt lat="42.637" lon="1.68409">
        <ele>1898.4000244141</ele>
        <time>2017-02-15T09:47:47.000Z</time>
      </trkpt>
      <trkpt lat="42.63683" lon="1.68371">
        <ele>1902.1999511719</ele>
        <time>2017-02-15T09:48:48.000Z</time>
      </trkpt>
      <trkpt lat="42.6367" lon="1.68343">
        <ele>1906.5999755859</ele>
        <time>2017-02-15T09:49:50.000Z</time>
      </trkpt>
      <trkpt lat="42.63667" lon="1.68273">
        <ele>1909.8000488281</ele>
        <time>2017-02-15T09:50:52.000Z</time>
      </trkpt>
      <trkpt lat="42.63701" lon="1.68238">
        <ele>1915.4000244141</ele>
        <time>2017-02-15T09:51:53.000Z</time>
      </trkpt>
      <trkpt lat="42.63651" lon="1.68172">
        <ele>1921.5999755859</ele>
        <time>2017-02-15T09:52:56.000Z</time>
      </trkpt>
      <trkpt lat="42.63673" lon="1.68132">
        <ele>1927</ele>
        <time>2017-02-15T09:53:57.000Z</time>
      </trkpt>
      <trkpt lat="42.63629" lon="1.68082">
        <ele>1932.1999511719</ele>
        <time>2017-02-15T09:55:00.000Z</time>
      </trkpt>
      <trkpt lat="42.63624" lon="1.68032">
        <ele>1937.1999511719</ele>
        <time>2017-02-15T09:56:03.000Z</time>
      </trkpt>
      <trkpt lat="42.63632" lon="1.6796">
        <ele>1942</ele>
        <time>2017-02-15T09:57:06.000Z</time>
      </trkpt>
      <trkpt lat="42.636" lon="1.67944">
        <ele>1947.5999755859</ele>
        <time>2017-02-15T09:58:09.000Z</time>
      </trkpt>
      <trkpt lat="42.63594" lon="1.67888">
        <ele>1953.8000488281</ele>
        <time>2017-02-15T09:59:11.000Z</time>
      </trkpt>
      <trkpt lat="42.63591" lon="1.67834">
        <ele>1960.1999511719</ele>
        <time>2017-02-15T10:00:13.000Z</time>
      </trkpt>
      <trkpt lat="42.63602" lon="1.67807">
        <ele>1966.1999511719</ele>
        <time>2017-02-15T10:01:15.000Z</time>
      </trkpt>
      <trkpt lat="42.63597" lon="1.67755">
        <ele>1973</ele>
        <time>2017-02-15T10:02:18.000Z</time>
      </trkpt>
      <trkpt lat="42.63613" lon="1.67686">
        <ele>1979.1999511719</ele>
        <time>2017-02-15T10:03:19.000Z</time>
      </trkpt>
      <trkpt lat="42.63576" lon="1.67672">
        <ele>1983.5999755859</ele>
        <time>2017-02-15T10:04:21.000Z</time>
      </trkpt>
      <trkpt lat="42.63571" lon="1.67623">
        <ele>1988.8000488281</ele>
        <time>2017-02-15T10:05:24.000Z</time>
      </trkpt>
      <trkpt lat="42.63556" lon="1.6758">
        <ele>1993.8000488281</ele>
        <time>2017-02-15T10:06:27.000Z</time>
      </trkpt>
      <trkpt lat="42.63555" lon="1.67514">
        <ele>1999</ele>
        <time>2017-02-15T10:07:30.000Z</time>
      </trkpt>
      <trkpt lat="42.63526" lon="1.67475">
        <ele>2004.4000244141</ele>
        <time>2017-02-15T10:08:32.000Z</time>
      </trkpt>
      <trkpt lat="42.63538" lon="1.67428">
        <ele>2009.1999511719</ele>
        <time>2017-02-15T10:09:34.000Z</time>
      </trkpt>
      <trkpt lat="42.63512" lon="1.67375">
        <ele>2015.5999755859</ele>
        <time>2017-02-15T10:10:37.000Z</time>
      </trkpt>
      <trkpt lat="42.6349" lon="1.67325">
        <ele>2019</ele>
        <time>2017-02-15T10:11:39.000Z</time>
      </trkpt>
      <trkpt lat="42.63479" lon="1.67251">
        <ele>2020.5999755859</ele>
        <time>2017-02-15T10:12:41.000Z</time>
      </trkpt>
      <trkpt lat="42.63443" lon="1.67207">
        <ele>2022.5999755859</ele>
        <time>2017-02-15T10:13:43.000Z</time>
      </trkpt>
      <trkpt lat="42.63425" lon="1.6717">
        <ele>2024.1999511719</ele>
        <time>2017-02-15T10:14:45.000Z</time>
      </trkpt>
      <trkpt lat="42.63403" lon="1.67103">
        <ele>2024.8000488281</ele>
        <time>2017-02-15T10:15:47.000Z</time>
      </trkpt>
      <trkpt lat="42.63408" lon="1.67029">
        <ele>2028</ele>
        <time>2017-02-15T10:16:48.000Z</time>
      </trkpt>
      <trkpt lat="42.63384" lon="1.66986">
        <ele>2030.5999755859</ele>
        <time>2017-02-15T10:17:49.000Z</time>
      </trkpt>
      <trkpt lat="42.63381" lon="1.66931">
        <ele>2032.1999511719</ele>
        <time>2017-02-15T10:18:51.000Z</time>
      </trkpt>
      <trkpt lat="42.63351" lon="1.66879">
        <ele>2035.1999511719</ele>
        <time>2017-02-15T10:19:52.000Z</time>
      </trkpt>
      <trkpt lat="42.63348" lon="1.66813">
        <ele>2039.5999755859</ele>
        <time>2017-02-15T10:20:53.000Z</time>
      </trkpt>
      <trkpt lat="42.63326" lon="1.66784">
        <ele>2045.8000488281</ele>
        <time>2017-02-15T10:21:55.000Z</time>
      </trkpt>
      <trkpt lat="42.63332" lon="1.66873">
        <ele>2045.8000488281</ele>
        <time>2017-02-15T10:22:56.000Z</time>
      </trkpt>
      <trkpt lat="42.6331" lon="1.66803">
        <ele>2045.4000244141</ele>
        <time>2017-02-15T10:23:57.000Z</time>
      </trkpt>
      <trkpt lat="42.6332" lon="1.66809">
        <ele>2045</ele>
        <time>2017-02-15T10:25:00.000Z</time>
      </trkpt>
      <trkpt lat="42.63349" lon="1.66771">
        <ele>2045.4000244141</ele>
        <time>2017-02-15T10:26:01.000Z</time>
      </trkpt>
      <trkpt lat="42.63308" lon="1.66827">
        <ele>2045</ele>
        <time>2017-02-15T10:27:02.000Z</time>
      </trkpt>
      <trkpt lat="42.63325" lon="1.66816">
        <ele>2045.4000244141</ele>
        <time>2017-02-15T10:28:04.000Z</time>
      </trkpt>
      <trkpt lat="42.63314" lon="1.66793">
        <ele>2045.8000488281</ele>
        <time>2017-02-15T10:29:05.000Z</time>
      </trkpt>
      <trkpt lat="42.63327" lon="1.66784">
        <ele>2046</ele>
        <time>2017-02-15T10:30:08.000Z</time>
      </trkpt>
      <trkpt lat="42.63303" lon="1.66796">
        <ele>2045.8000488281</ele>
        <time>2017-02-15T10:31:12.000Z</time>
      </trkpt>
      <trkpt lat="42.6332" lon="1.66798">
        <ele>2045.4000244141</ele>
        <time>2017-02-15T10:32:17.000Z</time>
      </trkpt>
      <trkpt lat="42.63315" lon="1.66799">
        <ele>2045.1999511719</ele>
        <time>2017-02-15T10:33:18.000Z</time>
      </trkpt>
      <trkpt lat="42.63306" lon="1.66799">
        <ele>2045.8000488281</ele>
        <time>2017-02-15T10:34:20.000Z</time>
      </trkpt>
      <trkpt lat="42.63327" lon="1.6679">
        <ele>2045.1999511719</ele>
        <time>2017-02-15T10:35:21.000Z</time>
      </trkpt>
      <trkpt lat="42.63311" lon="1.66733">
        <ele>2049.3999023438</ele>
        <time>2017-02-15T10:36:24.000Z</time>
      </trkpt>
      <trkpt lat="42.6326" lon="1.66719">
        <ele>2055</ele>
        <time>2017-02-15T10:37:24.000Z</time>
      </trkpt>
      <trkpt lat="42.63257" lon="1.66694">
        <ele>2060.1999511719</ele>
        <time>2017-02-15T10:38:26.000Z</time>
      </trkpt>
      <trkpt lat="42.63231" lon="1.6668">
        <ele>2065.1999511719</ele>
        <time>2017-02-15T10:39:27.000Z</time>
      </trkpt>
      <trkpt lat="42.63217" lon="1.66635">
        <ele>2070.3999023438</ele>
        <time>2017-02-15T10:40:30.000Z</time>
      </trkpt>
      <trkpt lat="42.63195" lon="1.66622">
        <ele>2075.6000976562</ele>
        <time>2017-02-15T10:41:31.000Z</time>
      </trkpt>
      <trkpt lat="42.63179" lon="1.6659">
        <ele>2081.8000488281</ele>
        <time>2017-02-15T10:42:32.000Z</time>
      </trkpt>
      <trkpt lat="42.63145" lon="1.66549">
        <ele>2087.1999511719</ele>
        <time>2017-02-15T10:43:34.000Z</time>
      </trkpt>
      <trkpt lat="42.63142" lon="1.6653">
        <ele>2092.8000488281</ele>
        <time>2017-02-15T10:44:36.000Z</time>
      </trkpt>
      <trkpt lat="42.63104" lon="1.66476">
        <ele>2099.6000976562</ele>
        <time>2017-02-15T10:45:37.000Z</time>
      </trkpt>
      <trkpt lat="42.63097" lon="1.66467">
        <ele>2105.1999511719</ele>
        <time>2017-02-15T10:46:40.000Z</time>
      </trkpt>
      <trkpt lat="42.63076" lon="1.66442">
        <ele>2112</ele>
        <time>2017-02-15T10:47:41.000Z</time>
      </trkpt>
      <trkpt lat="42.6305" lon="1.66437">
        <ele>2119</ele>
        <time>2017-02-15T10:48:44.000Z</time>
      </trkpt>
      <trkpt lat="42.63016" lon="1.66468">
        <ele>2125.8000488281</ele>
        <time>2017-02-15T10:49:46.000Z</time>
      </trkpt>
      <trkpt lat="42.63005" lon="1.66479">
        <ele>2132.8000488281</ele>
        <time>2017-02-15T10:50:49.000Z</time>
      </trkpt>
      <trkpt lat="42.62992" lon="1.66518">
        <ele>2139.3999023438</ele>
        <time>2017-02-15T10:51:50.000Z</time>
      </trkpt>
      <trkpt lat="42.6299" lon="1.66535">
        <ele>2147</ele>
        <time>2017-02-15T10:52:53.000Z</time>
      </trkpt>
      <trkpt lat="42.62974" lon="1.66579">
        <ele>2154.3999023438</ele>
        <time>2017-02-15T10:53:56.000Z</time>
      </trkpt>
      <trkpt lat="42.62943" lon="1.66585">
        <ele>2161.1999511719</ele>
        <time>2017-02-15T10:54:57.000Z</time>
      </trkpt>
      <trkpt lat="42.62931" lon="1.66589">
        <ele>2167</ele>
        <time>2017-02-15T10:56:00.000Z</time>
      </trkpt>
      <trkpt lat="42.62893" lon="1.66594">
        <ele>2171.6000976562</ele>
        <time>2017-02-15T10:57:02.000Z</time>
      </trkpt>
      <trkpt lat="42.62865" lon="1.66592">
        <ele>2178</ele>
        <time>2017-02-15T10:58:07.000Z</time>
      </trkpt>
      <trkpt lat="42.62828" lon="1.66575">
        <ele>2184.1999511719</ele>
        <time>2017-02-15T10:59:09.000Z</time>
      </trkpt>
      <trkpt lat="42.62819" lon="1.66555">
        <ele>2190.6000976562</ele>
        <time>2017-02-15T11:00:11.000Z</time>
      </trkpt>
      <trkpt lat="42.62787" lon="1.66538">
        <ele>2196</ele>
        <time>2017-02-15T11:01:13.000Z</time>
      </trkpt>
      <trkpt lat="42.62782" lon="1.66487">
        <ele>2202.6000976562</ele>
        <time>2017-02-15T11:02:14.000Z</time>
      </trkpt>
      <trkpt lat="42.62735" lon="1.6646">
        <ele>2206.6000976562</ele>
        <time>2017-02-15T11:03:18.000Z</time>
      </trkpt>
      <trkpt lat="42.627" lon="1.66444">
        <ele>2209.3999023438</ele>
        <time>2017-02-15T11:04:19.000Z</time>
      </trkpt>
      <trkpt lat="42.62689" lon="1.66405">
        <ele>2212.8000488281</ele>
        <time>2017-02-15T11:05:23.000Z</time>
      </trkpt>
      <trkpt lat="42.62638" lon="1.66382">
        <ele>2217.6000976562</ele>
        <time>2017-02-15T11:06:24.000Z</time>
      </trkpt>
      <trkpt lat="42.62653" lon="1.66362">
        <ele>2217.1999511719</ele>
        <time>2017-02-15T11:07:28.000Z</time>
      </trkpt>
      <trkpt lat="42.62681" lon="1.66371">
        <ele>2217.1999511719</ele>
        <time>2017-02-15T11:08:30.000Z</time>
      </trkpt>
      <trkpt lat="42.62681" lon="1.66372">
        <ele>2217.6000976562</ele>
        <time>2017-02-15T11:09:33.000Z</time>
      </trkpt>
      <trkpt lat="42.62676" lon="1.66371">
        <ele>2217.3999023438</ele>
        <time>2017-02-15T11:10:34.000Z</time>
      </trkpt>
      <trkpt lat="42.62658" lon="1.66398">
        <ele>2217.6000976562</ele>
        <time>2017-02-15T11:11:37.000Z</time>
      </trkpt>
      <trkpt lat="42.62669" lon="1.66387">
        <ele>2216.8000488281</ele>
        <time>2017-02-15T11:12:39.000Z</time>
      </trkpt>
      <trkpt lat="42.6265" lon="1.66383">
        <ele>2217</ele>
        <time>2017-02-15T11:13:41.000Z</time>
      </trkpt>
      <trkpt lat="42.6266" lon="1.66387">
        <ele>2217.3999023438</ele>
        <time>2017-02-15T11:14:43.000Z</time>
      </trkpt>
      <trkpt lat="42.62647" lon="1.66358">
        <ele>2221.8000488281</ele>
        <time>2017-02-15T11:15:44.000Z</time>
      </trkpt>
      <trkpt lat="42.62633" lon="1.66333">
        <ele>2226.1999511719</ele>
        <time>2017-02-15T11:16:47.000Z</time>
      </trkpt>
      <trkpt lat="42.62591" lon="1.66344">
        <ele>2231.8000488281</ele>
        <time>2017-02-15T11:17:49.000Z</time>
      </trkpt>
      <trkpt lat="42.6258" lon="1.66363">
        <ele>2234.6000976562</ele>
        <time>2017-02-15T11:18:52.000Z</time>
      </trkpt>
      <trkpt lat="42.62568" lon="1.66389">
        <ele>2242.8000488281</ele>
        <time>2017-02-15T11:19:54.000Z</time>
      </trkpt>
      <trkpt lat="42.62556" lon="1.66384">
        <ele>2248.6000976562</ele>
        <time>2017-02-15T11:20:56.000Z</time>
      </trkpt>
      <trkpt lat="42.6253" lon="1.66389">
        <ele>2253</ele>
        <time>2017-02-15T11:21:58.000Z</time>
      </trkpt>
      <trkpt lat="42.62528" lon="1.66384">
        <ele>2254.8000488281</ele>
        <time>2017-02-15T11:23:01.000Z</time>
      </trkpt>
      <trkpt lat="42.62513" lon="1.66398">
        <ele>2254.3999023438</ele>
        <time>2017-02-15T11:24:02.000Z</time>
      </trkpt>
      <trkpt lat="42.62513" lon="1.66393">
        <ele>2254.6000976562</ele>
        <time>2017-02-15T11:25:05.000Z</time>
      </trkpt>
      <trkpt lat="42.62534" lon="1.66384">
        <ele>2254.6000976562</ele>
        <time>2017-02-15T11:26:09.000Z</time>
      </trkpt>
      <trkpt lat="42.62525" lon="1.66392">
        <ele>2254.6000976562</ele>
        <time>2017-02-15T11:27:10.000Z</time>
      </trkpt>
      <trkpt lat="42.62543" lon="1.66382">
        <ele>2254.6000976562</ele>
        <time>2017-02-15T11:28:12.000Z</time>
      </trkpt>
      <trkpt lat="42.62476" lon="1.66263">
        <ele>2254.6000976562</ele>
        <time>2017-02-15T11:29:18.000Z</time>
      </trkpt>
      <trkpt lat="42.62499" lon="1.66384">
        <ele>2254.3999023438</ele>
        <time>2017-02-15T11:30:20.000Z</time>
      </trkpt>
      <trkpt lat="42.62556" lon="1.66357">
        <ele>2255</ele>
        <time>2017-02-15T11:31:23.000Z</time>
      </trkpt>
      <trkpt lat="42.62545" lon="1.66374">
        <ele>2254.6000976562</ele>
        <time>2017-02-15T11:32:24.000Z</time>
      </trkpt>
      <trkpt lat="42.62582" lon="1.66361">
        <ele>2256</ele>
        <time>2017-02-15T11:33:28.000Z</time>
      </trkpt>
      <trkpt lat="42.62578" lon="1.6635">
        <ele>2255.6000976562</ele>
        <time>2017-02-15T11:34:37.000Z</time>
      </trkpt>
      <trkpt lat="42.62545" lon="1.66382">
        <ele>2255.3999023438</ele>
        <time>2017-02-15T11:35:38.000Z</time>
      </trkpt>
      <trkpt lat="42.62579" lon="1.6637">
        <ele>2255.1999511719</ele>
        <time>2017-02-15T11:36:41.000Z</time>
      </trkpt>
      <trkpt lat="42.62549" lon="1.66383">
        <ele>2255.3999023438</ele>
        <time>2017-02-15T11:37:42.000Z</time>
      </trkpt>
      <trkpt lat="42.62557" lon="1.66373">
        <ele>2255.3999023438</ele>
        <time>2017-02-15T11:38:44.000Z</time>
      </trkpt>
      <trkpt lat="42.62547" lon="1.66369">
        <ele>2255.1999511719</ele>
        <time>2017-02-15T11:39:46.000Z</time>
      </trkpt>
      <trkpt lat="42.62559" lon="1.66378">
        <ele>2255.1999511719</ele>
        <time>2017-02-15T11:40:48.000Z</time>
      </trkpt>
      <trkpt lat="42.62545" lon="1.66364">
        <ele>2258.1999511719</ele>
        <time>2017-02-15T11:41:50.000Z</time>
      </trkpt>
      <trkpt lat="42.62525" lon="1.66372">
        <ele>2265.1999511719</ele>
        <time>2017-02-15T11:42:52.000Z</time>
      </trkpt>
      <trkpt lat="42.62502" lon="1.66359">
        <ele>2272</ele>
        <time>2017-02-15T11:43:54.000Z</time>
      </trkpt>
      <trkpt lat="42.62481" lon="1.66364">
        <ele>2277.6000976562</ele>
        <time>2017-02-15T11:44:56.000Z</time>
      </trkpt>
      <trkpt lat="42.62479" lon="1.66368">
        <ele>2284.1999511719</ele>
        <time>2017-02-15T11:45:58.000Z</time>
      </trkpt>
      <trkpt lat="42.62466" lon="1.66368">
        <ele>2288.8000488281</ele>
        <time>2017-02-15T11:47:00.000Z</time>
      </trkpt>
      <trkpt lat="42.62492" lon="1.66356">
        <ele>2293.6000976562</ele>
        <time>2017-02-15T11:48:01.000Z</time>
      </trkpt>
      <trkpt lat="42.6249" lon="1.66358">
        <ele>2296.3999023438</ele>
        <time>2017-02-15T11:49:03.000Z</time>
      </trkpt>
      <trkpt lat="42.62478" lon="1.66333">
        <ele>2299.8000488281</ele>
        <time>2017-02-15T11:50:04.000Z</time>
      </trkpt>
      <trkpt lat="42.62475" lon="1.6632">
        <ele>2306.3999023438</ele>
        <time>2017-02-15T11:51:06.000Z</time>
      </trkpt>
      <trkpt lat="42.6247" lon="1.66319">
        <ele>2311.1999511719</ele>
        <time>2017-02-15T11:52:07.000Z</time>
      </trkpt>
      <trkpt lat="42.62463" lon="1.6631">
        <ele>2311.8000488281</ele>
        <time>2017-02-15T11:53:09.000Z</time>
      </trkpt>
      <trkpt lat="42.6246" lon="1.66324">
        <ele>2311.6000976562</ele>
        <time>2017-02-15T11:54:12.000Z</time>
      </trkpt>
      <trkpt lat="42.62481" lon="1.66321">
        <ele>2310.6000976562</ele>
        <time>2017-02-15T11:55:13.000Z</time>
      </trkpt>
      <trkpt lat="42.62473" lon="1.66317">
        <ele>2310.3999023438</ele>
        <time>2017-02-15T11:56:15.000Z</time>
      </trkpt>
      <trkpt lat="42.62472" lon="1.66309">
        <ele>2310.6000976562</ele>
        <time>2017-02-15T11:57:18.000Z</time>
      </trkpt>
      <trkpt lat="42.62467" lon="1.66315">
        <ele>2311</ele>
        <time>2017-02-15T11:58:18.000Z</time>
      </trkpt>
      <trkpt lat="42.6247" lon="1.66315">
        <ele>2310.8000488281</ele>
        <time>2017-02-15T11:59:19.000Z</time>
      </trkpt>
      <trkpt lat="42.62451" lon="1.6631">
        <ele>2313.1999511719</ele>
        <time>2017-02-15T12:00:21.000Z</time>
      </trkpt>
      <trkpt lat="42.62453" lon="1.663">
        <ele>2319.1999511719</ele>
        <time>2017-02-15T12:01:22.000Z</time>
      </trkpt>
      <trkpt lat="42.62417" lon="1.66258">
        <ele>2326.1999511719</ele>
        <time>2017-02-15T12:02:24.000Z</time>
      </trkpt>
      <trkpt lat="42.62417" lon="1.66213">
        <ele>2331.6000976562</ele>
        <time>2017-02-15T12:03:27.000Z</time>
      </trkpt>
      <trkpt lat="42.62401" lon="1.66154">
        <ele>2337.3999023438</ele>
        <time>2017-02-15T12:04:28.000Z</time>
      </trkpt>
      <trkpt lat="42.62378" lon="1.6615">
        <ele>2341.1999511719</ele>
        <time>2017-02-15T12:05:29.000Z</time>
      </trkpt>
      <trkpt lat="42.62351" lon="1.66131">
        <ele>2348.1999511719</ele>
        <time>2017-02-15T12:06:30.000Z</time>
      </trkpt>
      <trkpt lat="42.6234" lon="1.66101">
        <ele>2354.6000976562</ele>
        <time>2017-02-15T12:07:32.000Z</time>
      </trkpt>
      <trkpt lat="42.62334" lon="1.66081">
        <ele>2362.3999023438</ele>
        <time>2017-02-15T12:08:34.000Z</time>
      </trkpt>
      <trkpt lat="42.62334" lon="1.66081">
        <ele>2362.3999023438</ele>
        <time>2017-02-15T12:08:33.000Z</time>
      </trkpt>
      <trkpt lat="42.6235" lon="1.66009">
        <ele>2369.3999023438</ele>
        <time>2017-02-15T12:09:34.000Z</time>
      </trkpt>
      <trkpt lat="42.62328" lon="1.66017">
        <ele>2377</ele>
        <time>2017-02-15T12:10:35.000Z</time>
      </trkpt>
      <trkpt lat="42.62335" lon="1.65982">
        <ele>2384.1999511719</ele>
        <time>2017-02-15T12:11:37.000Z</time>
      </trkpt>
      <trkpt lat="42.62316" lon="1.65955">
        <ele>2391.3999023438</ele>
        <time>2017-02-15T12:12:39.000Z</time>
      </trkpt>
      <trkpt lat="42.62294" lon="1.65928">
        <ele>2398.1999511719</ele>
        <time>2017-02-15T12:13:40.000Z</time>
      </trkpt>
      <trkpt lat="42.62292" lon="1.65914">
        <ele>2403.8000488281</ele>
        <time>2017-02-15T12:14:42.000Z</time>
      </trkpt>
      <trkpt lat="42.62284" lon="1.659">
        <ele>2407</ele>
        <time>2017-02-15T12:15:43.000Z</time>
      </trkpt>
      <trkpt lat="42.62276" lon="1.65863">
        <ele>2413.1999511719</ele>
        <time>2017-02-15T12:16:44.000Z</time>
      </trkpt>
      <trkpt lat="42.62243" lon="1.65837">
        <ele>2419</ele>
        <time>2017-02-15T12:17:46.000Z</time>
      </trkpt>
      <trkpt lat="42.62268" lon="1.65798">
        <ele>2425.6000976562</ele>
        <time>2017-02-15T12:18:47.000Z</time>
      </trkpt>
      <trkpt lat="42.62276" lon="1.65806">
        <ele>2428.3999023438</ele>
        <time>2017-02-15T12:19:49.000Z</time>
      </trkpt>
      <trkpt lat="42.62246" lon="1.65749">
        <ele>2436.8000488281</ele>
        <time>2017-02-15T12:20:51.000Z</time>
      </trkpt>
      <trkpt lat="42.62221" lon="1.65803">
        <ele>2442.1999511719</ele>
        <time>2017-02-15T12:21:52.000Z</time>
      </trkpt>
      <trkpt lat="42.6221" lon="1.65775">
        <ele>2447.3999023438</ele>
        <time>2017-02-15T12:22:53.000Z</time>
      </trkpt>
      <trkpt lat="42.62205" lon="1.65761">
        <ele>2454.8000488281</ele>
        <time>2017-02-15T12:23:56.000Z</time>
      </trkpt>
      <trkpt lat="42.62193" lon="1.65758">
        <ele>2461</ele>
        <time>2017-02-15T12:24:57.000Z</time>
      </trkpt>
      <trkpt lat="42.62192" lon="1.65736">
        <ele>2466.6000976562</ele>
        <time>2017-02-15T12:25:58.000Z</time>
      </trkpt>
      <trkpt lat="42.62166" lon="1.65737">
        <ele>2470.1999511719</ele>
        <time>2017-02-15T12:27:00.000Z</time>
      </trkpt>
      <trkpt lat="42.6219" lon="1.65747">
        <ele>2470</ele>
        <time>2017-02-15T12:28:00.000Z</time>
      </trkpt>
      <trkpt lat="42.62188" lon="1.65749">
        <ele>2470.1999511719</ele>
        <time>2017-02-15T12:29:00.000Z</time>
      </trkpt>
      <trkpt lat="42.62188" lon="1.65764">
        <ele>2470</ele>
        <time>2017-02-15T12:30:01.000Z</time>
      </trkpt>
      <trkpt lat="42.62173" lon="1.65734">
        <ele>2470.1999511719</ele>
        <time>2017-02-15T12:31:04.000Z</time>
      </trkpt>
      <trkpt lat="42.62169" lon="1.65732">
        <ele>2470.1999511719</ele>
        <time>2017-02-15T12:32:08.000Z</time>
      </trkpt>
      <trkpt lat="42.6218" lon="1.6571">
        <ele>2477.1999511719</ele>
        <time>2017-02-15T12:33:09.000Z</time>
      </trkpt>
      <trkpt lat="42.62183" lon="1.65715">
        <ele>2484.8000488281</ele>
        <time>2017-02-15T12:34:12.000Z</time>
      </trkpt>
      <trkpt lat="42.62179" lon="1.65683">
        <ele>2489.6000976562</ele>
        <time>2017-02-15T12:35:15.000Z</time>
      </trkpt>
      <trkpt lat="42.62181" lon="1.65703">
        <ele>2489.8000488281</ele>
        <time>2017-02-15T12:36:17.000Z</time>
      </trkpt>
      <trkpt lat="42.6219" lon="1.65681">
        <ele>2490</ele>
        <time>2017-02-15T12:37:19.000Z</time>
      </trkpt>
      <trkpt lat="42.62172" lon="1.65683">
        <ele>2489</ele>
        <time>2017-02-15T12:38:25.000Z</time>
      </trkpt>
      <trkpt lat="42.62174" lon="1.65683">
        <ele>2489.8000488281</ele>
        <time>2017-02-15T12:39:27.000Z</time>
      </trkpt>
      <trkpt lat="42.6218" lon="1.65684">
        <ele>2489.6000976562</ele>
        <time>2017-02-15T12:40:29.000Z</time>
      </trkpt>
      <trkpt lat="42.62175" lon="1.65703">
        <ele>2490.1999511719</ele>
        <time>2017-02-15T12:41:32.000Z</time>
      </trkpt>
      <trkpt lat="42.62184" lon="1.65707">
        <ele>2490.6000976562</ele>
        <time>2017-02-15T12:42:32.000Z</time>
      </trkpt>
      <trkpt lat="42.62166" lon="1.65699">
        <ele>2494.6000976562</ele>
        <time>2017-02-15T12:43:32.000Z</time>
      </trkpt>
      <trkpt lat="42.62164" lon="1.65704">
        <ele>2495.8000488281</ele>
        <time>2017-02-15T12:44:35.000Z</time>
      </trkpt>
      <trkpt lat="42.62158" lon="1.65718">
        <ele>2496.1999511719</ele>
        <time>2017-02-15T12:45:37.000Z</time>
      </trkpt>
      <trkpt lat="42.62153" lon="1.65724">
        <ele>2500</ele>
        <time>2017-02-15T12:46:42.000Z</time>
      </trkpt>
      <trkpt lat="42.62155" lon="1.65677">
        <ele>2506.3999023438</ele>
        <time>2017-02-15T12:47:46.000Z</time>
      </trkpt>
      <trkpt lat="42.62133" lon="1.65736">
        <ele>2512.6000976562</ele>
        <time>2017-02-15T12:48:48.000Z</time>
      </trkpt>
      <trkpt lat="42.62118" lon="1.65637">
        <ele>2519.6000976562</ele>
        <time>2017-02-15T12:49:52.000Z</time>
      </trkpt>
      <trkpt lat="42.6212" lon="1.65615">
        <ele>2524.1999511719</ele>
        <time>2017-02-15T12:51:01.000Z</time>
      </trkpt>
      <trkpt lat="42.62094" lon="1.65671">
        <ele>2531.3999023438</ele>
        <time>2017-02-15T12:52:08.000Z</time>
      </trkpt>
      <trkpt lat="42.62106" lon="1.65715">
        <ele>2538</ele>
        <time>2017-02-15T12:53:14.000Z</time>
      </trkpt>
      <trkpt lat="42.62068" lon="1.65759">
        <ele>2544.6000976562</ele>
        <time>2017-02-15T12:54:15.000Z</time>
      </trkpt>
      <trkpt lat="42.62055" lon="1.6571">
        <ele>2550.8000488281</ele>
        <time>2017-02-15T12:55:18.000Z</time>
      </trkpt>
      <trkpt lat="42.62129" lon="1.65679">
        <ele>2551</ele>
        <time>2017-02-15T12:56:22.000Z</time>
      </trkpt>
      <trkpt lat="42.62109" lon="1.65721">
        <ele>2551.8000488281</ele>
        <time>2017-02-15T12:57:29.000Z</time>
      </trkpt>
      <trkpt lat="42.62082" lon="1.65716">
        <ele>2548.8000488281</ele>
        <time>2017-02-15T12:58:31.000Z</time>
      </trkpt>
      <trkpt lat="42.62114" lon="1.65697">
        <ele>2551.1999511719</ele>
        <time>2017-02-15T12:59:33.000Z</time>
      </trkpt>
      <trkpt lat="42.62103" lon="1.65692">
        <ele>2551.3999023438</ele>
        <time>2017-02-15T13:00:33.000Z</time>
      </trkpt>
      <trkpt lat="42.62094" lon="1.65694">
        <ele>2550.8000488281</ele>
        <time>2017-02-15T13:01:33.000Z</time>
      </trkpt>
      <trkpt lat="42.62094" lon="1.65687">
        <ele>2550.1999511719</ele>
        <time>2017-02-15T13:02:36.000Z</time>
      </trkpt>
      <trkpt lat="42.62088" lon="1.65705">
        <ele>2550.3999023438</ele>
        <time>2017-02-15T13:03:37.000Z</time>
      </trkpt>
      <trkpt lat="42.62096" lon="1.65693">
        <ele>2551.3999023438</ele>
        <time>2017-02-15T13:04:38.000Z</time>
      </trkpt>
      <trkpt lat="42.62103" lon="1.65706">
        <ele>2549.8000488281</ele>
        <time>2017-02-15T13:05:40.000Z</time>
      </trkpt>
      <trkpt lat="42.62091" lon="1.65704">
        <ele>2550.1999511719</ele>
        <time>2017-02-15T13:06:44.000Z</time>
      </trkpt>
      <trkpt lat="42.621" lon="1.65704">
        <ele>2550.6000976562</ele>
        <time>2017-02-15T13:07:46.000Z</time>
      </trkpt>
      <trkpt lat="42.62085" lon="1.65713">
        <ele>2551</ele>
        <time>2017-02-15T13:08:47.000Z</time>
      </trkpt>
      <trkpt lat="42.62104" lon="1.657">
        <ele>2550.1999511719</ele>
        <time>2017-02-15T13:09:51.000Z</time>
      </trkpt>
      <trkpt lat="42.62103" lon="1.65694">
        <ele>2551</ele>
        <time>2017-02-15T13:10:54.000Z</time>
      </trkpt>
      <trkpt lat="42.62107" lon="1.65692">
        <ele>2551.1999511719</ele>
        <time>2017-02-15T13:11:56.000Z</time>
      </trkpt>
      <trkpt lat="42.62099" lon="1.65702">
        <ele>2550.3999023438</ele>
        <time>2017-02-15T13:12:57.000Z</time>
      </trkpt>
      <trkpt lat="42.62097" lon="1.65692">
        <ele>2551.3999023438</ele>
        <time>2017-02-15T13:13:59.000Z</time>
      </trkpt>
      <trkpt lat="42.6209" lon="1.65682">
        <ele>2551.3999023438</ele>
        <time>2017-02-15T13:15:01.000Z</time>
      </trkpt>
      <trkpt lat="42.62098" lon="1.65695">
        <ele>2550.8000488281</ele>
        <time>2017-02-15T13:16:03.000Z</time>
      </trkpt>
      <trkpt lat="42.62114" lon="1.65706">
        <ele>2551.6000976562</ele>
        <time>2017-02-15T13:17:05.000Z</time>
      </trkpt>
      <trkpt lat="42.62097" lon="1.65694">
        <ele>2550.6000976562</ele>
        <time>2017-02-15T13:18:09.000Z</time>
      </trkpt>
      <trkpt lat="42.62094" lon="1.65683">
        <ele>2551.1999511719</ele>
        <time>2017-02-15T13:19:10.000Z</time>
      </trkpt>
      <trkpt lat="42.6209" lon="1.65513">
        <ele>2527.1999511719</ele>
        <time>2017-02-15T13:20:11.000Z</time>
      </trkpt>
      <trkpt lat="42.61956" lon="1.65298">
        <ele>2457.3999023438</ele>
        <time>2017-02-15T13:21:13.000Z</time>
      </trkpt>
      <trkpt lat="42.61995" lon="1.65275">
        <ele>2456</ele>
        <time>2017-02-15T13:22:20.000Z</time>
      </trkpt>
      <trkpt lat="42.61981" lon="1.65287">
        <ele>2456.3999023438</ele>
        <time>2017-02-15T13:23:23.000Z</time>
      </trkpt>
      <trkpt lat="42.61977" lon="1.65307">
        <ele>2456</ele>
        <time>2017-02-15T13:24:24.000Z</time>
      </trkpt>
      <trkpt lat="42.61954" lon="1.65246">
        <ele>2447.3999023438</ele>
        <time>2017-02-15T13:25:27.000Z</time>
      </trkpt>
      <trkpt lat="42.61949" lon="1.65182">
        <ele>2434.8000488281</ele>
        <time>2017-02-15T13:26:28.000Z</time>
      </trkpt>
      <trkpt lat="42.61839" lon="1.65067">
        <ele>2392.3999023438</ele>
        <time>2017-02-15T13:27:31.000Z</time>
      </trkpt>
      <trkpt lat="42.61869" lon="1.6495">
        <ele>2368.8000488281</ele>
        <time>2017-02-15T13:28:32.000Z</time>
      </trkpt>
      <trkpt lat="42.61881" lon="1.64581">
        <ele>2320</ele>
        <time>2017-02-15T13:29:35.000Z</time>
      </trkpt>
      <trkpt lat="42.61852" lon="1.64399">
        <ele>2299</ele>
        <time>2017-02-15T13:30:40.000Z</time>
      </trkpt>
      <trkpt lat="42.6194" lon="1.64287">
        <ele>2282.1999511719</ele>
        <time>2017-02-15T13:31:42.000Z</time>
      </trkpt>
      <trkpt lat="42.61858" lon="1.64214">
        <ele>2237.8000488281</ele>
        <time>2017-02-15T13:32:47.000Z</time>
      </trkpt>
      <trkpt lat="42.61819" lon="1.64198">
        <ele>2218.3999023438</ele>
        <time>2017-02-15T13:33:52.000Z</time>
      </trkpt>
      <trkpt lat="42.61841" lon="1.63966">
        <ele>2198.3999023438</ele>
        <time>2017-02-15T13:34:54.000Z</time>
      </trkpt>
      <trkpt lat="42.62064" lon="1.63754">
        <ele>2202</ele>
        <time>2017-02-15T13:36:01.000Z</time>
      </trkpt>
      <trkpt lat="42.61764" lon="1.63993">
        <ele>2201.1999511719</ele>
        <time>2017-02-15T13:37:08.000Z</time>
      </trkpt>
      <trkpt lat="42.61826" lon="1.63888">
        <ele>2201.8000488281</ele>
        <time>2017-02-15T13:38:11.000Z</time>
      </trkpt>
    </trkseg>
  </trk>
  <trk>
    <name><![CDATA[Canillo Course à pied]]></name>
    <trkseg>
      <trkpt lat="42.61694" lon="1.62864">
        <ele>2134.8000488281</ele>
        <time>2017-02-16T07:36:14.000Z</time>
      </trkpt>
      <trkpt lat="42.61687" lon="1.62869">
        <ele>2134.6000976562</ele>
        <time>2017-02-16T07:37:14.000Z</time>
      </trkpt>
      <trkpt lat="42.61692" lon="1.62858">
        <ele>2134.6000976562</ele>
        <time>2017-02-16T07:38:14.000Z</time>
      </trkpt>
      <trkpt lat="42.61702" lon="1.62862">
        <ele>2134.1999511719</ele>
        <time>2017-02-16T07:39:16.000Z</time>
      </trkpt>
      <trkpt lat="42.61695" lon="1.62847">
        <ele>2134.3999023438</ele>
        <time>2017-02-16T07:40:19.000Z</time>
      </trkpt>
      <trkpt lat="42.61695" lon="1.62868">
        <ele>2134.8000488281</ele>
        <time>2017-02-16T07:41:20.000Z</time>
      </trkpt>
      <trkpt lat="42.61702" lon="1.62834">
        <ele>2138.1999511719</ele>
        <time>2017-02-16T07:42:22.000Z</time>
      </trkpt>
      <trkpt lat="42.61718" lon="1.62772">
        <ele>2142.8000488281</ele>
        <time>2017-02-16T07:43:23.000Z</time>
      </trkpt>
      <trkpt lat="42.61717" lon="1.62713">
        <ele>2146.6000976562</ele>
        <time>2017-02-16T07:44:24.000Z</time>
      </trkpt>
      <trkpt lat="42.61707" lon="1.62675">
        <ele>2151.6000976562</ele>
        <time>2017-02-16T07:45:25.000Z</time>
      </trkpt>
      <trkpt lat="42.61723" lon="1.62665">
        <ele>2154</ele>
        <time>2017-02-16T07:46:28.000Z</time>
      </trkpt>
      <trkpt lat="42.61723" lon="1.62652">
        <ele>2154.8000488281</ele>
        <time>2017-02-16T07:47:29.000Z</time>
      </trkpt>
      <trkpt lat="42.61734" lon="1.62663">
        <ele>2155</ele>
        <time>2017-02-16T07:48:30.000Z</time>
      </trkpt>
      <trkpt lat="42.61715" lon="1.62643">
        <ele>2155.8000488281</ele>
        <time>2017-02-16T07:49:31.000Z</time>
      </trkpt>
      <trkpt lat="42.6172" lon="1.62615">
        <ele>2164</ele>
        <time>2017-02-16T07:50:33.000Z</time>
      </trkpt>
      <trkpt lat="42.61691" lon="1.62592">
        <ele>2173</ele>
        <time>2017-02-16T07:51:36.000Z</time>
      </trkpt>
      <trkpt lat="42.6165" lon="1.62547">
        <ele>2176.8000488281</ele>
        <time>2017-02-16T07:52:38.000Z</time>
      </trkpt>
      <trkpt lat="42.6165" lon="1.62478">
        <ele>2180.8000488281</ele>
        <time>2017-02-16T07:53:40.000Z</time>
      </trkpt>
      <trkpt lat="42.61616" lon="1.62453">
        <ele>2185.6000976562</ele>
        <time>2017-02-16T07:54:41.000Z</time>
      </trkpt>
      <trkpt lat="42.61623" lon="1.62407">
        <ele>2193.1999511719</ele>
        <time>2017-02-16T07:55:43.000Z</time>
      </trkpt>
      <trkpt lat="42.61587" lon="1.62387">
        <ele>2198.8000488281</ele>
        <time>2017-02-16T07:56:46.000Z</time>
      </trkpt>
      <trkpt lat="42.61638" lon="1.62334">
        <ele>2206.3999023438</ele>
        <time>2017-02-16T07:57:48.000Z</time>
      </trkpt>
      <trkpt lat="42.61599" lon="1.62349">
        <ele>2216.3999023438</ele>
        <time>2017-02-16T07:59:02.000Z</time>
      </trkpt>
      <trkpt lat="42.61596" lon="1.62373">
        <ele>2226.6000976562</ele>
        <time>2017-02-16T08:00:14.000Z</time>
      </trkpt>
      <trkpt lat="42.61557" lon="1.62284">
        <ele>2234.6000976562</ele>
        <time>2017-02-16T08:01:21.000Z</time>
      </trkpt>
      <trkpt lat="42.61546" lon="1.62219">
        <ele>2240.1999511719</ele>
        <time>2017-02-16T08:02:24.000Z</time>
      </trkpt>
      <trkpt lat="42.61557" lon="1.62162">
        <ele>2246.8000488281</ele>
        <time>2017-02-16T08:03:29.000Z</time>
      </trkpt>
      <trkpt lat="42.61583" lon="1.62117">
        <ele>2256.1999511719</ele>
        <time>2017-02-16T08:04:36.000Z</time>
      </trkpt>
      <trkpt lat="42.61587" lon="1.62115">
        <ele>2265</ele>
        <time>2017-02-16T08:05:41.000Z</time>
      </trkpt>
      <trkpt lat="42.61622" lon="1.6212">
        <ele>2273.6000976562</ele>
        <time>2017-02-16T08:06:42.000Z</time>
      </trkpt>
      <trkpt lat="42.61611" lon="1.62083">
        <ele>2282.1999511719</ele>
        <time>2017-02-16T08:07:44.000Z</time>
      </trkpt>
      <trkpt lat="42.61651" lon="1.62088">
        <ele>2292.1999511719</ele>
        <time>2017-02-16T08:08:48.000Z</time>
      </trkpt>
      <trkpt lat="42.61656" lon="1.62055">
        <ele>2300.8000488281</ele>
        <time>2017-02-16T08:09:52.000Z</time>
      </trkpt>
      <trkpt lat="42.61658" lon="1.62038">
        <ele>2309.3999023438</ele>
        <time>2017-02-16T08:10:55.000Z</time>
      </trkpt>
      <trkpt lat="42.61682" lon="1.62039">
        <ele>2318</ele>
        <time>2017-02-16T08:12:01.000Z</time>
      </trkpt>
      <trkpt lat="42.61685" lon="1.62034">
        <ele>2325.8000488281</ele>
        <time>2017-02-16T08:13:04.000Z</time>
      </trkpt>
      <trkpt lat="42.61673" lon="1.61987">
        <ele>2334</ele>
        <time>2017-02-16T08:14:06.000Z</time>
      </trkpt>
      <trkpt lat="42.61712" lon="1.62007">
        <ele>2341.8000488281</ele>
        <time>2017-02-16T08:15:10.000Z</time>
      </trkpt>
      <trkpt lat="42.61722" lon="1.61965">
        <ele>2349.8000488281</ele>
        <time>2017-02-16T08:16:15.000Z</time>
      </trkpt>
      <trkpt lat="42.61716" lon="1.61941">
        <ele>2358</ele>
        <time>2017-02-16T08:17:17.000Z</time>
      </trkpt>
      <trkpt lat="42.61816" lon="1.62106">
        <ele>2367.3999023438</ele>
        <time>2017-02-16T08:18:22.000Z</time>
      </trkpt>
      <trkpt lat="42.61765" lon="1.61911">
        <ele>2375.6000976562</ele>
        <time>2017-02-16T08:19:25.000Z</time>
      </trkpt>
      <trkpt lat="42.61784" lon="1.61876">
        <ele>2383.3999023438</ele>
        <time>2017-02-16T08:20:29.000Z</time>
      </trkpt>
      <trkpt lat="42.61782" lon="1.61839">
        <ele>2391.1999511719</ele>
        <time>2017-02-16T08:21:32.000Z</time>
      </trkpt>
      <trkpt lat="42.61771" lon="1.6181">
        <ele>2398.6000976562</ele>
        <time>2017-02-16T08:22:36.000Z</time>
      </trkpt>
      <trkpt lat="42.61764" lon="1.6175">
        <ele>2406</ele>
        <time>2017-02-16T08:23:39.000Z</time>
      </trkpt>
      <trkpt lat="42.61782" lon="1.61775">
        <ele>2411.8000488281</ele>
        <time>2017-02-16T08:24:44.000Z</time>
      </trkpt>
      <trkpt lat="42.61829" lon="1.61801">
        <ele>2416.1999511719</ele>
        <time>2017-02-16T08:25:45.000Z</time>
      </trkpt>
      <trkpt lat="42.61857" lon="1.6176">
        <ele>2421.8000488281</ele>
        <time>2017-02-16T08:26:46.000Z</time>
      </trkpt>
      <trkpt lat="42.61874" lon="1.61718">
        <ele>2429.1999511719</ele>
        <time>2017-02-16T08:27:46.000Z</time>
      </trkpt>
      <trkpt lat="42.61873" lon="1.61683">
        <ele>2435.8000488281</ele>
        <time>2017-02-16T08:28:48.000Z</time>
      </trkpt>
      <trkpt lat="42.61883" lon="1.61704">
        <ele>2435.8000488281</ele>
        <time>2017-02-16T08:29:51.000Z</time>
      </trkpt>
      <trkpt lat="42.61869" lon="1.61674">
        <ele>2435.8000488281</ele>
        <time>2017-02-16T08:30:51.000Z</time>
      </trkpt>
      <trkpt lat="42.61893" lon="1.61614">
        <ele>2438.3999023438</ele>
        <time>2017-02-16T08:31:51.000Z</time>
      </trkpt>
      <trkpt lat="42.61875" lon="1.61511">
        <ele>2431.6000976562</ele>
        <time>2017-02-16T08:33:04.000Z</time>
      </trkpt>
      <trkpt lat="42.61867" lon="1.61426">
        <ele>2432</ele>
        <time>2017-02-16T08:34:15.000Z</time>
      </trkpt>
      <trkpt lat="42.61864" lon="1.61377">
        <ele>2438.1999511719</ele>
        <time>2017-02-16T08:35:27.000Z</time>
      </trkpt>
      <trkpt lat="42.61843" lon="1.61373">
        <ele>2445.1999511719</ele>
        <time>2017-02-16T08:36:39.000Z</time>
      </trkpt>
      <trkpt lat="42.6185" lon="1.61325">
        <ele>2453.8000488281</ele>
        <time>2017-02-16T08:37:51.000Z</time>
      </trkpt>
      <trkpt lat="42.61838" lon="1.61269">
        <ele>2462.3999023438</ele>
        <time>2017-02-16T08:39:03.000Z</time>
      </trkpt>
      <trkpt lat="42.61823" lon="1.61232">
        <ele>2470.8000488281</ele>
        <time>2017-02-16T08:40:17.000Z</time>
      </trkpt>
      <trkpt lat="42.61871" lon="1.6123">
        <ele>2478.6000976562</ele>
        <time>2017-02-16T08:41:29.000Z</time>
      </trkpt>
      <trkpt lat="42.61845" lon="1.61166">
        <ele>2487</ele>
        <time>2017-02-16T08:42:41.000Z</time>
      </trkpt>
      <trkpt lat="42.61893" lon="1.61175">
        <ele>2496.6000976562</ele>
        <time>2017-02-16T08:43:53.000Z</time>
      </trkpt>
      <trkpt lat="42.61878" lon="1.61159">
        <ele>2504</ele>
        <time>2017-02-16T08:45:06.000Z</time>
      </trkpt>
      <trkpt lat="42.61865" lon="1.61081">
        <ele>2514</ele>
        <time>2017-02-16T08:46:18.000Z</time>
      </trkpt>
      <trkpt lat="42.61865" lon="1.61114">
        <ele>2515.8000488281</ele>
        <time>2017-02-16T08:47:31.000Z</time>
      </trkpt>
      <trkpt lat="42.6188" lon="1.61116">
        <ele>2516.1999511719</ele>
        <time>2017-02-16T08:48:43.000Z</time>
      </trkpt>
      <trkpt lat="42.6187" lon="1.61108">
        <ele>2514.6000976562</ele>
        <time>2017-02-16T08:49:55.000Z</time>
      </trkpt>
      <trkpt lat="42.61873" lon="1.61114">
        <ele>2516.1999511719</ele>
        <time>2017-02-16T08:51:07.000Z</time>
      </trkpt>
      <trkpt lat="42.61869" lon="1.61103">
        <ele>2515</ele>
        <time>2017-02-16T08:52:21.000Z</time>
      </trkpt>
      <trkpt lat="42.6187" lon="1.61108">
        <ele>2514.3999023438</ele>
        <time>2017-02-16T08:53:33.000Z</time>
      </trkpt>
      <trkpt lat="42.61878" lon="1.61101">
        <ele>2514.1999511719</ele>
        <time>2017-02-16T08:54:47.000Z</time>
      </trkpt>
      <trkpt lat="42.61869" lon="1.61099">
        <ele>2515.3999023438</ele>
        <time>2017-02-16T08:56:01.000Z</time>
      </trkpt>
      <trkpt lat="42.61883" lon="1.61108">
        <ele>2515.8000488281</ele>
        <time>2017-02-16T08:57:13.000Z</time>
      </trkpt>
      <trkpt lat="42.61897" lon="1.61052">
        <ele>2523</ele>
        <time>2017-02-16T08:58:27.000Z</time>
      </trkpt>
      <trkpt lat="42.61912" lon="1.60997">
        <ele>2529.8000488281</ele>
        <time>2017-02-16T08:59:39.000Z</time>
      </trkpt>
      <trkpt lat="42.61917" lon="1.60955">
        <ele>2537</ele>
        <time>2017-02-16T09:00:51.000Z</time>
      </trkpt>
      <trkpt lat="42.61929" lon="1.60909">
        <ele>2545</ele>
        <time>2017-02-16T09:02:03.000Z</time>
      </trkpt>
      <trkpt lat="42.6194" lon="1.60855">
        <ele>2553.8000488281</ele>
        <time>2017-02-16T09:03:15.000Z</time>
      </trkpt>
      <trkpt lat="42.61947" lon="1.60863">
        <ele>2562</ele>
        <time>2017-02-16T09:04:27.000Z</time>
      </trkpt>
      <trkpt lat="42.61961" lon="1.60815">
        <ele>2570.3999023438</ele>
        <time>2017-02-16T09:05:40.000Z</time>
      </trkpt>
      <trkpt lat="42.61963" lon="1.60806">
        <ele>2579.3999023438</ele>
        <time>2017-02-16T09:06:52.000Z</time>
      </trkpt>
      <trkpt lat="42.61966" lon="1.60763">
        <ele>2589</ele>
        <time>2017-02-16T09:08:04.000Z</time>
      </trkpt>
      <trkpt lat="42.61991" lon="1.60771">
        <ele>2598.3999023438</ele>
        <time>2017-02-16T09:09:17.000Z</time>
      </trkpt>
      <trkpt lat="42.62009" lon="1.60781">
        <ele>2607.8000488281</ele>
        <time>2017-02-16T09:10:29.000Z</time>
      </trkpt>
      <trkpt lat="42.62031" lon="1.60819">
        <ele>2616.1999511719</ele>
        <time>2017-02-16T09:11:43.000Z</time>
      </trkpt>
      <trkpt lat="42.62064" lon="1.60835">
        <ele>2624.1999511719</ele>
        <time>2017-02-16T09:12:55.000Z</time>
      </trkpt>
      <trkpt lat="42.62115" lon="1.60861">
        <ele>2633.1999511719</ele>
        <time>2017-02-16T09:14:09.000Z</time>
      </trkpt>
      <trkpt lat="42.62135" lon="1.60837">
        <ele>2642.1999511719</ele>
        <time>2017-02-16T09:15:21.000Z</time>
      </trkpt>
      <trkpt lat="42.62164" lon="1.60832">
        <ele>2645.6000976562</ele>
        <time>2017-02-16T09:16:34.000Z</time>
      </trkpt>
      <trkpt lat="42.62173" lon="1.60785">
        <ele>2652.3999023438</ele>
        <time>2017-02-16T09:17:46.000Z</time>
      </trkpt>
      <trkpt lat="42.62167" lon="1.60734">
        <ele>2660.3999023438</ele>
        <time>2017-02-16T09:18:58.000Z</time>
      </trkpt>
      <trkpt lat="42.62165" lon="1.60723">
        <ele>2667.6000976562</ele>
        <time>2017-02-16T09:20:11.000Z</time>
      </trkpt>
      <trkpt lat="42.62146" lon="1.60717">
        <ele>2674.6000976562</ele>
        <time>2017-02-16T09:21:23.000Z</time>
      </trkpt>
      <trkpt lat="42.62148" lon="1.60669">
        <ele>2683.3999023438</ele>
        <time>2017-02-16T09:22:36.000Z</time>
      </trkpt>
      <trkpt lat="42.62137" lon="1.6066">
        <ele>2688</ele>
        <time>2017-02-16T09:23:48.000Z</time>
      </trkpt>
      <trkpt lat="42.62123" lon="1.60672">
        <ele>2691.6000976562</ele>
        <time>2017-02-16T09:25:00.000Z</time>
      </trkpt>
      <trkpt lat="42.62139" lon="1.60642">
        <ele>2698.1999511719</ele>
        <time>2017-02-16T09:26:12.000Z</time>
      </trkpt>
      <trkpt lat="42.62122" lon="1.60616">
        <ele>2705.1999511719</ele>
        <time>2017-02-16T09:27:24.000Z</time>
      </trkpt>
      <trkpt lat="42.62129" lon="1.60629">
        <ele>2712.3999023438</ele>
        <time>2017-02-16T09:28:37.000Z</time>
      </trkpt>
      <trkpt lat="42.62135" lon="1.60606">
        <ele>2717.8000488281</ele>
        <time>2017-02-16T09:29:51.000Z</time>
      </trkpt>
      <trkpt lat="42.62143" lon="1.60601">
        <ele>2721.3999023438</ele>
        <time>2017-02-16T09:31:04.000Z</time>
      </trkpt>
      <trkpt lat="42.62157" lon="1.60575">
        <ele>2725</ele>
        <time>2017-02-16T09:32:16.000Z</time>
      </trkpt>
      <trkpt lat="42.62173" lon="1.60568">
        <ele>2724.1999511719</ele>
        <time>2017-02-16T09:33:30.000Z</time>
      </trkpt>
      <trkpt lat="42.62198" lon="1.6055">
        <ele>2723.8000488281</ele>
        <time>2017-02-16T09:34:42.000Z</time>
      </trkpt>
      <trkpt lat="42.62219" lon="1.60511">
        <ele>2732.3999023438</ele>
        <time>2017-02-16T09:35:55.000Z</time>
      </trkpt>
      <trkpt lat="42.62253" lon="1.60503">
        <ele>2736.6000976562</ele>
        <time>2017-02-16T09:37:08.000Z</time>
      </trkpt>
      <trkpt lat="42.62247" lon="1.60485">
        <ele>2739.1999511719</ele>
        <time>2017-02-16T09:38:20.000Z</time>
      </trkpt>
      <trkpt lat="42.62265" lon="1.60479">
        <ele>2741.1999511719</ele>
        <time>2017-02-16T09:39:29.000Z</time>
      </trkpt>
      <trkpt lat="42.62258" lon="1.60484">
        <ele>2740.8000488281</ele>
        <time>2017-02-16T09:40:29.000Z</time>
      </trkpt>
      <trkpt lat="42.62258" lon="1.60483">
        <ele>2742</ele>
        <time>2017-02-16T09:41:29.000Z</time>
      </trkpt>
      <trkpt lat="42.6226" lon="1.60479">
        <ele>2742.1999511719</ele>
        <time>2017-02-16T09:42:29.000Z</time>
      </trkpt>
      <trkpt lat="42.62261" lon="1.60482">
        <ele>2741.6000976562</ele>
        <time>2017-02-16T09:43:44.000Z</time>
      </trkpt>
      <trkpt lat="42.62264" lon="1.60482">
        <ele>2741.8000488281</ele>
        <time>2017-02-16T09:44:58.000Z</time>
      </trkpt>
      <trkpt lat="42.62274" lon="1.6049">
        <ele>2741.1999511719</ele>
        <time>2017-02-16T09:46:13.000Z</time>
      </trkpt>
      <trkpt lat="42.62263" lon="1.60471">
        <ele>2741.3999023438</ele>
        <time>2017-02-16T09:47:26.000Z</time>
      </trkpt>
      <trkpt lat="42.62264" lon="1.60469">
        <ele>2743.1999511719</ele>
        <time>2017-02-16T09:48:39.000Z</time>
      </trkpt>
      <trkpt lat="42.62287" lon="1.60438">
        <ele>2752.6000976562</ele>
        <time>2017-02-16T09:49:51.000Z</time>
      </trkpt>
      <trkpt lat="42.62307" lon="1.60439">
        <ele>2761.3999023438</ele>
        <time>2017-02-16T09:51:04.000Z</time>
      </trkpt>
      <trkpt lat="42.6233" lon="1.60421">
        <ele>2771.1999511719</ele>
        <time>2017-02-16T09:52:16.000Z</time>
      </trkpt>
      <trkpt lat="42.62356" lon="1.60411">
        <ele>2777.8000488281</ele>
        <time>2017-02-16T09:53:29.000Z</time>
      </trkpt>
      <trkpt lat="42.62372" lon="1.60381">
        <ele>2784.3999023438</ele>
        <time>2017-02-16T09:54:41.000Z</time>
      </trkpt>
      <trkpt lat="42.62406" lon="1.60378">
        <ele>2794</ele>
        <time>2017-02-16T09:55:54.000Z</time>
      </trkpt>
      <trkpt lat="42.62402" lon="1.60382">
        <ele>2803</ele>
        <time>2017-02-16T09:57:07.000Z</time>
      </trkpt>
      <trkpt lat="42.62412" lon="1.60387">
        <ele>2809</ele>
        <time>2017-02-16T09:58:20.000Z</time>
      </trkpt>
      <trkpt lat="42.62441" lon="1.60384">
        <ele>2816.8000488281</ele>
        <time>2017-02-16T09:59:33.000Z</time>
      </trkpt>
      <trkpt lat="42.62434" lon="1.60369">
        <ele>2821.3999023438</ele>
        <time>2017-02-16T10:00:48.000Z</time>
      </trkpt>
      <trkpt lat="42.62445" lon="1.60369">
        <ele>2827.3999023438</ele>
        <time>2017-02-16T10:02:00.000Z</time>
      </trkpt>
      <trkpt lat="42.62447" lon="1.60362">
        <ele>2830.8000488281</ele>
        <time>2017-02-16T10:03:14.000Z</time>
      </trkpt>
      <trkpt lat="42.62449" lon="1.60354">
        <ele>2832.6000976562</ele>
        <time>2017-02-16T10:04:27.000Z</time>
      </trkpt>
      <trkpt lat="42.62456" lon="1.60355">
        <ele>2837.1999511719</ele>
        <time>2017-02-16T10:05:39.000Z</time>
      </trkpt>
      <trkpt lat="42.62465" lon="1.60329">
        <ele>2842</ele>
        <time>2017-02-16T10:06:53.000Z</time>
      </trkpt>
      <trkpt lat="42.62468" lon="1.60347">
        <ele>2848.3999023438</ele>
        <time>2017-02-16T10:08:07.000Z</time>
      </trkpt>
      <trkpt lat="42.62484" lon="1.60349">
        <ele>2854.6000976562</ele>
        <time>2017-02-16T10:09:20.000Z</time>
      </trkpt>
      <trkpt lat="42.62494" lon="1.6034">
        <ele>2860.1999511719</ele>
        <time>2017-02-16T10:10:33.000Z</time>
      </trkpt>
      <trkpt lat="42.62495" lon="1.60315">
        <ele>2866.8000488281</ele>
        <time>2017-02-16T10:11:46.000Z</time>
      </trkpt>
      <trkpt lat="42.62508" lon="1.60291">
        <ele>2871.6000976562</ele>
        <time>2017-02-16T10:13:00.000Z</time>
      </trkpt>
      <trkpt lat="42.6251" lon="1.60308">
        <ele>2875.8000488281</ele>
        <time>2017-02-16T10:14:12.000Z</time>
      </trkpt>
      <trkpt lat="42.62518" lon="1.6033">
        <ele>2878.6000976562</ele>
        <time>2017-02-16T10:15:25.000Z</time>
      </trkpt>
      <trkpt lat="42.62525" lon="1.6032">
        <ele>2885.1999511719</ele>
        <time>2017-02-16T10:16:39.000Z</time>
      </trkpt>
      <trkpt lat="42.62537" lon="1.60306">
        <ele>2890.6000976562</ele>
        <time>2017-02-16T10:17:52.000Z</time>
      </trkpt>
      <trkpt lat="42.6254" lon="1.60272">
        <ele>2893</ele>
        <time>2017-02-16T10:19:04.000Z</time>
      </trkpt>
      <trkpt lat="42.62554" lon="1.60287">
        <ele>2898.8000488281</ele>
        <time>2017-02-16T10:20:16.000Z</time>
      </trkpt>
      <trkpt lat="42.62548" lon="1.60284">
        <ele>2899.6000976562</ele>
        <time>2017-02-16T10:21:16.000Z</time>
      </trkpt>
      <trkpt lat="42.62553" lon="1.60288">
        <ele>2899.8000488281</ele>
        <time>2017-02-16T10:22:16.000Z</time>
      </trkpt>
      <trkpt lat="42.62544" lon="1.60296">
        <ele>2899.1999511719</ele>
        <time>2017-02-16T10:23:29.000Z</time>
      </trkpt>
      <trkpt lat="42.62543" lon="1.60279">
        <ele>2898.8000488281</ele>
        <time>2017-02-16T10:24:42.000Z</time>
      </trkpt>
      <trkpt lat="42.6256" lon="1.6029">
        <ele>2899</ele>
        <time>2017-02-16T10:25:58.000Z</time>
      </trkpt>
      <trkpt lat="42.62548" lon="1.6028">
        <ele>2899</ele>
        <time>2017-02-16T10:27:12.000Z</time>
      </trkpt>
      <trkpt lat="42.62555" lon="1.60294">
        <ele>2898.3999023438</ele>
        <time>2017-02-16T10:28:26.000Z</time>
      </trkpt>
      <trkpt lat="42.62556" lon="1.60274">
        <ele>2898.8000488281</ele>
        <time>2017-02-16T10:29:39.000Z</time>
      </trkpt>
      <trkpt lat="42.62548" lon="1.60304">
        <ele>2899.6000976562</ele>
        <time>2017-02-16T10:30:52.000Z</time>
      </trkpt>
      <trkpt lat="42.62543" lon="1.60289">
        <ele>2898.8000488281</ele>
        <time>2017-02-16T10:32:05.000Z</time>
      </trkpt>
      <trkpt lat="42.62555" lon="1.60282">
        <ele>2898.6000976562</ele>
        <time>2017-02-16T10:33:18.000Z</time>
      </trkpt>
      <trkpt lat="42.62562" lon="1.60304">
        <ele>2898.8000488281</ele>
        <time>2017-02-16T10:34:31.000Z</time>
      </trkpt>
      <trkpt lat="42.62555" lon="1.60296">
        <ele>2898.8000488281</ele>
        <time>2017-02-16T10:35:43.000Z</time>
      </trkpt>
      <trkpt lat="42.62544" lon="1.60299">
        <ele>2898.8000488281</ele>
        <time>2017-02-16T10:36:55.000Z</time>
      </trkpt>
      <trkpt lat="42.62551" lon="1.60287">
        <ele>2898.3999023438</ele>
        <time>2017-02-16T10:38:07.000Z</time>
      </trkpt>
      <trkpt lat="42.62554" lon="1.60286">
        <ele>2898.6000976562</ele>
        <time>2017-02-16T10:39:25.000Z</time>
      </trkpt>
      <trkpt lat="42.62552" lon="1.60285">
        <ele>2898.8000488281</ele>
        <time>2017-02-16T10:40:38.000Z</time>
      </trkpt>
      <trkpt lat="42.62554" lon="1.60287">
        <ele>2898.8000488281</ele>
        <time>2017-02-16T10:41:51.000Z</time>
      </trkpt>
      <trkpt lat="42.62558" lon="1.60255">
        <ele>2900.3999023438</ele>
        <time>2017-02-16T10:43:03.000Z</time>
      </trkpt>
      <trkpt lat="42.62548" lon="1.60281">
        <ele>2899.3999023438</ele>
        <time>2017-02-16T10:44:17.000Z</time>
      </trkpt>
      <trkpt lat="42.62551" lon="1.60291">
        <ele>2899</ele>
        <time>2017-02-16T10:45:29.000Z</time>
      </trkpt>
      <trkpt lat="42.62554" lon="1.60294">
        <ele>2899</ele>
        <time>2017-02-16T10:46:44.000Z</time>
      </trkpt>
      <trkpt lat="42.62546" lon="1.60287">
        <ele>2899.3999023438</ele>
        <time>2017-02-16T10:47:56.000Z</time>
      </trkpt>
      <trkpt lat="42.62556" lon="1.60291">
        <ele>2899</ele>
        <time>2017-02-16T10:49:08.000Z</time>
      </trkpt>
      <trkpt lat="42.62551" lon="1.60283">
        <ele>2899.3999023438</ele>
        <time>2017-02-16T10:50:21.000Z</time>
      </trkpt>
      <trkpt lat="42.62555" lon="1.60268">
        <ele>2900</ele>
        <time>2017-02-16T10:51:34.000Z</time>
      </trkpt>
      <trkpt lat="42.62554" lon="1.60244">
        <ele>2899.3999023438</ele>
        <time>2017-02-16T10:52:47.000Z</time>
      </trkpt>
      <trkpt lat="42.62552" lon="1.60237">
        <ele>2897</ele>
        <time>2017-02-16T10:54:01.000Z</time>
      </trkpt>
      <trkpt lat="42.62548" lon="1.60238">
        <ele>2897.1999511719</ele>
        <time>2017-02-16T10:55:14.000Z</time>
      </trkpt>
      <trkpt lat="42.6256" lon="1.60229">
        <ele>2897.8000488281</ele>
        <time>2017-02-16T10:56:28.000Z</time>
      </trkpt>
      <trkpt lat="42.62566" lon="1.60247">
        <ele>2898.1999511719</ele>
        <time>2017-02-16T10:57:43.000Z</time>
      </trkpt>
      <trkpt lat="42.62563" lon="1.60233">
        <ele>2898.1999511719</ele>
        <time>2017-02-16T10:58:56.000Z</time>
      </trkpt>
      <trkpt lat="42.62557" lon="1.60234">
        <ele>2898</ele>
        <time>2017-02-16T11:00:10.000Z</time>
      </trkpt>
      <trkpt lat="42.62538" lon="1.60221">
        <ele>2882.1999511719</ele>
        <time>2017-02-16T11:01:23.000Z</time>
      </trkpt>
      <trkpt lat="42.62441" lon="1.60046">
        <ele>2842</ele>
        <time>2017-02-16T11:02:36.000Z</time>
      </trkpt>
      <trkpt lat="42.62394" lon="1.59962">
        <ele>2793</ele>
        <time>2017-02-16T11:03:49.000Z</time>
      </trkpt>
      <trkpt lat="42.62308" lon="1.59926">
        <ele>2732</ele>
        <time>2017-02-16T11:05:02.000Z</time>
      </trkpt>
      <trkpt lat="42.62244" lon="1.59955">
        <ele>2690.3999023438</ele>
        <time>2017-02-16T11:06:16.000Z</time>
      </trkpt>
      <trkpt lat="42.62254" lon="1.59946">
        <ele>2689.6000976562</ele>
        <time>2017-02-16T11:07:28.000Z</time>
      </trkpt>
      <trkpt lat="42.62246" lon="1.59946">
        <ele>2690</ele>
        <time>2017-02-16T11:08:41.000Z</time>
      </trkpt>
      <trkpt lat="42.62254" lon="1.59977">
        <ele>2689.3999023438</ele>
        <time>2017-02-16T11:09:55.000Z</time>
      </trkpt>
      <trkpt lat="42.62259" lon="1.60195">
        <ele>2632.8000488281</ele>
        <time>2017-02-16T11:11:08.000Z</time>
      </trkpt>
      <trkpt lat="42.62005" lon="1.60139">
        <ele>2557.8000488281</ele>
        <time>2017-02-16T11:12:22.000Z</time>
      </trkpt>
      <trkpt lat="42.62024" lon="1.60174">
        <ele>2557.8000488281</ele>
        <time>2017-02-16T11:13:37.000Z</time>
      </trkpt>
      <trkpt lat="42.61994" lon="1.60138">
        <ele>2558</ele>
        <time>2017-02-16T11:14:50.000Z</time>
      </trkpt>
      <trkpt lat="42.61927" lon="1.60016">
        <ele>2530.3999023438</ele>
        <time>2017-02-16T11:16:06.000Z</time>
      </trkpt>
      <trkpt lat="42.61856" lon="1.598">
        <ele>2503</ele>
        <time>2017-02-16T11:17:21.000Z</time>
      </trkpt>
      <trkpt lat="42.61829" lon="1.59822">
        <ele>2500.3999023438</ele>
        <time>2017-02-16T11:18:35.000Z</time>
      </trkpt>
      <trkpt lat="42.61847" lon="1.59732">
        <ele>2493.3999023438</ele>
        <time>2017-02-16T11:19:47.000Z</time>
      </trkpt>
      <trkpt lat="42.61845" lon="1.59744">
        <ele>2493.6000976562</ele>
        <time>2017-02-16T11:21:00.000Z</time>
      </trkpt>
      <trkpt lat="42.6185" lon="1.59572">
        <ele>2460.6000976562</ele>
        <time>2017-02-16T11:22:13.000Z</time>
      </trkpt>
      <trkpt lat="42.61924" lon="1.5897">
        <ele>2377.6000976562</ele>
        <time>2017-02-16T11:23:27.000Z</time>
      </trkpt>
      <trkpt lat="42.61959" lon="1.58721">
        <ele>2314.6000976562</ele>
        <time>2017-02-16T11:24:41.000Z</time>
      </trkpt>
      <trkpt lat="42.61917" lon="1.58688">
        <ele>2299</ele>
        <time>2017-02-16T11:25:53.000Z</time>
      </trkpt>
      <trkpt lat="42.6187" lon="1.5845">
        <ele>2249.1999511719</ele>
        <time>2017-02-16T11:27:07.000Z</time>
      </trkpt>
      <trkpt lat="42.62087" lon="1.5805">
        <ele>2204.8000488281</ele>
        <time>2017-02-16T11:28:21.000Z</time>
      </trkpt>
      <trkpt lat="42.62113" lon="1.58009">
        <ele>2201.6000976562</ele>
        <time>2017-02-16T11:29:35.000Z</time>
      </trkpt>
      <trkpt lat="42.62118" lon="1.58011">
        <ele>2201.6000976562</ele>
        <time>2017-02-16T11:30:53.000Z</time>
      </trkpt>
      <trkpt lat="42.62117" lon="1.58011">
        <ele>2202.3999023438</ele>
        <time>2017-02-16T11:32:06.000Z</time>
      </trkpt>
      <trkpt lat="42.62172" lon="1.5786">
        <ele>2193.1999511719</ele>
        <time>2017-02-16T11:33:21.000Z</time>
      </trkpt>
      <trkpt lat="42.62165" lon="1.5782">
        <ele>2166.6000976562</ele>
        <time>2017-02-16T11:34:36.000Z</time>
      </trkpt>
      <trkpt lat="42.62135" lon="1.57803">
        <ele>2157.1999511719</ele>
        <time>2017-02-16T11:35:49.000Z</time>
      </trkpt>
      <trkpt lat="42.62178" lon="1.57739">
        <ele>2147</ele>
        <time>2017-02-16T11:37:02.000Z</time>
      </trkpt>
      <trkpt lat="42.62173" lon="1.57722">
        <ele>2143.1999511719</ele>
        <time>2017-02-16T11:38:15.000Z</time>
      </trkpt>
      <trkpt lat="42.62198" lon="1.57637">
        <ele>2123.6000976562</ele>
        <time>2017-02-16T11:39:27.000Z</time>
      </trkpt>
      <trkpt lat="42.62251" lon="1.577">
        <ele>2110</ele>
        <time>2017-02-16T11:40:45.000Z</time>
      </trkpt>
      <trkpt lat="42.62287" lon="1.5771">
        <ele>2093.1999511719</ele>
        <time>2017-02-16T11:41:57.000Z</time>
      </trkpt>
      <trkpt lat="42.62382" lon="1.57631">
        <ele>2068.3999023438</ele>
        <time>2017-02-16T11:43:09.000Z</time>
      </trkpt>
      <trkpt lat="42.6235" lon="1.57667">
        <ele>2062.8000488281</ele>
        <time>2017-02-16T11:44:24.000Z</time>
      </trkpt>
      <trkpt lat="42.62363" lon="1.57641">
        <ele>2062.8000488281</ele>
        <time>2017-02-16T11:44:26.000Z</time>
      </trkpt>
      <trkpt lat="42.62376" lon="1.57488">
        <ele>2047</ele>
        <time>2017-02-16T11:45:40.000Z</time>
      </trkpt>
      <trkpt lat="42.62377" lon="1.57214">
        <ele>2015.4000244141</ele>
        <time>2017-02-16T11:46:55.000Z</time>
      </trkpt>
      <trkpt lat="42.6235" lon="1.57031">
        <ele>2005.5999755859</ele>
        <time>2017-02-16T11:48:09.000Z</time>
      </trkpt>
      <trkpt lat="42.62258" lon="1.56685">
        <ele>1977.1999511719</ele>
        <time>2017-02-16T11:49:23.000Z</time>
      </trkpt>
      <trkpt lat="42.62243" lon="1.56649">
        <ele>1967</ele>
        <time>2017-02-16T11:50:36.000Z</time>
      </trkpt>
      <trkpt lat="42.6225" lon="1.56397">
        <ele>1957.8000488281</ele>
        <time>2017-02-16T11:51:49.000Z</time>
      </trkpt>
      <trkpt lat="42.62243" lon="1.56407">
        <ele>1992.4000244141</ele>
        <time>2017-02-16T13:03:16.000Z</time>
      </trkpt>
      <trkpt lat="42.62237" lon="1.56251">
        <ele>1979.5999755859</ele>
        <time>2017-02-16T13:04:16.000Z</time>
      </trkpt>
      <trkpt lat="42.62181" lon="1.55956">
        <ele>1936.8000488281</ele>
        <time>2017-02-16T13:05:16.000Z</time>
      </trkpt>
      <trkpt lat="42.6217" lon="1.5596">
        <ele>1937.4000244141</ele>
        <time>2017-02-16T13:06:30.000Z</time>
      </trkpt>
      <trkpt lat="42.62204" lon="1.55517">
        <ele>1908.8000488281</ele>
        <time>2017-02-16T13:07:45.000Z</time>
      </trkpt>
      <trkpt lat="42.62287" lon="1.55314">
        <ele>1892.5999755859</ele>
        <time>2017-02-16T13:08:56.000Z</time>
      </trkpt>
      <trkpt lat="42.62267" lon="1.55298">
        <ele>1869.4000244141</ele>
        <time>2017-02-16T13:10:09.000Z</time>
      </trkpt>
      <trkpt lat="42.62222" lon="1.55298">
        <ele>1856.1999511719</ele>
        <time>2017-02-16T13:11:22.000Z</time>
      </trkpt>
      <trkpt lat="42.62235" lon="1.55227">
        <ele>1839</ele>
        <time>2017-02-16T13:12:36.000Z</time>
      </trkpt>
      <trkpt lat="42.62406" lon="1.5517">
        <ele>1826.4000244141</ele>
        <time>2017-02-16T13:13:50.000Z</time>
      </trkpt>
      <trkpt lat="42.62646" lon="1.5522">
        <ele>1811.1999511719</ele>
        <time>2017-02-16T13:15:03.000Z</time>
      </trkpt>
      <trkpt lat="42.6263" lon="1.55194">
        <ele>1811.4000244141</ele>
        <time>2017-02-16T13:16:17.000Z</time>
      </trkpt>
      <trkpt lat="42.62615" lon="1.55194">
        <ele>1811.4000244141</ele>
        <time>2017-02-16T13:17:30.000Z</time>
      </trkpt>
      <trkpt lat="42.6262" lon="1.55189">
        <ele>1812.4000244141</ele>
        <time>2017-02-16T13:18:45.000Z</time>
      </trkpt>
      <trkpt lat="42.62599" lon="1.55191">
        <ele>1811.8000488281</ele>
        <time>2017-02-16T13:19:58.000Z</time>
      </trkpt>
      <trkpt lat="42.62611" lon="1.55203">
        <ele>1811.5999755859</ele>
        <time>2017-02-16T13:21:12.000Z</time>
      </trkpt>
      <trkpt lat="42.62632" lon="1.55205">
        <ele>1811.8000488281</ele>
        <time>2017-02-16T13:22:26.000Z</time>
      </trkpt>
      <trkpt lat="42.62626" lon="1.55211">
        <ele>1811.5999755859</ele>
        <time>2017-02-16T13:23:39.000Z</time>
      </trkpt>
      <trkpt lat="42.6262" lon="1.55198">
        <ele>1812.1999511719</ele>
        <time>2017-02-16T13:24:53.000Z</time>
      </trkpt>
      <trkpt lat="42.6263" lon="1.55197">
        <ele>1812.4000244141</ele>
        <time>2017-02-16T13:26:06.000Z</time>
      </trkpt>
      <trkpt lat="42.62624" lon="1.55192">
        <ele>1812.4000244141</ele>
        <time>2017-02-16T13:27:19.000Z</time>
      </trkpt>
      <trkpt lat="42.62636" lon="1.55203">
        <ele>1785.1999511719</ele>
        <time>2017-02-16T14:56:15.000Z</time>
      </trkpt>
      <trkpt lat="42.62657" lon="1.55245">
        <ele>1789.5999755859</ele>
        <time>2017-02-16T14:57:15.000Z</time>
      </trkpt>
      <trkpt lat="42.62675" lon="1.55295">
        <ele>1794.5999755859</ele>
        <time>2017-02-16T14:58:15.000Z</time>
      </trkpt>
      <trkpt lat="42.62693" lon="1.55339">
        <ele>1801.4000244141</ele>
        <time>2017-02-16T14:59:30.000Z</time>
      </trkpt>
      <trkpt lat="42.62718" lon="1.55394">
        <ele>1809.1999511719</ele>
        <time>2017-02-16T15:00:43.000Z</time>
      </trkpt>
      <trkpt lat="42.62706" lon="1.55456">
        <ele>1814.8000488281</ele>
        <time>2017-02-16T15:01:57.000Z</time>
      </trkpt>
      <trkpt lat="42.62737" lon="1.55524">
        <ele>1820.4000244141</ele>
        <time>2017-02-16T15:03:12.000Z</time>
      </trkpt>
      <trkpt lat="42.62775" lon="1.5559">
        <ele>1824.4000244141</ele>
        <time>2017-02-16T15:04:27.000Z</time>
      </trkpt>
      <trkpt lat="42.62791" lon="1.55643">
        <ele>1833</ele>
        <time>2017-02-16T15:05:44.000Z</time>
      </trkpt>
      <trkpt lat="42.62815" lon="1.55691">
        <ele>1839.5999755859</ele>
        <time>2017-02-16T15:06:59.000Z</time>
      </trkpt>
      <trkpt lat="42.6284" lon="1.55732">
        <ele>1846.5999755859</ele>
        <time>2017-02-16T15:08:12.000Z</time>
      </trkpt>
      <trkpt lat="42.62888" lon="1.55737">
        <ele>1852.5999755859</ele>
        <time>2017-02-16T15:09:25.000Z</time>
      </trkpt>
      <trkpt lat="42.62937" lon="1.55766">
        <ele>1855.4000244141</ele>
        <time>2017-02-16T15:10:40.000Z</time>
      </trkpt>
      <trkpt lat="42.62978" lon="1.55819">
        <ele>1858.5999755859</ele>
        <time>2017-02-16T15:11:55.000Z</time>
      </trkpt>
      <trkpt lat="42.63022" lon="1.55897">
        <ele>1865.4000244141</ele>
        <time>2017-02-16T15:13:09.000Z</time>
      </trkpt>
      <trkpt lat="42.63059" lon="1.55924">
        <ele>1870.8000488281</ele>
        <time>2017-02-16T15:14:22.000Z</time>
      </trkpt>
      <trkpt lat="42.63119" lon="1.55932">
        <ele>1873</ele>
        <time>2017-02-16T15:15:34.000Z</time>
      </trkpt>
      <trkpt lat="42.63182" lon="1.55909">
        <ele>1875</ele>
        <time>2017-02-16T15:16:48.000Z</time>
      </trkpt>
      <trkpt lat="42.63233" lon="1.55963">
        <ele>1880.1999511719</ele>
        <time>2017-02-16T15:18:01.000Z</time>
      </trkpt>
      <trkpt lat="42.63302" lon="1.55959">
        <ele>1884</ele>
        <time>2017-02-16T15:19:16.000Z</time>
      </trkpt>
      <trkpt lat="42.63339" lon="1.55957">
        <ele>1889.8000488281</ele>
        <time>2017-02-16T15:20:29.000Z</time>
      </trkpt>
      <trkpt lat="42.63385" lon="1.55966">
        <ele>1894.5999755859</ele>
        <time>2017-02-16T15:21:43.000Z</time>
      </trkpt>
      <trkpt lat="42.63443" lon="1.5602">
        <ele>1896.8000488281</ele>
        <time>2017-02-16T15:22:58.000Z</time>
      </trkpt>
      <trkpt lat="42.63485" lon="1.56011">
        <ele>1901.5999755859</ele>
        <time>2017-02-16T15:24:11.000Z</time>
      </trkpt>
      <trkpt lat="42.6353" lon="1.56024">
        <ele>1907</ele>
        <time>2017-02-16T15:25:25.000Z</time>
      </trkpt>
      <trkpt lat="42.6357" lon="1.56015">
        <ele>1915.4000244141</ele>
        <time>2017-02-16T15:26:38.000Z</time>
      </trkpt>
      <trkpt lat="42.63604" lon="1.56025">
        <ele>1923</ele>
        <time>2017-02-16T15:27:51.000Z</time>
      </trkpt>
      <trkpt lat="42.6365" lon="1.56004">
        <ele>1930.1999511719</ele>
        <time>2017-02-16T15:29:06.000Z</time>
      </trkpt>
      <trkpt lat="42.63663" lon="1.55989">
        <ele>1936.1999511719</ele>
        <time>2017-02-16T15:30:15.000Z</time>
      </trkpt>
      <trkpt lat="42.63685" lon="1.56003">
        <ele>1936</ele>
        <time>2017-02-16T15:31:15.000Z</time>
      </trkpt>
      <trkpt lat="42.63717" lon="1.55997">
        <ele>1940.5999755859</ele>
        <time>2017-02-16T15:32:15.000Z</time>
      </trkpt>
      <trkpt lat="42.63765" lon="1.55973">
        <ele>1949.1999511719</ele>
        <time>2017-02-16T15:33:28.000Z</time>
      </trkpt>
      <trkpt lat="42.63796" lon="1.56001">
        <ele>1953.8000488281</ele>
        <time>2017-02-16T15:34:40.000Z</time>
      </trkpt>
      <trkpt lat="42.63855" lon="1.5603">
        <ele>1958.8000488281</ele>
        <time>2017-02-16T15:35:54.000Z</time>
      </trkpt>
      <trkpt lat="42.63909" lon="1.56027">
        <ele>1962.4000244141</ele>
        <time>2017-02-16T15:37:08.000Z</time>
      </trkpt>
      <trkpt lat="42.6395" lon="1.56071">
        <ele>1965.1999511719</ele>
        <time>2017-02-16T15:38:22.000Z</time>
      </trkpt>
      <trkpt lat="42.63991" lon="1.56103">
        <ele>1974.8000488281</ele>
        <time>2017-02-16T15:39:36.000Z</time>
      </trkpt>
      <trkpt lat="42.64043" lon="1.56117">
        <ele>1984.4000244141</ele>
        <time>2017-02-16T15:40:50.000Z</time>
      </trkpt>
    </trkseg>
  </trk>
  <trk>
    <name><![CDATA[Ordino Course à pied]]></name>
    <trkseg>
      <trkpt lat="42.64112" lon="1.56093">
        <ele>2020</ele>
        <time>2017-02-18T06:48:53.000Z</time>
      </trkpt>
      <trkpt lat="42.64156" lon="1.56058">
        <ele>2019.4000244141</ele>
        <time>2017-02-18T06:49:53.000Z</time>
      </trkpt>
      <trkpt lat="42.64204" lon="1.5605">
        <ele>2022.5999755859</ele>
        <time>2017-02-18T06:50:53.000Z</time>
      </trkpt>
      <trkpt lat="42.64259" lon="1.56062">
        <ele>2031.4000244141</ele>
        <time>2017-02-18T06:52:07.000Z</time>
      </trkpt>
      <trkpt lat="42.6432" lon="1.55997">
        <ele>2040.1999511719</ele>
        <time>2017-02-18T06:53:19.000Z</time>
      </trkpt>
      <trkpt lat="42.64369" lon="1.55965">
        <ele>2046.4000244141</ele>
        <time>2017-02-18T06:54:32.000Z</time>
      </trkpt>
      <trkpt lat="42.64386" lon="1.5592">
        <ele>2053.3999023438</ele>
        <time>2017-02-18T06:55:44.000Z</time>
      </trkpt>
      <trkpt lat="42.64436" lon="1.55869">
        <ele>2060</ele>
        <time>2017-02-18T06:56:56.000Z</time>
      </trkpt>
      <trkpt lat="42.64462" lon="1.55789">
        <ele>2068.8000488281</ele>
        <time>2017-02-18T06:58:09.000Z</time>
      </trkpt>
      <trkpt lat="42.64488" lon="1.55695">
        <ele>2078.3999023438</ele>
        <time>2017-02-18T06:59:22.000Z</time>
      </trkpt>
      <trkpt lat="42.64511" lon="1.55616">
        <ele>2086</ele>
        <time>2017-02-18T07:00:34.000Z</time>
      </trkpt>
      <trkpt lat="42.64559" lon="1.55551">
        <ele>2093.1999511719</ele>
        <time>2017-02-18T07:01:46.000Z</time>
      </trkpt>
      <trkpt lat="42.64569" lon="1.55495">
        <ele>2096.1999511719</ele>
        <time>2017-02-18T07:02:59.000Z</time>
      </trkpt>
      <trkpt lat="42.64616" lon="1.55403">
        <ele>2101</ele>
        <time>2017-02-18T07:04:12.000Z</time>
      </trkpt>
      <trkpt lat="42.64606" lon="1.5534">
        <ele>2107.3999023438</ele>
        <time>2017-02-18T07:05:26.000Z</time>
      </trkpt>
      <trkpt lat="42.64616" lon="1.55283">
        <ele>2115.6000976562</ele>
        <time>2017-02-18T07:06:38.000Z</time>
      </trkpt>
      <trkpt lat="42.64578" lon="1.55237">
        <ele>2124.3999023438</ele>
        <time>2017-02-18T07:07:50.000Z</time>
      </trkpt>
      <trkpt lat="42.64584" lon="1.55186">
        <ele>2130.8000488281</ele>
        <time>2017-02-18T07:09:04.000Z</time>
      </trkpt>
      <trkpt lat="42.6458" lon="1.55118">
        <ele>2136.3999023438</ele>
        <time>2017-02-18T07:10:15.000Z</time>
      </trkpt>
      <trkpt lat="42.64578" lon="1.55048">
        <ele>2142.8000488281</ele>
        <time>2017-02-18T07:11:27.000Z</time>
      </trkpt>
      <trkpt lat="42.6458" lon="1.55011">
        <ele>2149.8000488281</ele>
        <time>2017-02-18T07:12:40.000Z</time>
      </trkpt>
      <trkpt lat="42.64597" lon="1.55002">
        <ele>2152.6000976562</ele>
        <time>2017-02-18T07:13:52.000Z</time>
      </trkpt>
      <trkpt lat="42.64571" lon="1.54956">
        <ele>2156.8000488281</ele>
        <time>2017-02-18T07:15:04.000Z</time>
      </trkpt>
      <trkpt lat="42.64565" lon="1.54925">
        <ele>2164</ele>
        <time>2017-02-18T07:16:17.000Z</time>
      </trkpt>
      <trkpt lat="42.64564" lon="1.54885">
        <ele>2171.3999023438</ele>
        <time>2017-02-18T07:17:30.000Z</time>
      </trkpt>
      <trkpt lat="42.64566" lon="1.5483">
        <ele>2179.3999023438</ele>
        <time>2017-02-18T07:18:42.000Z</time>
      </trkpt>
      <trkpt lat="42.64557" lon="1.54799">
        <ele>2184.1999511719</ele>
        <time>2017-02-18T07:19:55.000Z</time>
      </trkpt>
      <trkpt lat="42.64551" lon="1.54738">
        <ele>2192.8000488281</ele>
        <time>2017-02-18T07:21:07.000Z</time>
      </trkpt>
      <trkpt lat="42.64556" lon="1.54697">
        <ele>2199.6000976562</ele>
        <time>2017-02-18T07:22:19.000Z</time>
      </trkpt>
      <trkpt lat="42.64551" lon="1.54647">
        <ele>2207.1999511719</ele>
        <time>2017-02-18T07:23:32.000Z</time>
      </trkpt>
      <trkpt lat="42.64552" lon="1.54605">
        <ele>2215.6000976562</ele>
        <time>2017-02-18T07:24:46.000Z</time>
      </trkpt>
      <trkpt lat="42.64565" lon="1.54573">
        <ele>2225.6000976562</ele>
        <time>2017-02-18T07:26:01.000Z</time>
      </trkpt>
      <trkpt lat="42.64584" lon="1.54541">
        <ele>2235</ele>
        <time>2017-02-18T07:27:15.000Z</time>
      </trkpt>
      <trkpt lat="42.64571" lon="1.545">
        <ele>2243.6000976562</ele>
        <time>2017-02-18T07:28:29.000Z</time>
      </trkpt>
      <trkpt lat="42.64573" lon="1.54459">
        <ele>2252.6000976562</ele>
        <time>2017-02-18T07:29:42.000Z</time>
      </trkpt>
      <trkpt lat="42.64585" lon="1.54419">
        <ele>2262.3999023438</ele>
        <time>2017-02-18T07:30:56.000Z</time>
      </trkpt>
      <trkpt lat="42.64542" lon="1.54425">
        <ele>2270.6000976562</ele>
        <time>2017-02-18T07:32:08.000Z</time>
      </trkpt>
      <trkpt lat="42.64533" lon="1.54397">
        <ele>2279.1999511719</ele>
        <time>2017-02-18T07:33:21.000Z</time>
      </trkpt>
      <trkpt lat="42.64528" lon="1.54362">
        <ele>2289.6000976562</ele>
        <time>2017-02-18T07:34:35.000Z</time>
      </trkpt>
      <trkpt lat="42.64508" lon="1.54359">
        <ele>2298</ele>
        <time>2017-02-18T07:35:48.000Z</time>
      </trkpt>
      <trkpt lat="42.64464" lon="1.54323">
        <ele>2306.8000488281</ele>
        <time>2017-02-18T07:37:01.000Z</time>
      </trkpt>
      <trkpt lat="42.64435" lon="1.54319">
        <ele>2317.3999023438</ele>
        <time>2017-02-18T07:38:14.000Z</time>
      </trkpt>
      <trkpt lat="42.64399" lon="1.54296">
        <ele>2324.6000976562</ele>
        <time>2017-02-18T07:39:26.000Z</time>
      </trkpt>
      <trkpt lat="42.6436" lon="1.54264">
        <ele>2333.1999511719</ele>
        <time>2017-02-18T07:40:40.000Z</time>
      </trkpt>
      <trkpt lat="42.64335" lon="1.54247">
        <ele>2344</ele>
        <time>2017-02-18T07:41:53.000Z</time>
      </trkpt>
      <trkpt lat="42.64315" lon="1.54275">
        <ele>2353.8000488281</ele>
        <time>2017-02-18T07:43:07.000Z</time>
      </trkpt>
      <trkpt lat="42.64278" lon="1.54234">
        <ele>2362.6000976562</ele>
        <time>2017-02-18T07:44:21.000Z</time>
      </trkpt>
      <trkpt lat="42.6426" lon="1.54206">
        <ele>2372</ele>
        <time>2017-02-18T07:45:35.000Z</time>
      </trkpt>
      <trkpt lat="42.64213" lon="1.54168">
        <ele>2382</ele>
        <time>2017-02-18T07:46:48.000Z</time>
      </trkpt>
      <trkpt lat="42.64209" lon="1.54135">
        <ele>2390.8000488281</ele>
        <time>2017-02-18T07:48:01.000Z</time>
      </trkpt>
      <trkpt lat="42.64173" lon="1.54095">
        <ele>2399.3999023438</ele>
        <time>2017-02-18T07:49:15.000Z</time>
      </trkpt>
      <trkpt lat="42.64118" lon="1.54086">
        <ele>2404.8000488281</ele>
        <time>2017-02-18T07:50:28.000Z</time>
      </trkpt>
      <trkpt lat="42.64152" lon="1.54039">
        <ele>2413.8000488281</ele>
        <time>2017-02-18T07:51:40.000Z</time>
      </trkpt>
      <trkpt lat="42.64174" lon="1.54009">
        <ele>2422.6000976562</ele>
        <time>2017-02-18T07:52:52.000Z</time>
      </trkpt>
      <trkpt lat="42.64155" lon="1.5398">
        <ele>2432.3999023438</ele>
        <time>2017-02-18T07:54:04.000Z</time>
      </trkpt>
      <trkpt lat="42.64165" lon="1.53943">
        <ele>2441</ele>
        <time>2017-02-18T07:55:17.000Z</time>
      </trkpt>
      <trkpt lat="42.64139" lon="1.53911">
        <ele>2451.6000976562</ele>
        <time>2017-02-18T07:56:30.000Z</time>
      </trkpt>
      <trkpt lat="42.64104" lon="1.53897">
        <ele>2460.8000488281</ele>
        <time>2017-02-18T07:57:42.000Z</time>
      </trkpt>
      <trkpt lat="42.6413" lon="1.53852">
        <ele>2470.6000976562</ele>
        <time>2017-02-18T07:58:54.000Z</time>
      </trkpt>
      <trkpt lat="42.64103" lon="1.53811">
        <ele>2478.8000488281</ele>
        <time>2017-02-18T08:00:06.000Z</time>
      </trkpt>
      <trkpt lat="42.64095" lon="1.53777">
        <ele>2487.3999023438</ele>
        <time>2017-02-18T08:01:19.000Z</time>
      </trkpt>
      <trkpt lat="42.64097" lon="1.53741">
        <ele>2497</ele>
        <time>2017-02-18T08:02:32.000Z</time>
      </trkpt>
      <trkpt lat="42.6409" lon="1.53723">
        <ele>2506.3999023438</ele>
        <time>2017-02-18T08:03:44.000Z</time>
      </trkpt>
      <trkpt lat="42.64078" lon="1.53682">
        <ele>2513.8000488281</ele>
        <time>2017-02-18T08:04:58.000Z</time>
      </trkpt>
      <trkpt lat="42.64089" lon="1.53649">
        <ele>2523.8000488281</ele>
        <time>2017-02-18T08:06:10.000Z</time>
      </trkpt>
      <trkpt lat="42.64044" lon="1.53635">
        <ele>2532.1999511719</ele>
        <time>2017-02-18T08:07:22.000Z</time>
      </trkpt>
      <trkpt lat="42.64037" lon="1.53621">
        <ele>2537.6000976562</ele>
        <time>2017-02-18T08:08:34.000Z</time>
      </trkpt>
      <trkpt lat="42.64051" lon="1.53609">
        <ele>2538</ele>
        <time>2017-02-18T08:09:46.000Z</time>
      </trkpt>
      <trkpt lat="42.64037" lon="1.53613">
        <ele>2537.6000976562</ele>
        <time>2017-02-18T08:11:01.000Z</time>
      </trkpt>
      <trkpt lat="42.64029" lon="1.53623">
        <ele>2537.8000488281</ele>
        <time>2017-02-18T08:12:13.000Z</time>
      </trkpt>
      <trkpt lat="42.64037" lon="1.53606">
        <ele>2538</ele>
        <time>2017-02-18T08:13:28.000Z</time>
      </trkpt>
      <trkpt lat="42.6404" lon="1.53609">
        <ele>2538</ele>
        <time>2017-02-18T08:14:41.000Z</time>
      </trkpt>
      <trkpt lat="42.64022" lon="1.53629">
        <ele>2537.8000488281</ele>
        <time>2017-02-18T08:15:54.000Z</time>
      </trkpt>
      <trkpt lat="42.64036" lon="1.53615">
        <ele>2537.1999511719</ele>
        <time>2017-02-18T08:17:08.000Z</time>
      </trkpt>
      <trkpt lat="42.64042" lon="1.5361">
        <ele>2538</ele>
        <time>2017-02-18T08:18:21.000Z</time>
      </trkpt>
      <trkpt lat="42.6406" lon="1.536">
        <ele>2537.6000976562</ele>
        <time>2017-02-18T08:19:35.000Z</time>
      </trkpt>
      <trkpt lat="42.64023" lon="1.53606">
        <ele>2537.3999023438</ele>
        <time>2017-02-18T08:20:47.000Z</time>
      </trkpt>
      <trkpt lat="42.64039" lon="1.53619">
        <ele>2537.8000488281</ele>
        <time>2017-02-18T08:22:03.000Z</time>
      </trkpt>
      <trkpt lat="42.64026" lon="1.53615">
        <ele>2538</ele>
        <time>2017-02-18T08:23:16.000Z</time>
      </trkpt>
      <trkpt lat="42.6404" lon="1.53613">
        <ele>2538</ele>
        <time>2017-02-18T08:24:30.000Z</time>
      </trkpt>
      <trkpt lat="42.64033" lon="1.53641">
        <ele>2537.6000976562</ele>
        <time>2017-02-18T08:25:44.000Z</time>
      </trkpt>
      <trkpt lat="42.64035" lon="1.5361">
        <ele>2537.6000976562</ele>
        <time>2017-02-18T08:27:00.000Z</time>
      </trkpt>
      <trkpt lat="42.64037" lon="1.53607">
        <ele>2538.1999511719</ele>
        <time>2017-02-18T08:28:14.000Z</time>
      </trkpt>
      <trkpt lat="42.64015" lon="1.53577">
        <ele>2529.6000976562</ele>
        <time>2017-02-18T08:29:27.000Z</time>
      </trkpt>
      <trkpt lat="42.64002" lon="1.53478">
        <ele>2481.8000488281</ele>
        <time>2017-02-18T08:30:40.000Z</time>
      </trkpt>
      <trkpt lat="42.64008" lon="1.53382">
        <ele>2460.6000976562</ele>
        <time>2017-02-18T08:31:52.000Z</time>
      </trkpt>
      <trkpt lat="42.63961" lon="1.53275">
        <ele>2434.1999511719</ele>
        <time>2017-02-18T08:33:04.000Z</time>
      </trkpt>
      <trkpt lat="42.63897" lon="1.53006">
        <ele>2388.1999511719</ele>
        <time>2017-02-18T08:34:17.000Z</time>
      </trkpt>
      <trkpt lat="42.6387" lon="1.52762">
        <ele>2351</ele>
        <time>2017-02-18T08:35:31.000Z</time>
      </trkpt>
      <trkpt lat="42.63833" lon="1.52775">
        <ele>2350.6000976562</ele>
        <time>2017-02-18T08:36:42.000Z</time>
      </trkpt>
      <trkpt lat="42.63839" lon="1.52784">
        <ele>2351</ele>
        <time>2017-02-18T08:37:56.000Z</time>
      </trkpt>
      <trkpt lat="42.63845" lon="1.52788">
        <ele>2351.1999511719</ele>
        <time>2017-02-18T08:39:08.000Z</time>
      </trkpt>
      <trkpt lat="42.6384" lon="1.52788">
        <ele>2351.3999023438</ele>
        <time>2017-02-18T08:40:21.000Z</time>
      </trkpt>
      <trkpt lat="42.63743" lon="1.52675">
        <ele>2297.8000488281</ele>
        <time>2017-02-18T08:41:34.000Z</time>
      </trkpt>
      <trkpt lat="42.63717" lon="1.52581">
        <ele>2231</ele>
        <time>2017-02-18T08:42:46.000Z</time>
      </trkpt>
      <trkpt lat="42.63636" lon="1.52451">
        <ele>2159.8000488281</ele>
        <time>2017-02-18T08:44:00.000Z</time>
      </trkpt>
      <trkpt lat="42.63622" lon="1.5229">
        <ele>2122.6000976562</ele>
        <time>2017-02-18T08:45:13.000Z</time>
      </trkpt>
      <trkpt lat="42.63623" lon="1.52059">
        <ele>2111.8000488281</ele>
        <time>2017-02-18T08:46:26.000Z</time>
      </trkpt>
      <trkpt lat="42.63609" lon="1.51852">
        <ele>2068</ele>
        <time>2017-02-18T08:47:38.000Z</time>
      </trkpt>
      <trkpt lat="42.63569" lon="1.51618">
        <ele>2052.8000488281</ele>
        <time>2017-02-18T08:48:52.000Z</time>
      </trkpt>
      <trkpt lat="42.63548" lon="1.51585">
        <ele>2050.1999511719</ele>
        <time>2017-02-18T08:50:06.000Z</time>
      </trkpt>
      <trkpt lat="42.63548" lon="1.51604">
        <ele>2050.8000488281</ele>
        <time>2017-02-18T08:51:18.000Z</time>
      </trkpt>
      <trkpt lat="42.63558" lon="1.516">
        <ele>2050.1999511719</ele>
        <time>2017-02-18T08:52:31.000Z</time>
      </trkpt>
      <trkpt lat="42.63555" lon="1.51578">
        <ele>2049.1999511719</ele>
        <time>2017-02-18T08:53:44.000Z</time>
      </trkpt>
      <trkpt lat="42.63552" lon="1.51587">
        <ele>2049.3999023438</ele>
        <time>2017-02-18T08:54:58.000Z</time>
      </trkpt>
      <trkpt lat="42.63549" lon="1.51597">
        <ele>2049</ele>
        <time>2017-02-18T08:56:11.000Z</time>
      </trkpt>
      <trkpt lat="42.6351" lon="1.51477">
        <ele>2020.1999511719</ele>
        <time>2017-02-18T08:57:23.000Z</time>
      </trkpt>
      <trkpt lat="42.63437" lon="1.51371">
        <ele>1987.5999755859</ele>
        <time>2017-02-18T08:58:36.000Z</time>
      </trkpt>
      <trkpt lat="42.63401" lon="1.51342">
        <ele>1963.4000244141</ele>
        <time>2017-02-18T08:59:49.000Z</time>
      </trkpt>
      <trkpt lat="42.63335" lon="1.5132">
        <ele>1929.5999755859</ele>
        <time>2017-02-18T09:01:02.000Z</time>
      </trkpt>
      <trkpt lat="42.63376" lon="1.51265">
        <ele>1923.1999511719</ele>
        <time>2017-02-18T09:02:16.000Z</time>
      </trkpt>
      <trkpt lat="42.63328" lon="1.51099">
        <ele>1896</ele>
        <time>2017-02-18T09:03:30.000Z</time>
      </trkpt>
      <trkpt lat="42.63337" lon="1.51117">
        <ele>1895.8000488281</ele>
        <time>2017-02-18T09:04:43.000Z</time>
      </trkpt>
      <trkpt lat="42.63327" lon="1.51118">
        <ele>1896.1999511719</ele>
        <time>2017-02-18T09:05:57.000Z</time>
      </trkpt>
      <trkpt lat="42.63335" lon="1.51113">
        <ele>1896</ele>
        <time>2017-02-18T09:07:12.000Z</time>
      </trkpt>
      <trkpt lat="42.63329" lon="1.51126">
        <ele>1896.4000244141</ele>
        <time>2017-02-18T09:08:24.000Z</time>
      </trkpt>
      <trkpt lat="42.63331" lon="1.5111">
        <ele>1896</ele>
        <time>2017-02-18T09:09:38.000Z</time>
      </trkpt>
      <trkpt lat="42.63342" lon="1.51107">
        <ele>1896.1999511719</ele>
        <time>2017-02-18T09:10:51.000Z</time>
      </trkpt>
      <trkpt lat="42.63334" lon="1.51116">
        <ele>1895.5999755859</ele>
        <time>2017-02-18T09:11:51.000Z</time>
      </trkpt>
      <trkpt lat="42.63334" lon="1.51113">
        <ele>1896</ele>
        <time>2017-02-18T09:12:51.000Z</time>
      </trkpt>
      <trkpt lat="42.63333" lon="1.51118">
        <ele>1896.8000488281</ele>
        <time>2017-02-18T09:14:04.000Z</time>
      </trkpt>
      <trkpt lat="42.63337" lon="1.51111">
        <ele>1896.5999755859</ele>
        <time>2017-02-18T09:15:17.000Z</time>
      </trkpt>
      <trkpt lat="42.63332" lon="1.51096">
        <ele>1897</ele>
        <time>2017-02-18T09:16:29.000Z</time>
      </trkpt>
      <trkpt lat="42.63332" lon="1.5107">
        <ele>1897.4000244141</ele>
        <time>2017-02-18T09:17:41.000Z</time>
      </trkpt>
      <trkpt lat="42.63339" lon="1.51071">
        <ele>1898.1999511719</ele>
        <time>2017-02-18T09:18:41.000Z</time>
      </trkpt>
      <trkpt lat="42.63342" lon="1.51006">
        <ele>1903.5999755859</ele>
        <time>2017-02-18T09:19:41.000Z</time>
      </trkpt>
      <trkpt lat="42.63365" lon="1.50942">
        <ele>1910.4000244141</ele>
        <time>2017-02-18T09:20:54.000Z</time>
      </trkpt>
      <trkpt lat="42.63387" lon="1.50826">
        <ele>1916.5999755859</ele>
        <time>2017-02-18T09:22:07.000Z</time>
      </trkpt>
      <trkpt lat="42.63401" lon="1.50735">
        <ele>1922.4000244141</ele>
        <time>2017-02-18T09:23:20.000Z</time>
      </trkpt>
      <trkpt lat="42.63401" lon="1.50689">
        <ele>1929.1999511719</ele>
        <time>2017-02-18T09:24:32.000Z</time>
      </trkpt>
      <trkpt lat="42.6341" lon="1.50596">
        <ele>1935.5999755859</ele>
        <time>2017-02-18T09:25:45.000Z</time>
      </trkpt>
      <trkpt lat="42.63406" lon="1.50511">
        <ele>1941.4000244141</ele>
        <time>2017-02-18T09:26:58.000Z</time>
      </trkpt>
      <trkpt lat="42.63379" lon="1.50457">
        <ele>1946.8000488281</ele>
        <time>2017-02-18T09:28:10.000Z</time>
      </trkpt>
      <trkpt lat="42.63383" lon="1.50374">
        <ele>1952</ele>
        <time>2017-02-18T09:29:23.000Z</time>
      </trkpt>
      <trkpt lat="42.63367" lon="1.50295">
        <ele>1957.8000488281</ele>
        <time>2017-02-18T09:30:36.000Z</time>
      </trkpt>
      <trkpt lat="42.63364" lon="1.50238">
        <ele>1962.8000488281</ele>
        <time>2017-02-18T09:31:49.000Z</time>
      </trkpt>
      <trkpt lat="42.63358" lon="1.50191">
        <ele>1970.5999755859</ele>
        <time>2017-02-18T09:33:03.000Z</time>
      </trkpt>
      <trkpt lat="42.63377" lon="1.50174">
        <ele>1977.4000244141</ele>
        <time>2017-02-18T09:34:16.000Z</time>
      </trkpt>
      <trkpt lat="42.63351" lon="1.50124">
        <ele>1984</ele>
        <time>2017-02-18T09:35:28.000Z</time>
      </trkpt>
      <trkpt lat="42.63365" lon="1.5009">
        <ele>1989</ele>
        <time>2017-02-18T09:36:41.000Z</time>
      </trkpt>
      <trkpt lat="42.63353" lon="1.50107">
        <ele>1989</ele>
        <time>2017-02-18T09:37:53.000Z</time>
      </trkpt>
      <trkpt lat="42.63372" lon="1.501">
        <ele>1994.5999755859</ele>
        <time>2017-02-18T09:39:06.000Z</time>
      </trkpt>
      <trkpt lat="42.63382" lon="1.50091">
        <ele>1998.8000488281</ele>
        <time>2017-02-18T09:40:19.000Z</time>
      </trkpt>
      <trkpt lat="42.63382" lon="1.50091">
        <ele>1998.8000488281</ele>
        <time>2017-02-18T09:40:18.000Z</time>
      </trkpt>
      <trkpt lat="42.63389" lon="1.50093">
        <ele>2004.1999511719</ele>
        <time>2017-02-18T09:41:32.000Z</time>
      </trkpt>
      <trkpt lat="42.63399" lon="1.50098">
        <ele>2011.4000244141</ele>
        <time>2017-02-18T09:42:46.000Z</time>
      </trkpt>
      <trkpt lat="42.63411" lon="1.50074">
        <ele>2020.8000488281</ele>
        <time>2017-02-18T09:44:00.000Z</time>
      </trkpt>
      <trkpt lat="42.63414" lon="1.50028">
        <ele>2029.8000488281</ele>
        <time>2017-02-18T09:45:13.000Z</time>
      </trkpt>
      <trkpt lat="42.63426" lon="1.50032">
        <ele>2037.8000488281</ele>
        <time>2017-02-18T09:46:28.000Z</time>
      </trkpt>
      <trkpt lat="42.63426" lon="1.50032">
        <ele>2038</ele>
        <time>2017-02-18T09:46:27.000Z</time>
      </trkpt>
      <trkpt lat="42.63438" lon="1.50003">
        <ele>2045.8000488281</ele>
        <time>2017-02-18T09:47:39.000Z</time>
      </trkpt>
      <trkpt lat="42.63445" lon="1.49983">
        <ele>2052.1999511719</ele>
        <time>2017-02-18T09:48:51.000Z</time>
      </trkpt>
      <trkpt lat="42.63433" lon="1.50003">
        <ele>2057</ele>
        <time>2017-02-18T09:50:05.000Z</time>
      </trkpt>
      <trkpt lat="42.63441" lon="1.49979">
        <ele>2064.6000976562</ele>
        <time>2017-02-18T09:51:18.000Z</time>
      </trkpt>
      <trkpt lat="42.63451" lon="1.49958">
        <ele>2072.6000976562</ele>
        <time>2017-02-18T09:52:33.000Z</time>
      </trkpt>
      <trkpt lat="42.63448" lon="1.49925">
        <ele>2077.3999023438</ele>
        <time>2017-02-18T09:53:46.000Z</time>
      </trkpt>
      <trkpt lat="42.63441" lon="1.49852">
        <ele>2085</ele>
        <time>2017-02-18T09:55:00.000Z</time>
      </trkpt>
      <trkpt lat="42.63461" lon="1.49772">
        <ele>2086.8000488281</ele>
        <time>2017-02-18T09:56:14.000Z</time>
      </trkpt>
      <trkpt lat="42.63468" lon="1.49707">
        <ele>2093.8000488281</ele>
        <time>2017-02-18T09:57:26.000Z</time>
      </trkpt>
      <trkpt lat="42.63465" lon="1.49668">
        <ele>2096</ele>
        <time>2017-02-18T09:58:38.000Z</time>
      </trkpt>
      <trkpt lat="42.63462" lon="1.49683">
        <ele>2096</ele>
        <time>2017-02-18T09:59:51.000Z</time>
      </trkpt>
      <trkpt lat="42.63452" lon="1.49659">
        <ele>2095.8000488281</ele>
        <time>2017-02-18T10:01:04.000Z</time>
      </trkpt>
      <trkpt lat="42.63467" lon="1.49636">
        <ele>2103.8000488281</ele>
        <time>2017-02-18T10:02:16.000Z</time>
      </trkpt>
      <trkpt lat="42.63459" lon="1.49565">
        <ele>2111</ele>
        <time>2017-02-18T10:03:30.000Z</time>
      </trkpt>
      <trkpt lat="42.63458" lon="1.49544">
        <ele>2113</ele>
        <time>2017-02-18T10:04:42.000Z</time>
      </trkpt>
      <trkpt lat="42.63436" lon="1.49573">
        <ele>2113.1999511719</ele>
        <time>2017-02-18T10:05:55.000Z</time>
      </trkpt>
      <trkpt lat="42.63447" lon="1.49546">
        <ele>2113.1999511719</ele>
        <time>2017-02-18T10:07:08.000Z</time>
      </trkpt>
      <trkpt lat="42.63452" lon="1.4952">
        <ele>2112.8000488281</ele>
        <time>2017-02-18T10:08:21.000Z</time>
      </trkpt>
      <trkpt lat="42.63484" lon="1.49489">
        <ele>2112.6000976562</ele>
        <time>2017-02-18T10:09:34.000Z</time>
      </trkpt>
      <trkpt lat="42.63473" lon="1.49471">
        <ele>2118.8000488281</ele>
        <time>2017-02-18T10:10:47.000Z</time>
      </trkpt>
      <trkpt lat="42.6348" lon="1.49425">
        <ele>2125.1999511719</ele>
        <time>2017-02-18T10:12:00.000Z</time>
      </trkpt>
      <trkpt lat="42.63486" lon="1.49372">
        <ele>2133.8000488281</ele>
        <time>2017-02-18T10:13:13.000Z</time>
      </trkpt>
      <trkpt lat="42.63493" lon="1.49367">
        <ele>2143</ele>
        <time>2017-02-18T10:14:25.000Z</time>
      </trkpt>
      <trkpt lat="42.63502" lon="1.49296">
        <ele>2152.1999511719</ele>
        <time>2017-02-18T10:15:38.000Z</time>
      </trkpt>
      <trkpt lat="42.63472" lon="1.49252">
        <ele>2160.3999023438</ele>
        <time>2017-02-18T10:16:50.000Z</time>
      </trkpt>
      <trkpt lat="42.63462" lon="1.49228">
        <ele>2168.6000976562</ele>
        <time>2017-02-18T10:18:02.000Z</time>
      </trkpt>
      <trkpt lat="42.63449" lon="1.49196">
        <ele>2177.1999511719</ele>
        <time>2017-02-18T10:19:15.000Z</time>
      </trkpt>
      <trkpt lat="42.63433" lon="1.49159">
        <ele>2183.3999023438</ele>
        <time>2017-02-18T10:20:27.000Z</time>
      </trkpt>
      <trkpt lat="42.63413" lon="1.49122">
        <ele>2190.6000976562</ele>
        <time>2017-02-18T10:21:40.000Z</time>
      </trkpt>
      <trkpt lat="42.63373" lon="1.4909">
        <ele>2198</ele>
        <time>2017-02-18T10:22:53.000Z</time>
      </trkpt>
      <trkpt lat="42.63363" lon="1.49036">
        <ele>2205</ele>
        <time>2017-02-18T10:24:07.000Z</time>
      </trkpt>
      <trkpt lat="42.6331" lon="1.49019">
        <ele>2212.6000976562</ele>
        <time>2017-02-18T10:25:21.000Z</time>
      </trkpt>
      <trkpt lat="42.63331" lon="1.48961">
        <ele>2219.3999023438</ele>
        <time>2017-02-18T10:26:32.000Z</time>
      </trkpt>
      <trkpt lat="42.63339" lon="1.48961">
        <ele>2219.8000488281</ele>
        <time>2017-02-18T10:27:46.000Z</time>
      </trkpt>
      <trkpt lat="42.63293" lon="1.48949">
        <ele>2221.8000488281</ele>
        <time>2017-02-18T10:28:59.000Z</time>
      </trkpt>
      <trkpt lat="42.63252" lon="1.48884">
        <ele>2225.8000488281</ele>
        <time>2017-02-18T10:30:11.000Z</time>
      </trkpt>
      <trkpt lat="42.63213" lon="1.48833">
        <ele>2231.3999023438</ele>
        <time>2017-02-18T10:31:24.000Z</time>
      </trkpt>
      <trkpt lat="42.63203" lon="1.48765">
        <ele>2233.6000976562</ele>
        <time>2017-02-18T10:32:36.000Z</time>
      </trkpt>
      <trkpt lat="42.63166" lon="1.48696">
        <ele>2236.1999511719</ele>
        <time>2017-02-18T10:33:48.000Z</time>
      </trkpt>
      <trkpt lat="42.63172" lon="1.48593">
        <ele>2238.8000488281</ele>
        <time>2017-02-18T10:35:01.000Z</time>
      </trkpt>
      <trkpt lat="42.63148" lon="1.48511">
        <ele>2241.8000488281</ele>
        <time>2017-02-18T10:36:15.000Z</time>
      </trkpt>
      <trkpt lat="42.63148" lon="1.48432">
        <ele>2244.1999511719</ele>
        <time>2017-02-18T10:37:29.000Z</time>
      </trkpt>
      <trkpt lat="42.6314" lon="1.48338">
        <ele>2247.6000976562</ele>
        <time>2017-02-18T10:38:43.000Z</time>
      </trkpt>
      <trkpt lat="42.63168" lon="1.48255">
        <ele>2251.6000976562</ele>
        <time>2017-02-18T10:39:57.000Z</time>
      </trkpt>
      <trkpt lat="42.63171" lon="1.48184">
        <ele>2256.6000976562</ele>
        <time>2017-02-18T10:41:10.000Z</time>
      </trkpt>
      <trkpt lat="42.63151" lon="1.48108">
        <ele>2260.3999023438</ele>
        <time>2017-02-18T10:42:24.000Z</time>
      </trkpt>
      <trkpt lat="42.63163" lon="1.48114">
        <ele>2260.1999511719</ele>
        <time>2017-02-18T10:43:39.000Z</time>
      </trkpt>
      <trkpt lat="42.63134" lon="1.48087">
        <ele>2262.3999023438</ele>
        <time>2017-02-18T10:44:52.000Z</time>
      </trkpt>
      <trkpt lat="42.63134" lon="1.48087">
        <ele>2262.3999023438</ele>
        <time>2017-02-18T10:44:51.000Z</time>
      </trkpt>
      <trkpt lat="42.63152" lon="1.48081">
        <ele>2262.6000976562</ele>
        <time>2017-02-18T10:46:04.000Z</time>
      </trkpt>
      <trkpt lat="42.63142" lon="1.4807">
        <ele>2262</ele>
        <time>2017-02-18T10:47:17.000Z</time>
      </trkpt>
      <trkpt lat="42.63144" lon="1.48074">
        <ele>2262</ele>
        <time>2017-02-18T10:48:32.000Z</time>
      </trkpt>
      <trkpt lat="42.63159" lon="1.4809">
        <ele>2261.8000488281</ele>
        <time>2017-02-18T10:49:44.000Z</time>
      </trkpt>
      <trkpt lat="42.63145" lon="1.4809">
        <ele>2262.3999023438</ele>
        <time>2017-02-18T10:50:57.000Z</time>
      </trkpt>
      <trkpt lat="42.63156" lon="1.48094">
        <ele>2262.1999511719</ele>
        <time>2017-02-18T10:52:13.000Z</time>
      </trkpt>
      <trkpt lat="42.63154" lon="1.48069">
        <ele>2262.3999023438</ele>
        <time>2017-02-18T10:53:34.000Z</time>
      </trkpt>
      <trkpt lat="42.63156" lon="1.48076">
        <ele>2262.6000976562</ele>
        <time>2017-02-18T10:54:46.000Z</time>
      </trkpt>
      <trkpt lat="42.63135" lon="1.48069">
        <ele>2262.6000976562</ele>
        <time>2017-02-18T10:56:02.000Z</time>
      </trkpt>
      <trkpt lat="42.63156" lon="1.48063">
        <ele>2262.6000976562</ele>
        <time>2017-02-18T10:57:15.000Z</time>
      </trkpt>
      <trkpt lat="42.63136" lon="1.4808">
        <ele>2262.6000976562</ele>
        <time>2017-02-18T10:58:28.000Z</time>
      </trkpt>
      <trkpt lat="42.6314" lon="1.48082">
        <ele>2263</ele>
        <time>2017-02-18T10:59:40.000Z</time>
      </trkpt>
      <trkpt lat="42.63153" lon="1.48076">
        <ele>2262.6000976562</ele>
        <time>2017-02-18T11:00:54.000Z</time>
      </trkpt>
      <trkpt lat="42.63167" lon="1.48114">
        <ele>2262.3999023438</ele>
        <time>2017-02-18T11:02:10.000Z</time>
      </trkpt>
      <trkpt lat="42.63135" lon="1.48087">
        <ele>2262.8000488281</ele>
        <time>2017-02-18T11:03:23.000Z</time>
      </trkpt>
      <trkpt lat="42.63156" lon="1.48088">
        <ele>2263.1999511719</ele>
        <time>2017-02-18T11:04:38.000Z</time>
      </trkpt>
      <trkpt lat="42.63137" lon="1.48085">
        <ele>2263.1999511719</ele>
        <time>2017-02-18T11:05:52.000Z</time>
      </trkpt>
      <trkpt lat="42.63144" lon="1.48082">
        <ele>2263.3999023438</ele>
        <time>2017-02-18T11:07:05.000Z</time>
      </trkpt>
      <trkpt lat="42.63141" lon="1.48095">
        <ele>2263</ele>
        <time>2017-02-18T11:08:17.000Z</time>
      </trkpt>
      <trkpt lat="42.63145" lon="1.48075">
        <ele>2263</ele>
        <time>2017-02-18T11:09:31.000Z</time>
      </trkpt>
      <trkpt lat="42.6317" lon="1.48062">
        <ele>2264</ele>
        <time>2017-02-18T11:10:45.000Z</time>
      </trkpt>
      <trkpt lat="42.63137" lon="1.48082">
        <ele>2264.1999511719</ele>
        <time>2017-02-18T11:11:57.000Z</time>
      </trkpt>
      <trkpt lat="42.63138" lon="1.48063">
        <ele>2265.1999511719</ele>
        <time>2017-02-18T11:13:10.000Z</time>
      </trkpt>
      <trkpt lat="42.63135" lon="1.48002">
        <ele>2268.6000976562</ele>
        <time>2017-02-18T11:14:24.000Z</time>
      </trkpt>
      <trkpt lat="42.63118" lon="1.47905">
        <ele>2272.8000488281</ele>
        <time>2017-02-18T11:15:39.000Z</time>
      </trkpt>
      <trkpt lat="42.63149" lon="1.47828">
        <ele>2276.6000976562</ele>
        <time>2017-02-18T11:16:52.000Z</time>
      </trkpt>
      <trkpt lat="42.63105" lon="1.47745">
        <ele>2281.8000488281</ele>
        <time>2017-02-18T11:18:06.000Z</time>
      </trkpt>
      <trkpt lat="42.63064" lon="1.47713">
        <ele>2287.8000488281</ele>
        <time>2017-02-18T11:19:19.000Z</time>
      </trkpt>
      <trkpt lat="42.63013" lon="1.47724">
        <ele>2296.3999023438</ele>
        <time>2017-02-18T11:20:32.000Z</time>
      </trkpt>
      <trkpt lat="42.63008" lon="1.47748">
        <ele>2305.3999023438</ele>
        <time>2017-02-18T11:21:45.000Z</time>
      </trkpt>
      <trkpt lat="42.62946" lon="1.47729">
        <ele>2314.6000976562</ele>
        <time>2017-02-18T11:22:57.000Z</time>
      </trkpt>
      <trkpt lat="42.62923" lon="1.47728">
        <ele>2323.1999511719</ele>
        <time>2017-02-18T11:24:10.000Z</time>
      </trkpt>
      <trkpt lat="42.62879" lon="1.47741">
        <ele>2332.3999023438</ele>
        <time>2017-02-18T11:25:23.000Z</time>
      </trkpt>
      <trkpt lat="42.62854" lon="1.47718">
        <ele>2337.8000488281</ele>
        <time>2017-02-18T11:26:35.000Z</time>
      </trkpt>
      <trkpt lat="42.62784" lon="1.47705">
        <ele>2344.3999023438</ele>
        <time>2017-02-18T11:27:47.000Z</time>
      </trkpt>
      <trkpt lat="42.62749" lon="1.47715">
        <ele>2349.6000976562</ele>
        <time>2017-02-18T11:29:00.000Z</time>
      </trkpt>
      <trkpt lat="42.62702" lon="1.47725">
        <ele>2357</ele>
        <time>2017-02-18T11:30:13.000Z</time>
      </trkpt>
      <trkpt lat="42.62662" lon="1.47745">
        <ele>2361.6000976562</ele>
        <time>2017-02-18T11:31:26.000Z</time>
      </trkpt>
      <trkpt lat="42.62631" lon="1.4778">
        <ele>2369.3999023438</ele>
        <time>2017-02-18T11:32:39.000Z</time>
      </trkpt>
      <trkpt lat="42.62593" lon="1.4781">
        <ele>2371.6000976562</ele>
        <time>2017-02-18T11:33:53.000Z</time>
      </trkpt>
      <trkpt lat="42.62549" lon="1.4784">
        <ele>2376.6000976562</ele>
        <time>2017-02-18T11:35:07.000Z</time>
      </trkpt>
      <trkpt lat="42.62476" lon="1.47843">
        <ele>2380</ele>
        <time>2017-02-18T11:36:20.000Z</time>
      </trkpt>
      <trkpt lat="42.62404" lon="1.47844">
        <ele>2382.6000976562</ele>
        <time>2017-02-18T11:37:36.000Z</time>
      </trkpt>
      <trkpt lat="42.62339" lon="1.47852">
        <ele>2384.6000976562</ele>
        <time>2017-02-18T11:38:50.000Z</time>
      </trkpt>
      <trkpt lat="42.62288" lon="1.4784">
        <ele>2389</ele>
        <time>2017-02-18T11:40:03.000Z</time>
      </trkpt>
      <trkpt lat="42.62233" lon="1.47866">
        <ele>2393.3999023438</ele>
        <time>2017-02-18T11:41:15.000Z</time>
      </trkpt>
      <trkpt lat="42.6217" lon="1.47829">
        <ele>2397.1999511719</ele>
        <time>2017-02-18T11:42:30.000Z</time>
      </trkpt>
      <trkpt lat="42.62124" lon="1.47818">
        <ele>2402.6000976562</ele>
        <time>2017-02-18T11:43:43.000Z</time>
      </trkpt>
      <trkpt lat="42.62092" lon="1.47827">
        <ele>2411.1999511719</ele>
        <time>2017-02-18T11:44:57.000Z</time>
      </trkpt>
      <trkpt lat="42.62067" lon="1.47833">
        <ele>2421.1999511719</ele>
        <time>2017-02-18T11:46:10.000Z</time>
      </trkpt>
      <trkpt lat="42.62047" lon="1.47858">
        <ele>2429.6000976562</ele>
        <time>2017-02-18T11:47:23.000Z</time>
      </trkpt>
      <trkpt lat="42.62012" lon="1.47917">
        <ele>2436.8000488281</ele>
        <time>2017-02-18T11:48:36.000Z</time>
      </trkpt>
      <trkpt lat="42.61995" lon="1.47954">
        <ele>2445.1999511719</ele>
        <time>2017-02-18T11:49:49.000Z</time>
      </trkpt>
      <trkpt lat="42.61962" lon="1.47966">
        <ele>2450.8000488281</ele>
        <time>2017-02-18T11:51:03.000Z</time>
      </trkpt>
      <trkpt lat="42.61974" lon="1.47976">
        <ele>2451.1999511719</ele>
        <time>2017-02-18T11:52:08.000Z</time>
      </trkpt>
      <trkpt lat="42.61964" lon="1.47972">
        <ele>2451.3999023438</ele>
        <time>2017-02-18T11:53:08.000Z</time>
      </trkpt>
      <trkpt lat="42.61963" lon="1.47967">
        <ele>2451.3999023438</ele>
        <time>2017-02-18T11:54:08.000Z</time>
      </trkpt>
      <trkpt lat="42.61969" lon="1.47961">
        <ele>2452</ele>
        <time>2017-02-18T11:55:20.000Z</time>
      </trkpt>
      <trkpt lat="42.61969" lon="1.47958">
        <ele>2453.6000976562</ele>
        <time>2017-02-18T11:56:33.000Z</time>
      </trkpt>
      <trkpt lat="42.6192" lon="1.48002">
        <ele>2461.1999511719</ele>
        <time>2017-02-18T11:57:46.000Z</time>
      </trkpt>
      <trkpt lat="42.61887" lon="1.48021">
        <ele>2470.3999023438</ele>
        <time>2017-02-18T11:58:59.000Z</time>
      </trkpt>
      <trkpt lat="42.61881" lon="1.48061">
        <ele>2479.6000976562</ele>
        <time>2017-02-18T12:00:12.000Z</time>
      </trkpt>
      <trkpt lat="42.6187" lon="1.4804">
        <ele>2487.3999023438</ele>
        <time>2017-02-18T12:01:25.000Z</time>
      </trkpt>
      <trkpt lat="42.61859" lon="1.48056">
        <ele>2496</ele>
        <time>2017-02-18T12:02:37.000Z</time>
      </trkpt>
      <trkpt lat="42.61824" lon="1.48052">
        <ele>2503.1999511719</ele>
        <time>2017-02-18T12:03:50.000Z</time>
      </trkpt>
      <trkpt lat="42.61814" lon="1.48068">
        <ele>2512.3999023438</ele>
        <time>2017-02-18T12:05:02.000Z</time>
      </trkpt>
      <trkpt lat="42.61793" lon="1.48089">
        <ele>2521</ele>
        <time>2017-02-18T12:06:15.000Z</time>
      </trkpt>
      <trkpt lat="42.61792" lon="1.4811">
        <ele>2531.1999511719</ele>
        <time>2017-02-18T12:07:28.000Z</time>
      </trkpt>
      <trkpt lat="42.61747" lon="1.48099">
        <ele>2540.8000488281</ele>
        <time>2017-02-18T12:08:40.000Z</time>
      </trkpt>
      <trkpt lat="42.61769" lon="1.48042">
        <ele>2541.8000488281</ele>
        <time>2017-02-18T12:09:53.000Z</time>
      </trkpt>
      <trkpt lat="42.61816" lon="1.47988">
        <ele>2541</ele>
        <time>2017-02-18T12:11:05.000Z</time>
      </trkpt>
      <trkpt lat="42.61832" lon="1.47922">
        <ele>2532.8000488281</ele>
        <time>2017-02-18T12:12:18.000Z</time>
      </trkpt>
      <trkpt lat="42.61817" lon="1.47947">
        <ele>2536.3999023438</ele>
        <time>2017-02-18T12:13:30.000Z</time>
      </trkpt>
      <trkpt lat="42.61788" lon="1.47953">
        <ele>2544.6000976562</ele>
        <time>2017-02-18T12:14:43.000Z</time>
      </trkpt>
      <trkpt lat="42.61772" lon="1.47956">
        <ele>2552</ele>
        <time>2017-02-18T12:15:55.000Z</time>
      </trkpt>
      <trkpt lat="42.6179" lon="1.4793">
        <ele>2559.8000488281</ele>
        <time>2017-02-18T12:17:08.000Z</time>
      </trkpt>
      <trkpt lat="42.61756" lon="1.47861">
        <ele>2563.8000488281</ele>
        <time>2017-02-18T12:18:21.000Z</time>
      </trkpt>
      <trkpt lat="42.6176" lon="1.47787">
        <ele>2569</ele>
        <time>2017-02-18T12:19:33.000Z</time>
      </trkpt>
      <trkpt lat="42.61797" lon="1.47732">
        <ele>2573.3999023438</ele>
        <time>2017-02-18T12:20:46.000Z</time>
      </trkpt>
      <trkpt lat="42.61824" lon="1.47674">
        <ele>2574</ele>
        <time>2017-02-18T12:21:59.000Z</time>
      </trkpt>
      <trkpt lat="42.61861" lon="1.47641">
        <ele>2568.6000976562</ele>
        <time>2017-02-18T12:23:12.000Z</time>
      </trkpt>
      <trkpt lat="42.61859" lon="1.47621">
        <ele>2569</ele>
        <time>2017-02-18T12:24:26.000Z</time>
      </trkpt>
      <trkpt lat="42.61868" lon="1.47587">
        <ele>2565.6000976562</ele>
        <time>2017-02-18T12:25:39.000Z</time>
      </trkpt>
      <trkpt lat="42.61884" lon="1.47587">
        <ele>2564</ele>
        <time>2017-02-18T12:26:53.000Z</time>
      </trkpt>
      <trkpt lat="42.61947" lon="1.47586">
        <ele>2554.3999023438</ele>
        <time>2017-02-18T12:28:07.000Z</time>
      </trkpt>
      <trkpt lat="42.61987" lon="1.47556">
        <ele>2559.1999511719</ele>
        <time>2017-02-18T12:29:20.000Z</time>
      </trkpt>
      <trkpt lat="42.62001" lon="1.47529">
        <ele>2568.1999511719</ele>
        <time>2017-02-18T12:30:34.000Z</time>
      </trkpt>
      <trkpt lat="42.62023" lon="1.47501">
        <ele>2574.6000976562</ele>
        <time>2017-02-18T12:31:47.000Z</time>
      </trkpt>
      <trkpt lat="42.62046" lon="1.47447">
        <ele>2580.1999511719</ele>
        <time>2017-02-18T12:33:00.000Z</time>
      </trkpt>
      <trkpt lat="42.62065" lon="1.47401">
        <ele>2584</ele>
        <time>2017-02-18T12:34:13.000Z</time>
      </trkpt>
      <trkpt lat="42.62081" lon="1.47395">
        <ele>2583.6000976562</ele>
        <time>2017-02-18T12:35:27.000Z</time>
      </trkpt>
      <trkpt lat="42.62092" lon="1.47388">
        <ele>2583.3999023438</ele>
        <time>2017-02-18T12:36:41.000Z</time>
      </trkpt>
      <trkpt lat="42.62094" lon="1.47395">
        <ele>2583.6000976562</ele>
        <time>2017-02-18T12:37:56.000Z</time>
      </trkpt>
      <trkpt lat="42.62099" lon="1.47404">
        <ele>2584</ele>
        <time>2017-02-18T12:39:11.000Z</time>
      </trkpt>
      <trkpt lat="42.62097" lon="1.47388">
        <ele>2584.6000976562</ele>
        <time>2017-02-18T12:40:27.000Z</time>
      </trkpt>
      <trkpt lat="42.62075" lon="1.47392">
        <ele>2584.6000976562</ele>
        <time>2017-02-18T12:41:43.000Z</time>
      </trkpt>
      <trkpt lat="42.62086" lon="1.47393">
        <ele>2585</ele>
        <time>2017-02-18T12:42:58.000Z</time>
      </trkpt>
      <trkpt lat="42.62081" lon="1.47397">
        <ele>2585.1999511719</ele>
        <time>2017-02-18T12:44:13.000Z</time>
      </trkpt>
      <trkpt lat="42.62084" lon="1.47396">
        <ele>2585.1999511719</ele>
        <time>2017-02-18T12:45:26.000Z</time>
      </trkpt>
      <trkpt lat="42.62095" lon="1.47398">
        <ele>2585.1999511719</ele>
        <time>2017-02-18T12:46:40.000Z</time>
      </trkpt>
      <trkpt lat="42.62081" lon="1.47382">
        <ele>2585.1999511719</ele>
        <time>2017-02-18T12:47:53.000Z</time>
      </trkpt>
      <trkpt lat="42.62082" lon="1.47397">
        <ele>2585.3999023438</ele>
        <time>2017-02-18T12:49:09.000Z</time>
      </trkpt>
      <trkpt lat="42.62084" lon="1.47347">
        <ele>2577.8000488281</ele>
        <time>2017-02-18T12:50:24.000Z</time>
      </trkpt>
      <trkpt lat="42.62038" lon="1.47168">
        <ele>2525.3999023438</ele>
        <time>2017-02-18T12:51:37.000Z</time>
      </trkpt>
      <trkpt lat="42.6193" lon="1.47078">
        <ele>2479.1999511719</ele>
        <time>2017-02-18T12:52:50.000Z</time>
      </trkpt>
      <trkpt lat="42.61889" lon="1.47005">
        <ele>2448.1999511719</ele>
        <time>2017-02-18T12:54:04.000Z</time>
      </trkpt>
      <trkpt lat="42.61898" lon="1.47012">
        <ele>2445.3999023438</ele>
        <time>2017-02-18T12:55:16.000Z</time>
      </trkpt>
      <trkpt lat="42.6195" lon="1.46855">
        <ele>2403</ele>
        <time>2017-02-18T12:56:32.000Z</time>
      </trkpt>
      <trkpt lat="42.6193" lon="1.46834">
        <ele>2359.6000976562</ele>
        <time>2017-02-18T12:57:44.000Z</time>
      </trkpt>
      <trkpt lat="42.6182" lon="1.46643">
        <ele>2291.3999023438</ele>
        <time>2017-02-18T12:58:59.000Z</time>
      </trkpt>
      <trkpt lat="42.62061" lon="1.46439">
        <ele>2246.3999023438</ele>
        <time>2017-02-18T13:00:13.000Z</time>
      </trkpt>
      <trkpt lat="42.61977" lon="1.465">
        <ele>2246.6000976562</ele>
        <time>2017-02-18T13:01:26.000Z</time>
      </trkpt>
      <trkpt lat="42.61988" lon="1.4651">
        <ele>2246.6000976562</ele>
        <time>2017-02-18T13:02:39.000Z</time>
      </trkpt>
      <trkpt lat="42.61977" lon="1.46514">
        <ele>2246.6000976562</ele>
        <time>2017-02-18T13:03:51.000Z</time>
      </trkpt>
      <trkpt lat="42.61982" lon="1.46492">
        <ele>2245.6000976562</ele>
        <time>2017-02-18T13:05:05.000Z</time>
      </trkpt>
      <trkpt lat="42.62213" lon="1.45949">
        <ele>2158.8000488281</ele>
        <time>2017-02-18T13:06:20.000Z</time>
      </trkpt>
      <trkpt lat="42.62196" lon="1.4556">
        <ele>2104.3999023438</ele>
        <time>2017-02-18T13:07:33.000Z</time>
      </trkpt>
      <trkpt lat="42.62324" lon="1.45413">
        <ele>2052.3999023438</ele>
        <time>2017-02-18T13:08:46.000Z</time>
      </trkpt>
      <trkpt lat="42.62667" lon="1.4519">
        <ele>1916.8000488281</ele>
        <time>2017-02-18T13:10:14.000Z</time>
      </trkpt>
      <trkpt lat="42.62882" lon="1.45122">
        <ele>1893</ele>
        <time>2017-02-18T13:11:28.000Z</time>
      </trkpt>
      <trkpt lat="42.62859" lon="1.45117">
        <ele>1893.4000244141</ele>
        <time>2017-02-18T13:12:43.000Z</time>
      </trkpt>
      <trkpt lat="42.6291" lon="1.45129">
        <ele>1893.4000244141</ele>
        <time>2017-02-18T13:13:57.000Z</time>
      </trkpt>
      <trkpt lat="42.62883" lon="1.45131">
        <ele>1894</ele>
        <time>2017-02-18T13:15:12.000Z</time>
      </trkpt>
      <trkpt lat="42.62902" lon="1.45141">
        <ele>1894.1999511719</ele>
        <time>2017-02-18T13:16:27.000Z</time>
      </trkpt>
      <trkpt lat="42.62921" lon="1.4512">
        <ele>1895</ele>
        <time>2017-02-18T13:17:41.000Z</time>
      </trkpt>
      <trkpt lat="42.62966" lon="1.45123">
        <ele>1897.5999755859</ele>
        <time>2017-02-18T13:18:53.000Z</time>
      </trkpt>
      <trkpt lat="42.62995" lon="1.45063">
        <ele>1900.8000488281</ele>
        <time>2017-02-18T13:19:54.000Z</time>
      </trkpt>
      <trkpt lat="42.63053" lon="1.45055">
        <ele>1903</ele>
        <time>2017-02-18T13:20:54.000Z</time>
      </trkpt>
      <trkpt lat="42.63105" lon="1.45109">
        <ele>1905.5999755859</ele>
        <time>2017-02-18T13:22:08.000Z</time>
      </trkpt>
      <trkpt lat="42.63161" lon="1.45136">
        <ele>1909.5999755859</ele>
        <time>2017-02-18T13:23:21.000Z</time>
      </trkpt>
      <trkpt lat="42.63359" lon="1.45142">
        <ele>1899.4000244141</ele>
        <time>2017-02-18T13:24:33.000Z</time>
      </trkpt>
      <trkpt lat="42.63628" lon="1.45118">
        <ele>1887</ele>
        <time>2017-02-18T13:25:46.000Z</time>
      </trkpt>
      <trkpt lat="42.63954" lon="1.45099">
        <ele>1867.8000488281</ele>
        <time>2017-02-18T13:26:59.000Z</time>
      </trkpt>
      <trkpt lat="42.64219" lon="1.45069">
        <ele>1856.8000488281</ele>
        <time>2017-02-18T13:28:13.000Z</time>
      </trkpt>
      <trkpt lat="42.64452" lon="1.44958">
        <ele>1844</ele>
        <time>2017-02-18T13:29:26.000Z</time>
      </trkpt>
      <trkpt lat="42.64447" lon="1.4495">
        <ele>1841.5999755859</ele>
        <time>2017-02-18T13:30:40.000Z</time>
      </trkpt>
      <trkpt lat="42.64449" lon="1.44926">
        <ele>1841</ele>
        <time>2017-02-18T13:31:59.000Z</time>
      </trkpt>
      <trkpt lat="42.64482" lon="1.44927">
        <ele>1844</ele>
        <time>2017-02-18T13:33:13.000Z</time>
      </trkpt>
      <trkpt lat="42.64483" lon="1.4491">
        <ele>1840.1999511719</ele>
        <time>2017-02-18T13:34:26.000Z</time>
      </trkpt>
      <trkpt lat="42.64462" lon="1.44947">
        <ele>1844.1999511719</ele>
        <time>2017-02-18T13:35:41.000Z</time>
      </trkpt>
      <trkpt lat="42.64509" lon="1.44932">
        <ele>1841.5999755859</ele>
        <time>2017-02-18T13:36:55.000Z</time>
      </trkpt>
      <trkpt lat="42.64557" lon="1.4493">
        <ele>1836.4000244141</ele>
        <time>2017-02-18T13:38:10.000Z</time>
      </trkpt>
      <trkpt lat="42.64722" lon="1.45005">
        <ele>1811.8000488281</ele>
        <time>2017-02-18T13:39:23.000Z</time>
      </trkpt>
      <trkpt lat="42.64745" lon="1.45017">
        <ele>1808</ele>
        <time>2017-02-18T13:40:36.000Z</time>
      </trkpt>
      <trkpt lat="42.64773" lon="1.45019">
        <ele>1793.1999511719</ele>
        <time>2017-02-18T13:41:50.000Z</time>
      </trkpt>
      <trkpt lat="42.64817" lon="1.4502">
        <ele>1778.5999755859</ele>
        <time>2017-02-18T13:43:04.000Z</time>
      </trkpt>
      <trkpt lat="42.65111" lon="1.45117">
        <ele>1741</ele>
        <time>2017-02-18T13:44:17.000Z</time>
      </trkpt>
      <trkpt lat="42.6551" lon="1.4494">
        <ele>1691</ele>
        <time>2017-02-18T13:45:31.000Z</time>
      </trkpt>
      <trkpt lat="42.65671" lon="1.44718">
        <ele>1668.5999755859</ele>
        <time>2017-02-18T13:46:44.000Z</time>
      </trkpt>
      <trkpt lat="42.65844" lon="1.44718">
        <ele>1657.4000244141</ele>
        <time>2017-02-18T13:47:59.000Z</time>
      </trkpt>
      <trkpt lat="42.65937" lon="1.44831">
        <ele>1635.4000244141</ele>
        <time>2017-02-18T13:49:13.000Z</time>
      </trkpt>
      <trkpt lat="42.6601" lon="1.44826">
        <ele>1633.8000488281</ele>
        <time>2017-02-18T13:50:27.000Z</time>
      </trkpt>
      <trkpt lat="42.66106" lon="1.44782">
        <ele>1634</ele>
        <time>2017-02-18T13:51:41.000Z</time>
      </trkpt>
      <trkpt lat="42.66136" lon="1.4486">
        <ele>1635</ele>
        <time>2017-02-18T13:52:54.000Z</time>
      </trkpt>
      <trkpt lat="42.66235" lon="1.44881">
        <ele>1634.1999511719</ele>
        <time>2017-02-18T13:54:07.000Z</time>
      </trkpt>
      <trkpt lat="42.66319" lon="1.44882">
        <ele>1634.4000244141</ele>
        <time>2017-02-18T13:55:21.000Z</time>
      </trkpt>
      <trkpt lat="42.66406" lon="1.44903">
        <ele>1635.1999511719</ele>
        <time>2017-02-18T13:56:33.000Z</time>
      </trkpt>
      <trkpt lat="42.66468" lon="1.44951">
        <ele>1635.1999511719</ele>
        <time>2017-02-18T13:57:47.000Z</time>
      </trkpt>
      <trkpt lat="42.66477" lon="1.44946">
        <ele>1634.5999755859</ele>
        <time>2017-02-18T13:59:02.000Z</time>
      </trkpt>
      <trkpt lat="42.66511" lon="1.4494">
        <ele>1634.8000488281</ele>
        <time>2017-02-18T14:00:16.000Z</time>
      </trkpt>
      <trkpt lat="42.66563" lon="1.44987">
        <ele>1636</ele>
        <time>2017-02-18T14:01:28.000Z</time>
      </trkpt>
      <trkpt lat="42.66636" lon="1.45013">
        <ele>1636</ele>
        <time>2017-02-18T14:02:42.000Z</time>
      </trkpt>
      <trkpt lat="42.66682" lon="1.45029">
        <ele>1636</ele>
        <time>2017-02-18T14:03:55.000Z</time>
      </trkpt>
      <trkpt lat="42.66754" lon="1.45081">
        <ele>1635.1999511719</ele>
        <time>2017-02-18T14:05:11.000Z</time>
      </trkpt>
      <trkpt lat="42.66822" lon="1.4512">
        <ele>1635.1999511719</ele>
        <time>2017-02-18T14:06:24.000Z</time>
      </trkpt>
      <trkpt lat="42.66877" lon="1.4511">
        <ele>1635</ele>
        <time>2017-02-18T14:07:36.000Z</time>
      </trkpt>
      <trkpt lat="42.66838" lon="1.45116">
        <ele>1635</ele>
        <time>2017-02-18T14:08:49.000Z</time>
      </trkpt>
      <trkpt lat="42.66922" lon="1.45164">
        <ele>1635.8000488281</ele>
        <time>2017-02-18T14:10:03.000Z</time>
      </trkpt>
      <trkpt lat="42.6701" lon="1.45169">
        <ele>1636</ele>
        <time>2017-02-18T14:11:17.000Z</time>
      </trkpt>
      <trkpt lat="42.67091" lon="1.45185">
        <ele>1636.1999511719</ele>
        <time>2017-02-18T14:12:29.000Z</time>
      </trkpt>
      <trkpt lat="42.67161" lon="1.45199">
        <ele>1636</ele>
        <time>2017-02-18T14:13:42.000Z</time>
      </trkpt>
      <trkpt lat="42.67231" lon="1.45208">
        <ele>1636.4000244141</ele>
        <time>2017-02-18T14:14:55.000Z</time>
      </trkpt>
      <trkpt lat="42.67316" lon="1.4521">
        <ele>1636.5999755859</ele>
        <time>2017-02-18T14:16:09.000Z</time>
      </trkpt>
      <trkpt lat="42.6736" lon="1.4512">
        <ele>1636.8000488281</ele>
        <time>2017-02-18T14:17:22.000Z</time>
      </trkpt>
      <trkpt lat="42.67427" lon="1.45116">
        <ele>1638.5999755859</ele>
        <time>2017-02-18T14:18:35.000Z</time>
      </trkpt>
      <trkpt lat="42.67473" lon="1.4514">
        <ele>1638</ele>
        <time>2017-02-18T14:19:48.000Z</time>
      </trkpt>
      <trkpt lat="42.6752" lon="1.45185">
        <ele>1635.4000244141</ele>
        <time>2017-02-18T14:21:01.000Z</time>
      </trkpt>
      <trkpt lat="42.67541" lon="1.45164">
        <ele>1634.4000244141</ele>
        <time>2017-02-18T14:22:16.000Z</time>
      </trkpt>
      <trkpt lat="42.6753" lon="1.45178">
        <ele>1635.1999511719</ele>
        <time>2017-02-18T14:23:30.000Z</time>
      </trkpt>
      <trkpt lat="42.67527" lon="1.45174">
        <ele>1635.5999755859</ele>
        <time>2017-02-18T14:24:44.000Z</time>
      </trkpt>
      <trkpt lat="42.67569" lon="1.45202">
        <ele>1631.5999755859</ele>
        <time>2017-02-18T14:25:56.000Z</time>
      </trkpt>
      <trkpt lat="42.67646" lon="1.45256">
        <ele>1623.1999511719</ele>
        <time>2017-02-18T14:27:09.000Z</time>
      </trkpt>
      <trkpt lat="42.67733" lon="1.45289">
        <ele>1615.5999755859</ele>
        <time>2017-02-18T14:28:22.000Z</time>
      </trkpt>
      <trkpt lat="42.67806" lon="1.45222">
        <ele>1606.4000244141</ele>
        <time>2017-02-18T14:29:35.000Z</time>
      </trkpt>
      <trkpt lat="42.67868" lon="1.45219">
        <ele>1600.5999755859</ele>
        <time>2017-02-18T14:30:48.000Z</time>
      </trkpt>
      <trkpt lat="42.67909" lon="1.45176">
        <ele>1593.1999511719</ele>
        <time>2017-02-18T14:32:01.000Z</time>
      </trkpt>
      <trkpt lat="42.67815" lon="1.45164">
        <ele>1582.8000488281</ele>
        <time>2017-02-18T14:33:14.000Z</time>
      </trkpt>
      <trkpt lat="42.67777" lon="1.45106">
        <ele>1569.1999511719</ele>
        <time>2017-02-18T14:34:26.000Z</time>
      </trkpt>
      <trkpt lat="42.67822" lon="1.4509">
        <ele>1557.4000244141</ele>
        <time>2017-02-18T14:35:40.000Z</time>
      </trkpt>
      <trkpt lat="42.67892" lon="1.45015">
        <ele>1544</ele>
        <time>2017-02-18T14:37:16.000Z</time>
      </trkpt>
      <trkpt lat="42.68017" lon="1.44964">
        <ele>1531.5999755859</ele>
        <time>2017-02-18T14:39:44.000Z</time>
      </trkpt>
      <trkpt lat="42.68113" lon="1.44957">
        <ele>1520.1999511719</ele>
        <time>2017-02-18T14:41:16.000Z</time>
      </trkpt>
      <trkpt lat="42.68172" lon="1.44936">
        <ele>1504.4000244141</ele>
        <time>2017-02-18T14:42:36.000Z</time>
      </trkpt>
      <trkpt lat="42.68506" lon="1.45119">
        <ele>1474</ele>
        <time>2017-02-18T14:43:52.000Z</time>
      </trkpt>
      <trkpt lat="42.68638" lon="1.45249">
        <ele>1448.5999755859</ele>
        <time>2017-02-18T14:45:06.000Z</time>
      </trkpt>
      <trkpt lat="42.68673" lon="1.45268">
        <ele>1440</ele>
        <time>2017-02-18T14:46:20.000Z</time>
      </trkpt>
      <trkpt lat="42.68653" lon="1.45146">
        <ele>1413.8000488281</ele>
        <time>2017-02-18T14:47:41.000Z</time>
      </trkpt>
      <trkpt lat="42.6867" lon="1.45135">
        <ele>1411</ele>
        <time>2017-02-18T14:49:00.000Z</time>
      </trkpt>
      <trkpt lat="42.68691" lon="1.45205">
        <ele>1400.5999755859</ele>
        <time>2017-02-18T14:50:19.000Z</time>
      </trkpt>
      <trkpt lat="42.69119" lon="1.4533">
        <ele>1335.4000244141</ele>
        <time>2017-02-18T15:00:11.000Z</time>
      </trkpt>
      <trkpt lat="42.69181" lon="1.4531">
        <ele>1328</ele>
        <time>2017-02-18T15:01:11.000Z</time>
      </trkpt>
      <trkpt lat="42.69269" lon="1.4532">
        <ele>1320.5999755859</ele>
        <time>2017-02-18T15:02:11.000Z</time>
      </trkpt>
      <trkpt lat="42.69337" lon="1.45258">
        <ele>1309.4000244141</ele>
        <time>2017-02-18T15:03:23.000Z</time>
      </trkpt>
      <trkpt lat="42.69257" lon="1.45278">
        <ele>1296.1999511719</ele>
        <time>2017-02-18T15:04:38.000Z</time>
      </trkpt>
      <trkpt lat="42.69199" lon="1.45208">
        <ele>1279.4000244141</ele>
        <time>2017-02-18T15:05:50.000Z</time>
      </trkpt>
      <trkpt lat="42.6919" lon="1.45218">
        <ele>1260.8000488281</ele>
        <time>2017-02-18T15:07:07.000Z</time>
      </trkpt>
      <trkpt lat="42.69157" lon="1.4511">
        <ele>1258.8000488281</ele>
        <time>2017-02-18T15:08:22.000Z</time>
      </trkpt>
      <trkpt lat="42.69176" lon="1.45084">
        <ele>1258.4000244141</ele>
        <time>2017-02-18T15:09:37.000Z</time>
      </trkpt>
      <trkpt lat="42.69175" lon="1.45094">
        <ele>1258.1999511719</ele>
        <time>2017-02-18T15:09:39.000Z</time>
      </trkpt>
    </trkseg>
  </trk>
</gpx>